Provisional Data: Lititz Run near Lititz, PA


Please select a monitoring station.
Please select start date.
Please select start date.

Toggle Unit: C/F Toggle Unit: C/F
Sample Time Temperature (C) Temperature (F) Specific Conductivity (mS/cm) pH   Turbidity (NTU+) DO (mg/L)
9/6/2021 12:00:00 AM 16.02 60.836 0.657 7.35 8.53 8.53
9/6/2021 12:15:00 AM 16 60.8 0.658 7.35 8.15 8.53
9/6/2021 12:30:00 AM 15.98 60.764 0.658 7.36 8.08 8.54
9/6/2021 12:45:00 AM 15.96 60.728 0.657 7.36 8.04 8.55
9/6/2021 1:00:00 AM 15.94 60.692 0.656 7.36 8.29 8.55
9/6/2021 1:15:00 AM 15.92 60.656 0.656 7.35 8.7 8.56
9/6/2021 1:30:00 AM 15.9 60.62 0.656 7.36 9.18 8.56
9/6/2021 1:45:00 AM 15.89 60.602 0.655 7.36 8.18 8.57
9/6/2021 2:00:00 AM 15.87 60.566 0.655 7.36 7.84 8.57
9/6/2021 2:15:00 AM 15.85 60.53 0.655 7.35 7.63 8.58
9/6/2021 2:30:00 AM 15.83 60.494 0.654 7.37 8.32 8.58
9/6/2021 2:45:00 AM 15.81 60.458 0.653 7.37 8.63 8.59
9/6/2021 3:00:00 AM 15.78 60.404 0.652 7.37 8.39 8.59
9/6/2021 3:15:00 AM 15.77 60.386 0.652 7.37 8.07 8.6
9/6/2021 3:30:00 AM 15.75 60.35 0.651 7.35 8.34 8.6
9/6/2021 3:45:00 AM 15.73 60.314 0.65 7.37 8.04 8.61
9/6/2021 4:00:00 AM 15.71 60.278 0.649 7.37 8.01 8.61
9/6/2021 4:15:00 AM 15.69 60.242 0.648 7.37 8.21 8.61
9/6/2021 4:30:00 AM 15.67 60.206 0.648 7.37 8 8.62
9/6/2021 4:45:00 AM 15.65 60.17 0.647 7.37 7.72 8.63
9/6/2021 5:00:00 AM 15.63 60.134 0.646 7.37 7.63 8.63
9/6/2021 5:15:00 AM 15.61 60.098 0.646 7.38 7.15 8.64
9/6/2021 5:30:00 AM 15.6 60.08 0.645 7.37 7.22 8.63
9/6/2021 5:45:00 AM 15.59 60.062 0.646 7.37 7.15 8.64
9/6/2021 6:00:00 AM 15.58 60.044 0.646 7.37 7.16 8.64
9/6/2021 6:15:00 AM 15.57 60.026 0.648 7.38 7.45 8.64
9/6/2021 6:30:00 AM 15.57 60.026 0.648 7.37 6.75 8.65
9/6/2021 6:45:00 AM 15.57 60.026 0.649 7.37 6.66 8.65
9/6/2021 7:00:00 AM 15.56 60.008 0.65 7.39 5.88 8.66
9/6/2021 7:15:00 AM 15.55 59.99 0.65 7.39 5.77 8.67
9/6/2021 7:30:00 AM 15.54 59.972 0.649 7.39 5.53 8.68
9/6/2021 7:45:00 AM 15.53 59.954 0.65 7.38 5.18 8.69
9/6/2021 8:00:00 AM 15.52 59.936 0.649 7.4 5.32 8.71
9/6/2021 8:15:00 AM 15.51 59.918 0.649 7.4 4.92 8.74
9/6/2021 8:30:00 AM 15.51 59.918 0.649 7.4 4.81 8.76
9/6/2021 8:45:00 AM 15.51 59.918 0.648 7.41 4.52 8.78
9/6/2021 9:00:00 AM 15.52 59.936 0.649 7.41 4.76 8.81
9/6/2021 9:15:00 AM 15.55 59.99 0.651 7.41 4.66 8.84
9/6/2021 9:30:00 AM 15.6 60.08 0.653 7.4 4.61 8.86
9/6/2021 9:45:00 AM 15.66 60.188 0.656 7.42 4.62 8.89
9/6/2021 10:00:00 AM 15.73 60.314 0.658 7.43 4.66 8.92
9/6/2021 10:15:00 AM 15.81 60.458 0.659 7.43 5.02 8.96
9/6/2021 10:30:00 AM 15.89 60.602 0.661 7.44 4.88 8.98
9/6/2021 10:45:00 AM 15.99 60.782 0.664 7.44 5.19 9
9/6/2021 11:00:00 AM 16.11 60.998 0.666 7.44 5.07 9.01
9/6/2021 11:15:00 AM 16.23 61.214 0.668 7.45 5.06 9.02
9/6/2021 11:30:00 AM 16.37 61.466 0.67 7.45 4.95 9.04
9/6/2021 11:45:00 AM 16.51 61.718 0.672 7.45 5.29 9.07
9/6/2021 12:00:00 PM 16.66 61.988 0.674 7.45 5.04 9.09
9/6/2021 12:15:00 PM 16.81 62.258 0.677 7.45 4.98 9.09
9/6/2021 12:30:00 PM 16.96 62.528 0.679 7.46 4.96 9.1
9/6/2021 12:45:00 PM 17.1 62.78 0.681 7.45 5.05 9.12
9/6/2021 1:00:00 PM 17.24 63.032 0.682 7.46 4.85 9.13
9/6/2021 1:15:00 PM 17.37 63.266 0.684 7.46 5.04 9.12
9/6/2021 1:30:00 PM 17.49 63.482 0.687 7.47 4.74 9.11
9/6/2021 1:45:00 PM 17.6 63.68 0.689 7.47 5.05 9.11
9/6/2021 2:00:00 PM 17.69 63.842 0.69 7.47 4.85 9.1
9/6/2021 2:15:00 PM 17.78 64.004 0.691 7.47 4.89 9.09
9/6/2021 2:30:00 PM 17.85 64.13 0.694 7.47 5.04 9.06
9/6/2021 2:45:00 PM 17.91 64.238 0.696 7.47 4.79 9.03
9/6/2021 3:00:00 PM 17.96 64.328 0.697 7.47 4.5 9.02
9/6/2021 3:15:00 PM 17.95 64.31 0.697 7.47 4.68 8.95
9/6/2021 3:30:00 PM 17.94 64.292 0.699 7.47 4.69 8.91
9/6/2021 3:45:00 PM 17.9 64.22 0.701 7.47 4.69 8.88
9/6/2021 4:00:00 PM 17.91 64.238 0.704 7.47 4.7 8.88
9/6/2021 4:15:00 PM 17.92 64.256 0.708 7.46 4.58 8.85
9/6/2021 4:30:00 PM 17.91 64.238 0.713 7.45 4.55 8.84
9/6/2021 4:45:00 PM 17.86 64.148 0.716 7.47 4.87 8.79
9/6/2021 5:00:00 PM 17.81 64.058 0.718 7.46 4.59 8.76
9/6/2021 5:15:00 PM 17.74 63.932 0.72 7.46 4.71 8.71
9/6/2021 5:30:00 PM 17.72 63.896 0.723 7.46 4.79 8.71
9/6/2021 5:45:00 PM 17.66 63.788 0.724 7.46 4.52 8.69
9/6/2021 6:00:00 PM 17.61 63.698 0.725 7.46 4.28 8.67
9/6/2021 6:15:00 PM 17.56 63.608 0.726 7.46 4.2 8.65
9/6/2021 6:30:00 PM 17.49 63.482 0.726 7.45 4.35 8.62
9/6/2021 6:45:00 PM 17.43 63.374 0.728 7.45 4.46 8.6
9/6/2021 7:00:00 PM 17.37 63.266 0.729 7.45 4.38 8.58
9/6/2021 7:15:00 PM 17.3 63.14 0.729 7.45 4.53 8.57
9/6/2021 7:30:00 PM 17.23 63.014 0.73 7.45 4.44 8.55
9/6/2021 7:45:00 PM 17.17 62.906 0.732 7.45 5 8.54
9/6/2021 8:00:00 PM 17.11 62.798 0.733 7.45 5.07 8.52
9/6/2021 8:15:00 PM 17.05 62.69 0.733 7.45 5.14 8.51
9/6/2021 8:30:00 PM 16.99 62.582 0.732 7.44 5.76 8.49
9/6/2021 8:45:00 PM 16.92 62.456 0.731 7.43 6.36 8.48
9/6/2021 9:00:00 PM 16.86 62.348 0.73 7.44 7.45 8.47
9/6/2021 9:15:00 PM 16.79 62.222 0.729 7.44 7.23 8.45
9/6/2021 9:30:00 PM 16.72 62.096 0.728 7.44 8.03 8.46
9/6/2021 9:45:00 PM 16.65 61.97 0.726 7.44 7.95 8.47
9/6/2021 10:00:00 PM 16.58 61.844 0.725 7.44 7.82 8.48
9/6/2021 10:15:00 PM 16.52 61.736 0.726 7.44 8.28 8.48
9/6/2021 10:30:00 PM 16.46 61.628 0.726 7.44 8.04 8.5
9/6/2021 10:45:00 PM 16.4 61.52 0.726 7.42 8.46 8.51
9/6/2021 11:00:00 PM 16.34 61.412 0.727 7.43 8.32 8.51
9/6/2021 11:15:00 PM 16.29 61.322 0.728 7.42 8.39 8.52
9/6/2021 11:30:00 PM 16.24 61.232 0.729 7.43 8.04 8.53
9/6/2021 11:45:00 PM 16.19 61.142 0.73 7.43 8.27 8.53
9/7/2021 12:00:00 AM 16.14 61.052 0.731 7.44 8.22 8.54
9/7/2021 12:15:00 AM 16.09 60.962 0.73 7.44 7.84 8.55
9/7/2021 12:30:00 AM 16.04 60.872 0.729 7.44 7.97 8.57
9/7/2021 12:45:00 AM 15.99 60.782 0.729 7.44 7.88 8.58
9/7/2021 1:00:00 AM 15.93 60.674 0.726 7.44 8.17 8.6
9/7/2021 1:15:00 AM 15.86 60.548 0.722 7.44 7.99 8.62
9/7/2021 1:30:00 AM 15.8 60.44 0.719 7.44 8.96 8.64
9/7/2021 1:45:00 AM 15.75 60.35 0.717 7.43 8.33 8.65
9/7/2021 2:00:00 AM 15.69 60.242 0.716 7.43 8.37 8.67
9/7/2021 2:15:00 AM 15.64 60.152 0.714 7.45 8.18 8.67
9/7/2021 2:30:00 AM 15.59 60.062 0.712 7.45 7.59 8.68
9/7/2021 2:45:00 AM 15.54 59.972 0.71 7.45 7.51 8.7
9/7/2021 3:00:00 AM 15.48 59.864 0.707 7.45 7.38 8.71
9/7/2021 3:15:00 AM 15.43 59.774 0.704 7.45 8.03 8.72
9/7/2021 3:30:00 AM 15.38 59.684 0.703 7.45 7.85 8.74
9/7/2021 3:45:00 AM 15.33 59.594 0.701 7.46 9.41 8.76
9/7/2021 4:00:00 AM 15.28 59.504 0.698 7.46 9 8.78
9/7/2021 4:15:00 AM 15.22 59.396 0.695 7.46 9.48 8.79
9/7/2021 4:30:00 AM 15.17 59.306 0.693 7.46 8.35 8.81
9/7/2021 4:45:00 AM 15.12 59.216 0.693 7.46 7.7 8.82
9/7/2021 5:00:00 AM 15.09 59.162 0.694 7.44 7.9 8.83
9/7/2021 5:15:00 AM 15.05 59.09 0.694 7.46 7.9 8.83
9/7/2021 5:30:00 AM 15.01 59.018 0.694 7.46 7.49 8.84
9/7/2021 5:45:00 AM 14.98 58.964 0.695 7.46 7.45 8.85
9/7/2021 6:00:00 AM 14.95 58.91 0.696 7.46 7.62 8.85
9/7/2021 6:15:00 AM 14.92 58.856 0.698 7.46 7.47 8.86
9/7/2021 6:30:00 AM 14.9 58.82 0.699 7.46 8.5 8.86
9/7/2021 6:45:00 AM 14.87 58.766 0.699 7.46 7.43 8.86
9/7/2021 7:00:00 AM 14.84 58.712 0.697 7.46 6.78 8.88
9/7/2021 7:15:00 AM 14.8 58.64 0.696 7.46 6.89 8.9
9/7/2021 7:30:00 AM 14.77 58.586 0.694 7.45 6.43 8.91
9/7/2021 7:45:00 AM 14.76 58.568 0.694 7.46 5.37 8.93
9/7/2021 8:00:00 AM 14.74 58.532 0.694 7.47 5.01 8.95
9/7/2021 8:15:00 AM 14.74 58.532 0.694 7.47 4.98 8.97
9/7/2021 8:30:00 AM 14.74 58.532 0.695 7.47 4.89 8.99
9/7/2021 8:45:00 AM 14.76 58.568 0.696 7.45 4.76 9.01
9/7/2021 9:00:00 AM 14.78 58.604 0.697 7.47 4.67 9.04
9/7/2021 9:15:00 AM 14.82 58.676 0.7 7.47 4.68 9.07
9/7/2021 9:30:00 AM 14.87 58.766 0.703 7.47 4.7 9.09
9/7/2021 9:45:00 AM 14.95 58.91 0.708 7.48 4.72 9.12
9/7/2021 10:00:00 AM 15.04 59.072 0.714 7.48 4.51 9.15
9/7/2021 10:15:00 AM 15.16 59.288 0.722 7.48 4.5 9.18
9/7/2021 10:30:00 AM 15.29 59.522 0.731 7.48 5.01 9.2
9/7/2021 10:45:00 AM 15.43 59.774 0.737 7.48 4.81 9.2
9/7/2021 11:00:00 AM 15.57 60.026 0.741 7.48 4.85 9.21
9/7/2021 11:15:00 AM 15.72 60.296 0.746 7.48 4.7 9.24
9/7/2021 11:30:00 AM 15.88 60.584 0.749 7.48 4.62 9.27
9/7/2021 11:45:00 AM 16.04 60.872 0.752 7.49 4.7 9.28
9/7/2021 12:00:00 PM 16.21 61.178 0.754 7.49 4.71 9.29
9/7/2021 12:15:00 PM 16.37 61.466 0.756 7.49 4.69 9.32
9/7/2021 12:30:00 PM 16.52 61.736 0.757 7.48 4.77 9.33
9/7/2021 12:45:00 PM 16.67 62.006 0.757 7.5 4.89 9.34
9/7/2021 1:00:00 PM 16.82 62.276 0.758 7.5 4.94 9.34
9/7/2021 1:15:00 PM 16.97 62.546 0.759 7.48 4.65 9.35
9/7/2021 1:30:00 PM 17.1 62.78 0.761 7.5 4.75 9.35
9/7/2021 1:45:00 PM 17.22 62.996 0.764 7.5 4.52 9.32
9/7/2021 2:00:00 PM 17.33 63.194 0.765 7.5 4.42 9.31
9/7/2021 2:15:00 PM 17.42 63.356 0.763 7.49 4.39 9.29
9/7/2021 2:30:00 PM 17.51 63.518 0.766 7.5 4.38 9.28
9/7/2021 2:45:00 PM 17.57 63.626 0.773 7.5 4.31 9.25
9/7/2021 3:00:00 PM 17.64 63.752 0.779 7.5 4.45 9.23
9/7/2021 3:15:00 PM 17.68 63.824 0.779 7.49 4.32 9.21
9/7/2021 3:30:00 PM 17.69 63.842 0.775 7.49 4.51 9.15
9/7/2021 3:45:00 PM 17.7 63.86 0.771 7.49 4.48 9.13
9/7/2021 4:00:00 PM 17.7 63.86 0.766 7.49 4.6 9.11
9/7/2021 4:15:00 PM 17.73 63.914 0.763 7.49 4.66 9.08
9/7/2021 4:30:00 PM 17.76 63.968 0.762 7.49 4.63 9.06
9/7/2021 4:45:00 PM 17.73 63.914 0.76 7.48 4.89 9.01
9/7/2021 5:00:00 PM 17.72 63.896 0.759 7.48 4.66 8.99
9/7/2021 5:15:00 PM 17.69 63.842 0.757 7.48 4.86 8.97
9/7/2021 5:30:00 PM 17.65 63.77 0.754 7.49 4.64 8.95
9/7/2021 5:45:00 PM 17.6 63.68 0.751 7.49 4.14 8.92
9/7/2021 6:00:00 PM 17.58 63.644 0.75 7.49 4.52 8.9
9/7/2021 6:15:00 PM 17.54 63.572 0.748 7.49 4.3 8.85
9/7/2021 6:30:00 PM 17.49 63.482 0.745 7.49 4.35 8.82
9/7/2021 6:45:00 PM 17.43 63.374 0.743 7.48 4.34 8.78
9/7/2021 7:00:00 PM 17.38 63.284 0.741 7.48 4.37 8.74
9/7/2021 7:15:00 PM 17.32 63.176 0.741 7.48 4.32 8.71
9/7/2021 7:30:00 PM 17.27 63.086 0.741 7.47 4.37 8.69
9/7/2021 7:45:00 PM 17.21 62.978 0.74 7.47 5.12 8.65
9/7/2021 8:00:00 PM 17.15 62.87 0.74 7.47 5.04 8.62
9/7/2021 8:15:00 PM 17.1 62.78 0.741 7.46 5.82 8.6
9/7/2021 8:30:00 PM 17.05 62.69 0.743 7.44 6.28 8.58
9/7/2021 8:45:00 PM 17 62.6 0.744 7.46 6.3 8.56
9/7/2021 9:00:00 PM 16.94 62.492 0.743 7.46 6.49 8.54
9/7/2021 9:15:00 PM 16.88 62.384 0.744 7.45 6.66 8.53
9/7/2021 9:30:00 PM 16.83 62.294 0.744 7.45 6.92 8.52
9/7/2021 9:45:00 PM 16.79 62.222 0.744 7.45 7.79 8.51
9/7/2021 10:00:00 PM 16.74 62.132 0.744 7.45 7.26 8.5
9/7/2021 10:15:00 PM 16.68 62.024 0.744 7.43 6.68 8.49
9/7/2021 10:30:00 PM 16.64 61.952 0.745 7.45 7.27 8.49
9/7/2021 10:45:00 PM 16.59 61.862 0.745 7.45 7.74 8.5
9/7/2021 11:00:00 PM 16.55 61.79 0.744 7.43 8.1 8.5
9/7/2021 11:15:00 PM 16.5 61.7 0.743 7.45 7.87 8.51
9/7/2021 11:30:00 PM 16.46 61.628 0.742 7.45 7.85 8.52
9/7/2021 11:45:00 PM 16.42 61.556 0.743 7.45 8.11 8.52
9/8/2021 12:00:00 AM 16.38 61.484 0.744 7.45 7.96 8.53
9/8/2021 12:15:00 AM 16.34 61.412 0.745 7.45 7.87 8.54
9/8/2021 12:30:00 AM 16.29 61.322 0.744 7.45 7.78 8.55
9/8/2021 12:45:00 AM 16.24 61.232 0.742 7.45 8.71 8.55
9/8/2021 1:00:00 AM 16.19 61.142 0.739 7.45 7.44 8.57
9/8/2021 1:15:00 AM 16.14 61.052 0.736 7.43 7.5 8.58
9/8/2021 1:30:00 AM 16.08 60.944 0.733 7.46 7.15 8.59
9/8/2021 1:45:00 AM 16.03 60.854 0.731 7.46 7.06 8.6
9/8/2021 2:00:00 AM 15.99 60.782 0.728 7.46 7.16 8.61
9/8/2021 2:15:00 AM 15.95 60.71 0.726 7.45 9.33 8.62
9/8/2021 2:30:00 AM 15.9 60.62 0.723 7.46 7.68 8.63
9/8/2021 2:45:00 AM 15.85 60.53 0.719 7.47 7.55 8.65
9/8/2021 3:00:00 AM 15.81 60.458 0.715 7.46 7.85 8.66
9/8/2021 3:15:00 AM 15.77 60.386 0.712 7.47 7.62 8.67
9/8/2021 3:30:00 AM 15.73 60.314 0.708 7.47 8.07 8.69
9/8/2021 3:45:00 AM 15.69 60.242 0.706 7.45 7.47 8.7
9/8/2021 4:00:00 AM 15.65 60.17 0.703 7.47 7.98 8.7
9/8/2021 4:15:00 AM 15.61 60.098 0.7 7.47 8.81 8.72
9/8/2021 4:30:00 AM 15.57 60.026 0.698 7.48 7.82 8.72
9/8/2021 4:45:00 AM 15.54 59.972 0.696 7.48 7.25 8.73
9/8/2021 5:00:00 AM 15.5 59.9 0.695 7.48 7.66 8.73
9/8/2021 5:15:00 AM 15.47 59.846 0.694 7.47 8.31 8.74
9/8/2021 5:30:00 AM 15.44 59.792 0.692 7.48 7.29 8.75
9/8/2021 5:45:00 AM 15.41 59.738 0.692 7.48 7.28 8.76
9/8/2021 6:00:00 AM 15.39 59.702 0.692 7.48 7.03 8.76
9/8/2021 6:15:00 AM 15.37 59.666 0.692 7.48 6.7 8.76
9/8/2021 6:30:00 AM 15.36 59.648 0.692 7.48 6.68 8.76
9/8/2021 6:45:00 AM 15.33 59.594 0.692 7.48 6.14 8.77
9/8/2021 7:00:00 AM 15.32 59.576 0.693 7.48 5.76 8.78
9/8/2021 7:15:00 AM 15.31 59.558 0.694 7.48 6.02 8.78
9/8/2021 7:30:00 AM 15.31 59.558 0.695 7.46 5.94 8.8
9/8/2021 7:45:00 AM 15.31 59.558 0.694 7.48 5.71 8.82
9/8/2021 8:00:00 AM 15.3 59.54 0.693 7.48 4.67 8.85
9/8/2021 8:15:00 AM 15.3 59.54 0.692 7.48 4.67 8.86
9/8/2021 8:30:00 AM 15.3 59.54 0.692 7.48 4.56 8.88
9/8/2021 8:45:00 AM 15.32 59.576 0.692 7.48 4.7 8.91
9/8/2021 9:00:00 AM 15.33 59.594 0.692 7.48 4.51 8.93
9/8/2021 9:15:00 AM 15.37 59.666 0.694 7.48 4.56 8.95
9/8/2021 9:30:00 AM 15.43 59.774 0.696 7.49 4.51 8.98
9/8/2021 9:45:00 AM 15.51 59.918 0.699 7.49 4.36 9.03
9/8/2021 10:00:00 AM 15.61 60.098 0.703 7.49 4.42 9.06
9/8/2021 10:15:00 AM 15.73 60.314 0.707 7.49 4.63 9.1
9/8/2021 10:30:00 AM 15.85 60.53 0.711 7.5 4.3 9.12
9/8/2021 10:45:00 AM 15.97 60.746 0.715 7.49 4.35 9.12
9/8/2021 11:00:00 AM 16.11 60.998 0.717 7.49 4.37 9.13
9/8/2021 11:15:00 AM 16.26 61.268 0.718 7.5 4.45 9.17
9/8/2021 11:30:00 AM 16.41 61.538 0.718 7.5 4.5 9.19
9/8/2021 11:45:00 AM 16.57 61.826 0.716 7.51 4.57 9.22
9/8/2021 12:00:00 PM 16.74 62.132 0.715 7.51 4.59 9.25
9/8/2021 12:15:00 PM 16.91 62.438 0.713 7.51 4.34 9.29
9/8/2021 12:30:00 PM 17.08 62.744 0.713 7.52 4.55 9.31
9/8/2021 12:45:00 PM 17.26 63.068 0.713 7.51 4.65 9.32
9/8/2021 1:00:00 PM 17.41 63.338 0.712 7.52 4.56 9.33
9/8/2021 1:15:00 PM 17.56 63.608 0.713 7.52 4.53 9.34
9/8/2021 1:30:00 PM 17.7 63.86 0.713 7.53 4.39 9.33
9/8/2021 1:45:00 PM 17.78 64.004 0.714 7.52 4.62 9.28
9/8/2021 2:00:00 PM 17.88 64.184 0.714 7.51 4.6 9.28
9/8/2021 2:15:00 PM 17.96 64.328 0.714 7.53 4.36 9.27
9/8/2021 2:30:00 PM 18.07 64.526 0.715 7.53 4.62 9.26
9/8/2021 2:45:00 PM 18.15 64.67 0.717 7.53 4.41 9.21
9/8/2021 3:00:00 PM 18.2 64.76 0.719 7.5 4.47 9.16
9/8/2021 3:15:00 PM 18.27 64.886 0.723 7.52 4.29 9.13
9/8/2021 3:30:00 PM 18.3 64.94 0.728 7.52 4.32 9.08
9/8/2021 3:45:00 PM 18.37 65.066 0.732 7.52 4.28 9.07
9/8/2021 4:00:00 PM 18.4 65.12 0.734 7.52 4.22 9.03
9/8/2021 4:15:00 PM 18.38 65.084 0.734 7.52 4.15 8.97
9/8/2021 4:30:00 PM 18.37 65.066 0.735 7.52 4.7 8.94
9/8/2021 4:45:00 PM 18.36 65.048 0.735 7.5 4.42 8.89
9/8/2021 5:00:00 PM 18.35 65.03 0.734 7.51 4.03 8.88
9/8/2021 5:15:00 PM 18.33 64.994 0.732 7.51 4.25 8.85
9/8/2021 5:30:00 PM 18.33 64.994 0.732 7.51 4.16 8.84
9/8/2021 5:45:00 PM 18.28 64.904 0.732 7.51 3.95 8.79
9/8/2021 6:00:00 PM 18.23 64.814 0.731 7.51 4.14 8.74
9/8/2021 6:15:00 PM 18.16 64.688 0.727 7.51 4.29 8.7
9/8/2021 6:30:00 PM 18.09 64.562 0.723 7.5 4.41 8.68
9/8/2021 6:45:00 PM 18.03 64.454 0.721 7.49 4.15 8.65
9/8/2021 7:00:00 PM 17.97 64.346 0.719 7.5 4.07 8.62
9/8/2021 7:15:00 PM 17.9 64.22 0.718 7.5 4.15 8.6
9/8/2021 7:30:00 PM 17.84 64.112 0.719 7.5 4.49 8.57
9/8/2021 7:45:00 PM 17.77 63.986 0.72 7.49 4.3 8.53
9/8/2021 8:00:00 PM 17.7 63.86 0.722 7.49 4.9 8.49
9/8/2021 8:15:00 PM 17.63 63.734 0.725 7.49 7.2 8.46
9/8/2021 8:30:00 PM 17.57 63.626 0.727 7.48 6.25 8.44
9/8/2021 8:45:00 PM 17.51 63.518 0.73 7.48 7.28 8.42
9/8/2021 9:00:00 PM 17.44 63.392 0.732 7.48 7.13 8.41
9/8/2021 9:15:00 PM 17.38 63.284 0.734 7.47 6.57 8.39
9/8/2021 9:30:00 PM 17.33 63.194 0.735 7.47 6.89 8.38
9/8/2021 9:45:00 PM 17.28 63.104 0.737 7.47 6.78 8.37
9/8/2021 10:00:00 PM 17.25 63.05 0.739 7.47 6.89 8.35
9/8/2021 10:15:00 PM 17.22 62.996 0.741 7.47 6.66 8.35
9/8/2021 10:30:00 PM 17.19 62.942 0.743 7.47 6.95 8.35
9/8/2021 10:45:00 PM 17.15 62.87 0.741 7.47 6.81 8.36
9/8/2021 11:00:00 PM 17.2 62.96 0.713 7.49 19.09 8.46
9/8/2021 11:15:00 PM 17.66 63.788 0.631 7.45 60.85 8.36
9/8/2021 11:30:00 PM 17.49 63.482 0.644 7.44 47.99 8.31
9/8/2021 11:45:00 PM 17.44 63.392 0.641 7.42 61.4 8.36
9/9/2021 12:00:00 AM 17.42 63.356 0.634 7.42 108.1 8.42
9/9/2021 12:15:00 AM 17.69 63.842 0.564 7.36 177.53 8.39
9/9/2021 12:30:00 AM 17.72 63.896 0.564 7.34 139.47 8.3
9/9/2021 12:45:00 AM 18.13 64.634 0.455 7.24 125.91 8.05
9/9/2021 1:00:00 AM 19.28 66.704 0.305 7.08 88.76 7.87
9/9/2021 1:15:00 AM 19.83 67.694 0.26 7.04 92.07 7.76
9/9/2021 1:30:00 AM 19.96 67.92799 0.257 6.99 84.56 7.68
9/9/2021 1:45:00 AM 19.94 67.892 0.26 6.99 69.92 7.6
9/9/2021 2:00:00 AM 19.91 67.838 0.26 6.98 90.12 7.54
9/9/2021 2:15:00 AM 19.9 67.82 0.258 6.97 78.03 7.49
9/9/2021 2:30:00 AM 19.89 67.802 0.066 6.96 94.83 7.43
9/9/2021 2:45:00 AM 19.87 67.766 0.264 6.95 57.85 7.37
9/9/2021 3:00:00 AM 19.82 67.676 0.274 6.95 48.75 7.34
9/9/2021 3:15:00 AM 19.75 67.55 0.284 6.95 42.99 7.32
9/9/2021 3:30:00 AM 19.68 67.424 0.294 6.97 40.89 7.32
9/9/2021 3:45:00 AM 19.63 67.334 0.301 6.97 38.91 7.31
9/9/2021 4:00:00 AM 19.6 67.28 0.304 6.97 41.27 7.27
9/9/2021 4:15:00 AM 19.57 67.226 0.309 6.97 39.87 7.25
9/9/2021 4:30:00 AM 19.51 67.118 0.312 6.97 38.97 7.22
9/9/2021 4:45:00 AM 19.47 67.046 0.317 6.97 39.31 7.2
9/9/2021 5:00:00 AM 19.43 66.974 0.322 6.97 43.15 7.18
9/9/2021 5:15:00 AM 19.37 66.866 0.328 6.98 644.32 7.15
9/9/2021 5:30:00 AM 19.29 66.722 0.335 6.98 50.4 7.15
9/9/2021 5:45:00 AM 19.19 66.542 0.342 6.99 41.43 7.15
9/9/2021 6:00:00 AM 19.08 66.344 0.351 6.99 39.58 7.16
9/9/2021 6:15:00 AM 19.01 66.218 0.356 7 38.13 7.17
9/9/2021 6:30:00 AM 18.95 66.11 0.361 7 40.73 7.2
9/9/2021 6:45:00 AM 18.88 65.984 0.367 7.01 39.55 7.22
9/9/2021 7:00:00 AM 18.78 65.804 0.377 7.01 37.99 7.26
9/9/2021 7:15:00 AM 18.66 65.588 0.388 7.03 39.99 7.3
9/9/2021 7:30:00 AM 18.55 65.39 0.398 7.03 36.44 7.35
9/9/2021 7:45:00 AM 18.45 65.21 0.409 7.06 33.34 7.39
9/9/2021 8:00:00 AM 18.36 65.048 0.418 7.07 31.78 7.45
9/9/2021 8:15:00 AM 18.27 64.886 0.428 7.08 30.25 7.5
9/9/2021 8:30:00 AM 18.19 64.742 0.438 7.09 29.36 7.56
9/9/2021 8:45:00 AM 18.11 64.598 0.448 7.1 27.5 7.61
9/9/2021 9:00:00 AM 18.04 64.472 0.46 7.12 26.13 7.66
9/9/2021 9:15:00 AM 17.98 64.364 0.471 7.12 24.65 7.72
9/9/2021 9:30:00 AM 17.91 64.238 0.482 7.14 24.85 7.76
9/9/2021 9:45:00 AM 17.88 64.184 0.493 7.15 23.28 7.82
9/9/2021 10:00:00 AM 17.85 64.13 0.502 7.16 22.28 7.87
9/9/2021 10:15:00 AM 17.82 64.076 0.509 7.17 20.55 7.91
9/9/2021 10:30:00 AM 17.77 63.986 0.515 7.16 19.93 7.94
9/9/2021 10:45:00 AM 17.74 63.932 0.521 7.17 18.99 7.98
9/9/2021 11:00:00 AM 17.72 63.896 0.526 7.19 17.97 8.03
9/9/2021 11:15:00 AM 17.71 63.878 0.532 7.2 17.01 8.09
9/9/2021 11:30:00 AM 17.7 63.86 0.537 7.21 16.17 8.13
9/9/2021 11:45:00 AM 17.68 63.824 0.542 7.21 15.49 8.15
9/9/2021 12:00:00 PM 17.65 63.77 0.547 7.22 14.7 8.17
9/9/2021 12:15:00 PM 17.65 63.77 0.551 7.23 13.95 8.22
9/9/2021 12:30:00 PM 17.67 63.806 0.556 7.24 13.99 8.28
9/9/2021 12:45:00 PM 17.68 63.824 0.561 7.25 12.8 8.32
9/9/2021 1:00:00 PM 17.69 63.842 0.567 7.25 12.31 8.35
9/9/2021 1:15:00 PM 17.69 63.842 0.573 7.26 11.82 8.38
9/9/2021 1:30:00 PM 17.69 63.842 0.579 7.26 11.42 8.4
9/9/2021 1:45:00 PM 17.72 63.896 0.587 7.27 11 8.44
9/9/2021 2:00:00 PM 17.74 63.932 0.593 7.28 10.55 8.46
9/9/2021 2:15:00 PM 17.73 63.914 0.595 7.28 10.16 8.47
9/9/2021 2:30:00 PM 17.71 63.878 0.596 7.28 9.7 8.47
9/9/2021 2:45:00 PM 17.69 63.842 0.599 7.28 9.45 8.47
9/9/2021 3:00:00 PM 17.68 63.824 0.601 7.29 8.89 8.47
9/9/2021 3:15:00 PM 17.66 63.788 0.603 7.29 8.63 8.47
9/9/2021 3:30:00 PM 17.65 63.77 0.606 7.29 8.63 8.48
9/9/2021 3:45:00 PM 17.64 63.752 0.606 7.3 8.35 8.49
9/9/2021 4:00:00 PM 17.62 63.716 0.607 7.3 7.99 8.5
9/9/2021 4:15:00 PM 17.6 63.68 0.608 7.29 7.9 8.5
9/9/2021 4:30:00 PM 17.57 63.626 0.607 7.3 7.45 8.49
9/9/2021 4:45:00 PM 17.54 63.572 0.606 7.3 7.33 8.49
9/9/2021 5:00:00 PM 17.52 63.536 0.606 7.31 7.45 8.5
9/9/2021 5:15:00 PM 17.52 63.536 0.605 7.31 7.01 8.53
9/9/2021 5:30:00 PM 17.53 63.554 0.605 7.32 6.73 8.55
9/9/2021 5:45:00 PM 17.5 63.5 0.605 7.31 6.47 8.54
9/9/2021 6:00:00 PM 17.45 63.41 0.605 7.31 6.47 8.52
9/9/2021 6:15:00 PM 17.42 63.356 0.606 7.3 6.33 8.5
9/9/2021 6:30:00 PM 17.4 63.32 0.607 7.32 6.26 8.49
9/9/2021 6:45:00 PM 17.37 63.266 0.609 7.31 6.08 8.49
9/9/2021 7:00:00 PM 17.36 63.248 0.609 7.33 5.96 8.49
9/9/2021 7:15:00 PM 17.32 63.176 0.61 7.33 6.03 8.47
9/9/2021 7:30:00 PM 17.27 63.086 0.611 7.33 6.14 8.45
9/9/2021 7:45:00 PM 17.22 62.996 0.612 7.33 6.26 8.43
9/9/2021 8:00:00 PM 17.17 62.906 0.612 7.33 6.79 8.4
9/9/2021 8:15:00 PM 17.13 62.834 0.612 7.33 7.71 8.39
9/9/2021 8:30:00 PM 17.08 62.744 0.614 7.33 8.43 8.38
9/9/2021 8:45:00 PM 17.03 62.654 0.615 7.33 9 8.37
9/9/2021 9:00:00 PM 16.98 62.564 0.614 7.33 8.56 8.36
9/9/2021 9:15:00 PM 16.94 62.492 0.613 7.33 8.57 8.35
9/9/2021 9:30:00 PM 16.91 62.438 0.611 7.32 9.16 8.34
9/9/2021 9:45:00 PM 16.88 62.384 0.609 7.32 9.73 8.33
9/9/2021 10:00:00 PM 16.86 62.348 0.609 7.31 9.73 8.31
9/9/2021 10:15:00 PM 16.83 62.294 0.609 7.31 9.83 8.31
9/9/2021 10:30:00 PM 16.78 62.204 0.61 7.31 9.42 8.31
9/9/2021 10:45:00 PM 16.72 62.096 0.612 7.32 9.54 8.34
9/9/2021 11:00:00 PM 16.66 61.988 0.615 7.32 9.31 8.36
9/9/2021 11:15:00 PM 16.6 61.88 0.618 7.32 9.44 8.37
9/9/2021 11:30:00 PM 16.54 61.772 0.619 7.33 9.14 8.38
9/9/2021 11:45:00 PM 16.48 61.664 0.62 7.33 8.92 8.4
9/10/2021 12:00:00 AM 16.43 61.574 0.62 7.33 8.87 8.41
9/10/2021 12:15:00 AM 16.39 61.502 0.622 7.32 8.76 8.42
9/10/2021 12:30:00 AM 16.35 61.43 0.623 7.34 9.13 8.43
9/10/2021 12:45:00 AM 16.31 61.358 0.624 7.32 8.89 8.44
9/10/2021 1:00:00 AM 16.26 61.268 0.623 7.34 8.86 8.46
9/10/2021 1:15:00 AM 16.22 61.196 0.623 7.33 9.32 8.46
9/10/2021 1:30:00 AM 16.17 61.106 0.624 7.34 8.99 8.48
9/10/2021 1:45:00 AM 16.13 61.034 0.624 7.35 8.67 8.49
9/10/2021 2:00:00 AM 16.09 60.962 0.624 7.35 8.45 8.5
9/10/2021 2:15:00 AM 16.05 60.89 0.622 7.34 8.24 8.51
9/10/2021 2:30:00 AM 16.01 60.818 0.621 7.35 8.49 8.52
9/10/2021 2:45:00 AM 15.96 60.728 0.62 7.34 9.07 8.53
9/10/2021 3:00:00 AM 15.93 60.674 0.62 7.36 8.73 8.54
9/10/2021 3:15:00 AM 15.89 60.602 0.62 7.36 8.92 8.55
9/10/2021 3:30:00 AM 15.85 60.53 0.619 7.36 8.64 8.56
9/10/2021 3:45:00 AM 15.81 60.458 0.619 7.36 8.13 8.57
9/10/2021 4:00:00 AM 15.77 60.386 0.618 7.37 8.48 8.59
9/10/2021 4:15:00 AM 15.73 60.314 0.618 7.37 8.42 8.6
9/10/2021 4:30:00 AM 15.69 60.242 0.617 7.37 8.34 8.62
9/10/2021 4:45:00 AM 15.64 60.152 0.616 7.36 8.5 8.63
9/10/2021 5:00:00 AM 15.6 60.08 0.616 7.36 8.11 8.64
9/10/2021 5:15:00 AM 15.56 60.008 0.616 7.37 8.32 8.65
9/10/2021 5:30:00 AM 15.53 59.954 0.617 7.38 8.27 8.65
9/10/2021 5:45:00 AM 15.49 59.882 0.617 7.38 7.83 8.66
9/10/2021 6:00:00 AM 15.46 59.828 0.618 7.37 8.03 8.66
9/10/2021 6:15:00 AM 15.43 59.774 0.618 7.38 7.81 8.67
9/10/2021 6:30:00 AM 15.4 59.72 0.619 7.38 7.36 8.68
9/10/2021 6:45:00 AM 15.37 59.666 0.621 7.38 6.72 8.69
9/10/2021 7:00:00 AM 15.35 59.63 0.622 7.38 6.04 8.71
9/10/2021 7:15:00 AM 15.32 59.576 0.622 7.38 5.8 8.72
9/10/2021 7:30:00 AM 15.3 59.54 0.621 7.39 5.65 8.74
9/10/2021 7:45:00 AM 15.27 59.486 0.62 7.37 5.24 8.76
9/10/2021 8:00:00 AM 15.26 59.468 0.621 7.39 5.07 8.78
9/10/2021 8:15:00 AM 15.25 59.45 0.622 7.38 4.75 8.8
9/10/2021 8:30:00 AM 15.25 59.45 0.623 7.41 4.5 8.82
9/10/2021 8:45:00 AM 15.26 59.468 0.624 7.4 4.34 8.84
9/10/2021 9:00:00 AM 15.28 59.504 0.626 7.38 4.5 8.87
9/10/2021 9:15:00 AM 15.3 59.54 0.627 7.41 4.5 8.9
9/10/2021 9:30:00 AM 15.34 59.612 0.631 7.41 4.37 8.93
9/10/2021 9:45:00 AM 15.39 59.702 0.634 7.41 4.63 8.96
9/10/2021 10:00:00 AM 15.45 59.81 0.638 7.41 4.45 8.99
9/10/2021 10:15:00 AM 15.52 59.936 0.641 7.41 4.48 9.03
9/10/2021 10:30:00 AM 15.59 60.062 0.643 7.42 4.35 9.07
9/10/2021 10:45:00 AM 15.66 60.188 0.644 7.42 4.11 9.1
9/10/2021 11:00:00 AM 15.74 60.332 0.644 7.42 4.29 9.13
9/10/2021 11:15:00 AM 15.82 60.476 0.644 7.43 4.43 9.17
9/10/2021 11:30:00 AM 15.89 60.602 0.645 7.43 4.54 9.17
9/10/2021 11:45:00 AM 16.02 60.836 0.649 7.43 4.28 9.22
9/10/2021 12:00:00 PM 16.16 61.088 0.654 7.43 4.58 9.24
9/10/2021 12:15:00 PM 16.28 61.304 0.655 7.44 4.5 9.25
9/10/2021 12:30:00 PM 16.38 61.484 0.655 7.44 4.56 9.28
9/10/2021 12:45:00 PM 16.47 61.646 0.654 7.44 4.48 9.3
9/10/2021 1:00:00 PM 16.56 61.808 0.655 7.43 4.54 9.32
9/10/2021 1:15:00 PM 16.66 61.988 0.655 7.45 4.37 9.33
9/10/2021 1:30:00 PM 16.75 62.15 0.656 7.45 4.42 9.35
9/10/2021 1:45:00 PM 16.82 62.276 0.655 7.45 4.51 9.35
9/10/2021 2:00:00 PM 16.9 62.42 0.655 7.45 4.39 9.36
9/10/2021 2:15:00 PM 16.97 62.546 0.656 7.45 4.51 9.35
9/10/2021 2:30:00 PM 17.02 62.636 0.656 7.45 4.28 9.34
9/10/2021 2:45:00 PM 17.05 62.69 0.655 7.45 4.43 9.34
9/10/2021 3:00:00 PM 17.08 62.744 0.653 7.44 4.55 9.33
9/10/2021 3:15:00 PM 17.09 62.762 0.652 7.46 4.51 9.3
9/10/2021 3:30:00 PM 17.09 62.762 0.651 7.44 4.7 9.28
9/10/2021 3:45:00 PM 17.1 62.78 0.652 7.46 4.5 9.26
9/10/2021 4:00:00 PM 17.1 62.78 0.652 7.45 4.46 9.24
9/10/2021 4:15:00 PM 17.1 62.78 0.653 7.45 4.2 9.21
9/10/2021 4:30:00 PM 17.1 62.78 0.654 7.44 4.46 9.17
9/10/2021 4:45:00 PM 17.1 62.78 0.654 7.45 4.15 9.14
9/10/2021 5:00:00 PM 17.1 62.78 0.655 7.45 4.3 9.12
9/10/2021 5:15:00 PM 17.09 62.762 0.655 7.44 4.69 9.09
9/10/2021 5:30:00 PM 17.07 62.726 0.656 7.44 4.39 9.06
9/10/2021 5:45:00 PM 17.05 62.69 0.658 7.44 4.35 9.02
9/10/2021 6:00:00 PM 17.02 62.636 0.659 7.43 4.22 8.98
9/10/2021 6:15:00 PM 16.98 62.564 0.659 7.44 4.51 8.95
9/10/2021 6:30:00 PM 16.94 62.492 0.658 7.43 4.36 8.92
9/10/2021 6:45:00 PM 16.88 62.384 0.657 7.43 4.67 8.89
9/10/2021 7:00:00 PM 16.83 62.294 0.656 7.43 4.5 8.86
9/10/2021 7:15:00 PM 16.78 62.204 0.657 7.43 4.51 8.83
9/10/2021 7:30:00 PM 16.73 62.114 0.657 7.43 4.57 8.8
9/10/2021 7:45:00 PM 16.67 62.006 0.657 7.42 4.64 8.77
9/10/2021 8:00:00 PM 16.61 61.898 0.657 7.41 5.05 8.74
9/10/2021 8:15:00 PM 16.56 61.808 0.657 7.42 5.41 8.72
9/10/2021 8:30:00 PM 16.51 61.718 0.657 7.42 6.05 8.7
9/10/2021 8:45:00 PM 16.45 61.61 0.657 7.41 6.41 8.68
9/10/2021 9:00:00 PM 16.4 61.52 0.657 7.41 6.82 8.67
9/10/2021 9:15:00 PM 16.35 61.43 0.657 7.41 7.32 8.67
9/10/2021 9:30:00 PM 16.29 61.322 0.657 7.41 7.64 8.65
9/10/2021 9:45:00 PM 16.24 61.232 0.657 7.41 8.13 8.65
9/10/2021 10:00:00 PM 16.19 61.142 0.658 7.41 7.79 8.65
9/10/2021 10:15:00 PM 16.14 61.052 0.658 7.41 7.79 8.65
9/10/2021 10:30:00 PM 16.08 60.944 0.658 7.4 7.81 8.65
9/10/2021 10:45:00 PM 16.03 60.854 0.658 7.41 7.86 8.66
9/10/2021 11:00:00 PM 15.98 60.764 0.658 7.41 7.99 8.66
9/10/2021 11:15:00 PM 15.93 60.674 0.659 7.41 8.05 8.67
9/10/2021 11:30:00 PM 15.88 60.584 0.66 7.4 8.36 8.67
9/10/2021 11:45:00 PM 15.83 60.494 0.66 7.4 8.05 8.68
9/11/2021 12:00:00 AM 15.79 60.422 0.661 7.38 8.17 8.69
9/11/2021 12:15:00 AM 15.74 60.332 0.662 7.41 8.06 8.7
9/11/2021 12:30:00 AM 15.7 60.26 0.662 7.4 8.14 8.71
9/11/2021 12:45:00 AM 15.65 60.17 0.662 7.41 8.11 8.72
9/11/2021 1:00:00 AM 15.61 60.098 0.661 7.39 8.03 8.73
9/11/2021 1:15:00 AM 15.56 60.008 0.661 7.41 8.17 8.73
9/11/2021 1:30:00 AM 15.52 59.936 0.661 7.41 8.07 8.74
9/11/2021 1:45:00 AM 15.48 59.864 0.66 7.41 8.13 8.75
9/11/2021 2:00:00 AM 15.44 59.792 0.661 7.39 8.48 8.75
9/11/2021 2:15:00 AM 15.41 59.738 0.662 7.42 8.25 8.76
9/11/2021 2:30:00 AM 15.36 59.648 0.66 7.42 8.45 8.77
9/11/2021 2:45:00 AM 15.32 59.576 0.659 7.42 8.55 8.79
9/11/2021 3:00:00 AM 15.27 59.486 0.658 7.42 8.87 8.8
9/11/2021 3:15:00 AM 15.23 59.414 0.656 7.42 8.66 8.81
9/11/2021 3:30:00 AM 15.19 59.342 0.655 7.42 8.68 8.82
9/11/2021 3:45:00 AM 15.14 59.252 0.653 7.42 8.71 8.82
9/11/2021 4:00:00 AM 15.1 59.18 0.652 7.42 8.89 8.83
9/11/2021 4:15:00 AM 15.06 59.108 0.651 7.4 8.81 8.84
9/11/2021 4:30:00 AM 15.02 59.036 0.65 7.42 9.94 8.85
9/11/2021 4:45:00 AM 14.98 58.964 0.649 7.42 8.9 8.86
9/11/2021 5:00:00 AM 14.94 58.892 0.648 7.41 8.66 8.87
9/11/2021 5:15:00 AM 14.9 58.82 0.647 7.42 8.63 8.88
9/11/2021 5:30:00 AM 14.87 58.766 0.647 7.41 8.22 8.88
9/11/2021 5:45:00 AM 14.84 58.712 0.647 7.43 8.33 8.89
9/11/2021 6:00:00 AM 14.8 58.64 0.646 7.43 8.77 8.9
9/11/2021 6:15:00 AM 14.78 58.604 0.647 7.42 7.77 8.92
9/11/2021 6:30:00 AM 14.74 58.532 0.648 7.43 7.37 8.92
9/11/2021 6:45:00 AM 14.72 58.496 0.648 7.43 6.71 8.93
9/11/2021 7:00:00 AM 14.69 58.442 0.648 7.44 6.53 8.95
9/11/2021 7:15:00 AM 14.66 58.388 0.648 7.42 5.99 8.96
9/11/2021 7:30:00 AM 14.64 58.352 0.648 7.44 5.67 8.98
9/11/2021 7:45:00 AM 14.61 58.298 0.647 7.44 5.3 9.01
9/11/2021 8:00:00 AM 14.59 58.262 0.646 7.44 4.77 9.02
9/11/2021 8:15:00 AM 14.58 58.244 0.646 7.44 4.72 9.05
9/11/2021 8:30:00 AM 14.58 58.244 0.645 7.45 4.57 9.07
9/11/2021 8:45:00 AM 14.58 58.244 0.645 7.45 4.25 9.1
9/11/2021 9:00:00 AM 14.59 58.262 0.645 7.45 4.17 9.13
9/11/2021 9:15:00 AM 14.61 58.298 0.645 7.44 4.51 9.17
9/11/2021 9:30:00 AM 14.65 58.37 0.645 7.45 4.34 9.2
9/11/2021 9:45:00 AM 14.71 58.478 0.647 7.46 4.25 9.23
9/11/2021 10:00:00 AM 14.78 58.604 0.649 7.44 4.2 9.25
9/11/2021 10:15:00 AM 14.86 58.748 0.651 7.45 4.39 9.29
9/11/2021 10:30:00 AM 14.96 58.928 0.654 7.46 4.34 9.32
9/11/2021 10:45:00 AM 15.06 59.108 0.656 7.46 4.53 9.36
9/11/2021 11:00:00 AM 15.19 59.342 0.659 7.45 4.51 9.41
9/11/2021 11:15:00 AM 15.32 59.576 0.661 7.47 4.44 9.44
9/11/2021 11:30:00 AM 15.45 59.81 0.663 7.47 4.55 9.47
9/11/2021 11:45:00 AM 15.59 60.062 0.665 7.47 4.38 9.51
9/11/2021 12:00:00 PM 15.72 60.296 0.666 7.47 4.34 9.54
9/11/2021 12:15:00 PM 15.85 60.53 0.669 7.49 4.4 9.58
9/11/2021 12:30:00 PM 15.96 60.728 0.67 7.49 4.46 9.59
9/11/2021 12:45:00 PM 16.07 60.926 0.672 7.48 4.4 9.6
9/11/2021 1:00:00 PM 16.15 61.07 0.673 7.49 4.34 9.61
9/11/2021 1:15:00 PM 16.24 61.232 0.674 7.49 4.18 9.61
9/11/2021 1:30:00 PM 16.32 61.376 0.673 7.49 4.34 9.63
9/11/2021 1:45:00 PM 16.38 61.484 0.671 7.5 4.12 9.63
9/11/2021 2:00:00 PM 16.47 61.646 0.67 7.48 4.37 9.64
9/11/2021 2:15:00 PM 16.56 61.808 0.671 7.49 4.32 9.63
9/11/2021 2:30:00 PM 16.62 61.916 0.671 7.5 4.15 9.61
9/11/2021 2:45:00 PM 16.66 61.988 0.67 7.5 4.07 9.59
9/11/2021 3:00:00 PM 16.7 62.06 0.671 7.49 4.35 9.57
9/11/2021 3:15:00 PM 16.76 62.168 0.672 7.5 4.11 9.54
9/11/2021 3:30:00 PM 16.82 62.276 0.672 7.49 4.14 9.52
9/11/2021 3:45:00 PM 16.86 62.348 0.671 7.49 4.1 9.48
9/11/2021 4:00:00 PM 16.9 62.42 0.672 7.49 3.93 9.44
9/11/2021 4:15:00 PM 16.93 62.474 0.672 7.49 4.17 9.41
9/11/2021 4:30:00 PM 16.92 62.456 0.674 7.49 4.22 9.37
9/11/2021 4:45:00 PM 16.94 62.492 0.674 7.49 4.47 9.34
9/11/2021 5:00:00 PM 16.95 62.51 0.674 7.48 4.42 9.3
9/11/2021 5:15:00 PM 16.95 62.51 0.675 7.48 4.43 9.25
9/11/2021 5:30:00 PM 16.94 62.492 0.675 7.48 4.38 9.22
9/11/2021 5:45:00 PM 16.93 62.474 0.675 7.47 4.21 9.17
9/11/2021 6:00:00 PM 16.9 62.42 0.675 7.47 4.09 9.13
9/11/2021 6:15:00 PM 16.86 62.348 0.675 7.47 4.24 9.09
9/11/2021 6:30:00 PM 16.82 62.276 0.676 7.47 4.33 9.04
9/11/2021 6:45:00 PM 16.77 62.186 0.676 7.46 4.44 9
9/11/2021 7:00:00 PM 16.73 62.114 0.676 7.46 4.39 8.97
9/11/2021 7:15:00 PM 16.68 62.024 0.676 7.46 4.35 8.93
9/11/2021 7:30:00 PM 16.63 61.934 0.676 7.46 4.39 8.89
9/11/2021 7:45:00 PM 16.58 61.844 0.677 7.44 4.86 8.86
9/11/2021 8:00:00 PM 16.52 61.736 0.677 7.45 5.32 8.83
9/11/2021 8:15:00 PM 16.46 61.628 0.676 7.44 5.63 8.8
9/11/2021 8:30:00 PM 16.41 61.538 0.676 7.45 5.95 8.79
9/11/2021 8:45:00 PM 16.35 61.43 0.676 7.45 6.26 8.77
9/11/2021 9:00:00 PM 16.3 61.34 0.677 7.45 6.49 8.76
9/11/2021 9:15:00 PM 16.25 61.25 0.676 7.43 6.83 8.74
9/11/2021 9:30:00 PM 16.2 61.16 0.676 7.44 7.52 8.73
9/11/2021 9:45:00 PM 16.16 61.088 0.676 7.44 7.61 8.72
9/11/2021 10:00:00 PM 16.12 61.016 0.676 7.44 7.48 8.71
9/11/2021 10:15:00 PM 16.07 60.926 0.675 7.43 7.19 8.7
9/11/2021 10:30:00 PM 16.03 60.854 0.675 7.43 8 8.7
9/11/2021 10:45:00 PM 15.99 60.782 0.674 7.42 7.83 8.7
9/11/2021 11:00:00 PM 15.95 60.71 0.674 7.43 7.9 8.71
9/11/2021 11:15:00 PM 15.91 60.638 0.673 7.43 7.94 8.71
9/11/2021 11:30:00 PM 15.88 60.584 0.673 7.42 7.8 8.72
9/11/2021 11:45:00 PM 15.85 60.53 0.674 7.42 7.96 8.72
9/12/2021 12:00:00 AM 15.81 60.458 0.673 7.43 7.67 8.72
9/12/2021 12:15:00 AM 15.78 60.404 0.671 7.42 7.61 8.73
9/12/2021 12:30:00 AM 15.75 60.35 0.67 7.43 7.87 8.74
9/12/2021 12:45:00 AM 15.71 60.278 0.669 7.43 7.9 8.75
9/12/2021 1:00:00 AM 15.67 60.206 0.667 7.42 8.13 8.76
9/12/2021 1:15:00 AM 15.64 60.152 0.667 7.43 7.96 8.76
9/12/2021 1:30:00 AM 15.61 60.098 0.667 7.43 7.98 8.77
9/12/2021 1:45:00 AM 15.58 60.044 0.666 7.44 7.93 8.77
9/12/2021 2:00:00 AM 15.54 59.972 0.664 7.44 7.83 8.78
9/12/2021 2:15:00 AM 15.51 59.918 0.664 7.44 7.72 8.78
9/12/2021 2:30:00 AM 15.48 59.864 0.663 7.44 7.54 8.79
9/12/2021 2:45:00 AM 15.46 59.828 0.662 7.44 7.76 8.79
9/12/2021 3:00:00 AM 15.43 59.774 0.661 7.44 7.93 8.8
9/12/2021 3:15:00 AM 15.41 59.738 0.661 7.44 8.12 8.8
9/12/2021 3:30:00 AM 15.39 59.702 0.66 7.43 8 8.81
9/12/2021 3:45:00 AM 15.37 59.666 0.659 7.43 8.11 8.81
9/12/2021 4:00:00 AM 15.35 59.63 0.658 7.44 7.55 8.82
9/12/2021 4:15:00 AM 15.33 59.594 0.657 7.44 7.02 8.82
9/12/2021 4:30:00 AM 15.3 59.54 0.657 7.44 7.29 8.83
9/12/2021 4:45:00 AM 15.28 59.504 0.656 7.44 6.81 8.83
9/12/2021 5:00:00 AM 15.25 59.45 0.655 7.43 7.1 8.84
9/12/2021 5:15:00 AM 15.21 59.378 0.653 7.45 7.91 8.86
9/12/2021 5:30:00 AM 15.17 59.306 0.652 7.43 7.21 8.87
9/12/2021 5:45:00 AM 15.14 59.252 0.652 7.44 6.48 8.88
9/12/2021 6:00:00 AM 15.11 59.198 0.651 7.43 6.48 8.89
9/12/2021 6:15:00 AM 15.09 59.162 0.651 7.45 6.33 8.89
9/12/2021 6:30:00 AM 15.07 59.126 0.652 7.44 6.21 8.89
9/12/2021 6:45:00 AM 15.05 59.09 0.653 7.45 5.79 8.89
9/12/2021 7:00:00 AM 15.04 59.072 0.654 7.44 5.81 8.9
9/12/2021 7:15:00 AM 15.03 59.054 0.654 7.44 5.29 8.91
9/12/2021 7:30:00 AM 15.02 59.036 0.655 7.45 5.08 8.92
9/12/2021 7:45:00 AM 15.02 59.036 0.655 7.45 5.37 8.95
9/12/2021 8:00:00 AM 15.02 59.036 0.655 7.45 4.82 8.98
9/12/2021 8:15:00 AM 15.02 59.036 0.654 7.45 4.55 9
9/12/2021 8:30:00 AM 15.02 59.036 0.653 7.45 4.4 9.03
9/12/2021 8:45:00 AM 15.02 59.036 0.653 7.45 4.52 9.07
9/12/2021 9:00:00 AM 15.05 59.09 0.652 7.45 4.44 9.13
9/12/2021 9:15:00 AM 15.08 59.144 0.653 7.46 4.15 9.18
9/12/2021 9:30:00 AM 15.13 59.234 0.654 7.47 4.46 9.25
9/12/2021 9:45:00 AM 15.2 59.36 0.656 7.47 4.57 9.3
9/12/2021 10:00:00 AM 15.27 59.486 0.659 7.47 4.65 9.32
9/12/2021 10:15:00 AM 15.32 59.576 0.661 7.48 4.4 9.34
9/12/2021 10:30:00 AM 15.41 59.738 0.665 7.48 4.52 9.39
9/12/2021 10:45:00 AM 15.51 59.918 0.668 7.47 4.38 9.44
9/12/2021 11:00:00 AM 15.64 60.152 0.674 7.48 4.59 9.49
9/12/2021 11:15:00 AM 15.79 60.422 0.68 7.49 4.54 9.51
9/12/2021 11:30:00 AM 15.93 60.674 0.684 7.49 4.94 9.53
9/12/2021 11:45:00 AM 16.06 60.908 0.686 7.49 4.91 9.56
9/12/2021 12:00:00 PM 16.19 61.142 0.688 7.49 4.43 9.6
9/12/2021 12:15:00 PM 16.33 61.394 0.691 7.5 4.31 9.62
9/12/2021 12:30:00 PM 16.47 61.646 0.693 7.49 4.32 9.64
9/12/2021 12:45:00 PM 16.62 61.916 0.695 7.5 4.23 9.67
9/12/2021 1:00:00 PM 16.75 62.15 0.698 7.49 4.74 9.68
9/12/2021 1:15:00 PM 16.87 62.366 0.701 7.51 4.39 9.69
9/12/2021 1:30:00 PM 17 62.6 0.702 7.51 4.04 9.68
9/12/2021 1:45:00 PM 17.11 62.798 0.702 7.5 4.35 9.68
9/12/2021 2:00:00 PM 17.22 62.996 0.702 7.51 4.04 9.68
9/12/2021 2:15:00 PM 17.32 63.176 0.703 7.51 4.07 9.67
9/12/2021 2:30:00 PM 17.4 63.32 0.703 7.51 4.38 9.65
9/12/2021 2:45:00 PM 17.47 63.446 0.704 7.51 4.12 9.62
9/12/2021 3:00:00 PM 17.54 63.572 0.704 7.52 4.34 9.6
9/12/2021 3:15:00 PM 17.59 63.662 0.704 7.52 4.05 9.56
9/12/2021 3:30:00 PM 17.64 63.752 0.705 7.51 4.39 9.53
9/12/2021 3:45:00 PM 17.68 63.824 0.706 7.51 3.99 9.49
9/12/2021 4:00:00 PM 17.72 63.896 0.706 7.51 4.14 9.45
9/12/2021 4:15:00 PM 17.75 63.95 0.707 7.5 3.94 9.41
9/12/2021 4:30:00 PM 17.77 63.986 0.706 7.51 4.47 9.36
9/12/2021 4:45:00 PM 17.78 64.004 0.705 7.51 4.5 9.32
9/12/2021 5:00:00 PM 17.78 64.004 0.705 7.49 4.76 9.28
9/12/2021 5:15:00 PM 17.78 64.004 0.707 7.5 4.39 9.24
9/12/2021 5:30:00 PM 17.76 63.968 0.707 7.49 4.51 9.19
9/12/2021 5:45:00 PM 17.74 63.932 0.707 7.49 4.8 9.14
9/12/2021 6:00:00 PM 17.71 63.878 0.707 7.49 4.35 9.08
9/12/2021 6:15:00 PM 17.68 63.824 0.707 7.49 4.39 9.03
9/12/2021 6:30:00 PM 17.63 63.734 0.707 7.48 4.07 8.97
9/12/2021 6:45:00 PM 17.59 63.662 0.708 7.47 3.92 8.91
9/12/2021 7:00:00 PM 17.54 63.572 0.708 7.47 3.96 8.87
9/12/2021 7:15:00 PM 17.49 63.482 0.707 7.47 4.03 8.82
9/12/2021 7:30:00 PM 17.43 63.374 0.705 7.46 4.1 8.77
9/12/2021 7:45:00 PM 17.37 63.266 0.704 7.45 4.5 8.73
9/12/2021 8:00:00 PM 17.32 63.176 0.704 7.46 4.81 8.69
9/12/2021 8:15:00 PM 17.27 63.086 0.704 7.45 5.2 8.66
9/12/2021 8:30:00 PM 17.22 62.996 0.704 7.45 5.93 8.63
9/12/2021 8:45:00 PM 17.16 62.888 0.704 7.45 6.22 8.61
9/12/2021 9:00:00 PM 17.11 62.798 0.704 7.44 6.12 8.58
9/12/2021 9:15:00 PM 17.06 62.708 0.704 7.44 6.43 8.56
9/12/2021 9:30:00 PM 17.01 62.618 0.704 7.44 6.48 8.54
9/12/2021 9:45:00 PM 16.96 62.528 0.704 7.44 6.44 8.53
9/12/2021 10:00:00 PM 16.92 62.456 0.703 7.44 6.33 8.52
9/12/2021 10:15:00 PM 16.87 62.366 0.704 7.43 6.55 8.51
9/12/2021 10:30:00 PM 16.83 62.294 0.704 7.43 7.27 8.51
9/12/2021 10:45:00 PM 16.79 62.222 0.705 7.43 7.21 8.51
9/12/2021 11:00:00 PM 16.75 62.15 0.705 7.43 6.58 8.51
9/12/2021 11:15:00 PM 16.72 62.096 0.706 7.43 6.77 8.51
9/12/2021 11:30:00 PM 16.68 62.024 0.707 7.42 7.32 8.52
9/12/2021 11:45:00 PM 16.65 61.97 0.708 7.41 6.29 8.52
9/13/2021 12:00:00 AM 16.61 61.898 0.708 7.42 6.69 8.52
9/13/2021 12:15:00 AM 16.57 61.826 0.707 7.42 6.07 8.53
9/13/2021 12:30:00 AM 16.53 61.754 0.705 7.42 7 8.53
9/13/2021 12:45:00 AM 16.48 61.664 0.703 7.41 5.8 8.54
9/13/2021 1:00:00 AM 16.43 61.574 0.7 7.42 5.9 8.56
9/13/2021 1:15:00 AM 16.38 61.484 0.698 7.4 6.31 8.57
9/13/2021 1:30:00 AM 16.34 61.412 0.696 7.42 6.07 8.58
9/13/2021 1:45:00 AM 16.3 61.34 0.694 7.42 6.05 8.58
9/13/2021 2:00:00 AM 16.25 61.25 0.691 7.4 6.24 8.6
9/13/2021 2:15:00 AM 16.2 61.16 0.689 7.42 6.24 8.61
9/13/2021 2:30:00 AM 16.17 61.106 0.687 7.42 6.39 8.62
9/13/2021 2:45:00 AM 16.13 61.034 0.686 7.41 6.14 8.63
9/13/2021 3:00:00 AM 16.09 60.962 0.683 7.42 6.41 8.64
9/13/2021 3:15:00 AM 16.05 60.89 0.681 7.42 6.33 8.65
9/13/2021 3:30:00 AM 16.01 60.818 0.679 7.42 6.42 8.66
9/13/2021 3:45:00 AM 15.97 60.746 0.678 7.42 6.52 8.67
9/13/2021 4:00:00 AM 15.94 60.692 0.676 7.43 6.49 8.67
9/13/2021 4:15:00 AM 15.91 60.638 0.675 7.43 6.29 8.68
9/13/2021 4:30:00 AM 15.88 60.584 0.674 7.43 6.53 8.68
9/13/2021 4:45:00 AM 15.84 60.512 0.673 7.42 5.85 8.68
9/13/2021 5:00:00 AM 15.81 60.458 0.672 7.41 6.58 8.69
9/13/2021 5:15:00 AM 15.79 60.422 0.671 7.42 7.4 8.69
9/13/2021 5:30:00 AM 15.76 60.368 0.672 7.42 6.44 8.7
9/13/2021 5:45:00 AM 15.74 60.332 0.672 7.42 6.35 8.7
9/13/2021 6:00:00 AM 15.73 60.314 0.673 7.42 6.7 8.71
9/13/2021 6:15:00 AM 15.71 60.278 0.674 7.42 6.95 8.71
9/13/2021 6:30:00 AM 15.69 60.242 0.674 7.42 6.29 8.72
9/13/2021 6:45:00 AM 15.67 60.206 0.673 7.42 5.63 8.73
9/13/2021 7:00:00 AM 15.66 60.188 0.674 7.42 5.52 8.74
9/13/2021 7:15:00 AM 15.65 60.17 0.675 7.42 5.07 8.75
9/13/2021 7:30:00 AM 15.64 60.152 0.675 7.42 5.27 8.76
9/13/2021 7:45:00 AM 15.63 60.134 0.676 7.41 4.68 8.78
9/13/2021 8:00:00 AM 15.61 60.098 0.674 7.42 4.72 8.82
9/13/2021 8:15:00 AM 15.6 60.08 0.673 7.42 4.78 8.85
9/13/2021 8:30:00 AM 15.6 60.08 0.674 7.41 4.32 8.88
9/13/2021 8:45:00 AM 15.61 60.098 0.674 7.43 4.33 8.91
9/13/2021 9:00:00 AM 15.65 60.17 0.674 7.43 4.5 8.95
9/13/2021 9:15:00 AM 15.7 60.26 0.675 7.43 4.37 8.99
9/13/2021 9:30:00 AM 15.74 60.332 0.677 7.43 4.2 9.04
9/13/2021 9:45:00 AM 15.8 60.44 0.68 7.44 4.46 9.09
9/13/2021 10:00:00 AM 15.89 60.602 0.684 7.44 4.48 9.15
9/13/2021 10:15:00 AM 15.99 60.782 0.688 7.45 4.22 9.23
9/13/2021 10:30:00 AM 16.08 60.944 0.692 7.45 4.31 9.28
9/13/2021 10:45:00 AM 16.19 61.142 0.696 7.46 4.27 9.34
9/13/2021 11:00:00 AM 16.31 61.358 0.699 7.45 4.28 9.38
9/13/2021 11:15:00 AM 16.43 61.574 0.701 7.47 4.37 9.41
9/13/2021 11:30:00 AM 16.55 61.79 0.702 7.47 8.18 9.45
9/13/2021 11:45:00 AM 16.68 62.024 0.702 7.48 6.92 9.51
9/13/2021 12:00:00 PM 16.8 62.24 0.7 7.48 7.69 9.54
9/13/2021 12:15:00 PM 16.92 62.456 0.699 7.49 5.06 9.56
9/13/2021 12:30:00 PM 17.05 62.69 0.698 7.5 5.94 9.63
9/13/2021 12:45:00 PM 17.18 62.924 0.698 7.51 4.54 9.66
9/13/2021 1:00:00 PM 17.28 63.104 0.698 7.51 10.06 9.6
9/13/2021 1:15:00 PM 17.34 63.212 0.7 7.51 5.67 9.55
9/13/2021 1:30:00 PM 17.36 63.248 0.7 7.51 6.82 9.52
9/13/2021 1:45:00 PM 17.38 63.284 0.7 7.51 6.31 9.5
9/13/2021 2:00:00 PM 17.45 63.41 0.701 7.51 5.83 9.53
9/13/2021 2:15:00 PM 17.5 63.5 0.701 7.52 4.07 9.49
9/13/2021 2:30:00 PM 17.53 63.554 0.701 7.52 4.82 9.47
9/13/2021 2:45:00 PM 17.56 63.608 0.702 7.52 5.13 9.49
9/13/2021 3:00:00 PM 17.6 63.68 0.703 7.52 4.07 9.45
9/13/2021 3:15:00 PM 17.63 63.734 0.704 7.52 4.07 9.43
9/13/2021 3:30:00 PM 17.66 63.788 0.706 7.52 4.93 9.4
9/13/2021 3:45:00 PM 17.66 63.788 0.708 7.52 5.04 9.39
9/13/2021 4:00:00 PM 17.7 63.86 0.707 7.52 6.09 9.39
9/13/2021 4:15:00 PM 17.73 63.914 0.706 7.51 5 9.38
9/13/2021 4:30:00 PM 17.72 63.896 0.706 7.52 4.75 9.34
9/13/2021 4:45:00 PM 17.72 63.896 0.706 7.52 4.5 9.31
9/13/2021 5:00:00 PM 17.73 63.914 0.707 7.51 4.61 9.28
9/13/2021 5:15:00 PM 17.73 63.914 0.708 7.51 4.91 9.24
9/13/2021 5:30:00 PM 17.73 63.914 0.707 7.51 4.96 9.21
9/13/2021 5:45:00 PM 17.71 63.878 0.705 7.51 4.9 9.18
9/13/2021 6:00:00 PM 17.69 63.842 0.704 7.51 4.4 9.14
9/13/2021 6:15:00 PM 17.67 63.806 0.705 7.5 4.48 9.09
9/13/2021 6:30:00 PM 17.65 63.77 0.706 7.49 4.64 9.03
9/13/2021 6:45:00 PM 17.62 63.716 0.705 7.49 4.86 8.97
9/13/2021 7:00:00 PM 17.58 63.644 0.703 7.49 5.13 8.92
9/13/2021 7:15:00 PM 17.53 63.554 0.702 7.48 5.4 8.87
9/13/2021 7:30:00 PM 17.49 63.482 0.702 7.47 5.31 8.81
9/13/2021 7:45:00 PM 17.44 63.392 0.704 7.47 4.85 8.75
9/13/2021 8:00:00 PM 17.39 63.302 0.704 7.46 5.97 8.71
9/13/2021 8:15:00 PM 17.34 63.212 0.704 7.46 5.63 8.68
9/13/2021 8:30:00 PM 17.29 63.122 0.705 7.45 5.76 8.64
9/13/2021 8:45:00 PM 17.24 63.032 0.707 7.45 6.03 8.61
9/13/2021 9:00:00 PM 17.18 62.924 0.709 7.45 6.44 8.58
9/13/2021 9:15:00 PM 17.13 62.834 0.712 7.44 7.18 8.56
9/13/2021 9:30:00 PM 17.07 62.726 0.714 7.44 6.85 8.54
9/13/2021 9:45:00 PM 17.01 62.618 0.717 7.43 6.46 8.52
9/13/2021 10:00:00 PM 16.95 62.51 0.718 7.43 6.75 8.5
9/13/2021 10:15:00 PM 16.89 62.402 0.719 7.42 6.96 8.5
9/13/2021 10:30:00 PM 16.84 62.312 0.722 7.42 6.78 8.49
9/13/2021 10:45:00 PM 16.8 62.24 0.725 7.41 7.97 8.49
9/13/2021 11:00:00 PM 16.76 62.168 0.728 7.42 7.18 8.49
9/13/2021 11:15:00 PM 16.73 62.114 0.73 7.42 6.5 8.49
9/13/2021 11:30:00 PM 16.68 62.024 0.731 7.41 6.93 8.5
9/13/2021 11:45:00 PM 16.64 61.952 0.731 7.42 6.69 8.51
9/14/2021 12:00:00 AM 16.6 61.88 0.732 7.41 6.76 8.52
9/14/2021 12:15:00 AM 16.56 61.808 0.734 7.41 6.8 8.52
9/14/2021 12:30:00 AM 16.53 61.754 0.736 7.41 6.43 8.52
9/14/2021 12:45:00 AM 16.49 61.682 0.736 7.41 6.52 8.53
9/14/2021 1:00:00 AM 16.45 61.61 0.733 7.41 6.48 8.53
9/14/2021 1:15:00 AM 16.41 61.538 0.732 7.41 7.23 8.55
9/14/2021 1:30:00 AM 16.37 61.466 0.73 7.41 6.35 8.54
9/14/2021 1:45:00 AM 16.34 61.412 0.728 7.41 6.75 8.56
9/14/2021 2:00:00 AM 16.3 61.34 0.727 7.4 6.99 8.56
9/14/2021 2:15:00 AM 16.26 61.268 0.724 7.41 7.66 8.57
9/14/2021 2:30:00 AM 16.23 61.214 0.721 7.41 8.21 8.58
9/14/2021 2:45:00 AM 16.19 61.142 0.717 7.42 6.92 8.59
9/14/2021 3:00:00 AM 16.15 61.07 0.714 7.42 7.25 8.61
9/14/2021 3:15:00 AM 16.11 60.998 0.711 7.42 6.96 8.62
9/14/2021 3:30:00 AM 16.07 60.926 0.71 7.42 6.93 8.63
9/14/2021 3:45:00 AM 16.04 60.872 0.708 7.42 6.58 8.65
9/14/2021 4:00:00 AM 16 60.8 0.705 7.42 7.24 8.65
9/14/2021 4:15:00 AM 15.96 60.728 0.703 7.43 7.43 8.66
9/14/2021 4:30:00 AM 15.93 60.674 0.702 7.42 7.05 8.67
9/14/2021 4:45:00 AM 15.9 60.62 0.701 7.42 7.29 8.67
9/14/2021 5:00:00 AM 15.87 60.566 0.7 7.41 7.09 8.67
9/14/2021 5:15:00 AM 15.84 60.512 0.698 7.43 6.79 8.68
9/14/2021 5:30:00 AM 15.81 60.458 0.696 7.43 7.84 8.68
9/14/2021 5:45:00 AM 15.78 60.404 0.694 7.43 6.94 8.69
9/14/2021 6:00:00 AM 15.75 60.35 0.693 7.42 7.19 8.7
9/14/2021 6:15:00 AM 15.72 60.296 0.693 7.43 6.62 8.71
9/14/2021 6:30:00 AM 15.7 60.26 0.695 7.41 7.56 8.71
9/14/2021 6:45:00 AM 15.68 60.224 0.696 7.42 7.21 8.71
9/14/2021 7:00:00 AM 15.67 60.206 0.696 7.42 6.73 8.72
9/14/2021 7:15:00 AM 15.65 60.17 0.697 7.42 6.35 8.73
9/14/2021 7:30:00 AM 15.65 60.17 0.698 7.42 5.59 8.76
9/14/2021 7:45:00 AM 15.65 60.17 0.698 7.43 6.04 8.79
9/14/2021 8:00:00 AM 15.66 60.188 0.698 7.43 5.34 8.81
9/14/2021 8:15:00 AM 15.66 60.188 0.698 7.43 5.63 8.84
9/14/2021 8:30:00 AM 15.67 60.206 0.698 7.43 5.07 8.87
9/14/2021 8:45:00 AM 15.68 60.224 0.697 7.42 4.98 8.92
9/14/2021 9:00:00 AM 15.7 60.26 0.698 7.44 5.15 8.96
9/14/2021 9:15:00 AM 15.74 60.332 0.7 7.44 5.28 9.01
9/14/2021 9:30:00 AM 15.78 60.404 0.702 7.44 4.97 9.06
9/14/2021 9:45:00 AM 15.83 60.494 0.706 7.45 4.87 9.09
9/14/2021 10:00:00 AM 15.89 60.602 0.709 7.45 4.95 9.15
9/14/2021 10:15:00 AM 15.98 60.764 0.714 7.46 5.76 9.22
9/14/2021 10:30:00 AM 16.08 60.944 0.719 7.46 5.18 9.28
9/14/2021 10:45:00 AM 16.19 61.142 0.725 7.47 4.68 9.35
9/14/2021 11:00:00 AM 16.3 61.34 0.728 7.48 4.93 9.4
9/14/2021 11:15:00 AM 16.4 61.52 0.729 7.48 4.97 9.46
9/14/2021 11:30:00 AM 16.5 61.7 0.73 7.49 5.08 9.53
9/14/2021 11:45:00 AM 16.61 61.898 0.73 7.5 4.96 9.6
9/14/2021 12:00:00 PM 16.72 62.096 0.73 7.51 5.31 9.65
9/14/2021 12:15:00 PM 16.84 62.312 0.73 7.5 5.15 9.71
9/14/2021 12:30:00 PM 16.94 62.492 0.731 7.52 4.69 9.73
9/14/2021 12:45:00 PM 17.06 62.708 0.732 7.51 5 9.8
9/14/2021 1:00:00 PM 17.16 62.888 0.732 7.53 5.15 9.82
9/14/2021 1:15:00 PM 17.24 63.032 0.731 7.54 4.95 9.8
9/14/2021 1:30:00 PM 17.32 63.176 0.73 7.54 5.36 9.78
9/14/2021 1:45:00 PM 17.42 63.356 0.73 7.54 5.15 9.82
9/14/2021 2:00:00 PM 17.48 63.464 0.731 7.54 5.29 9.77
9/14/2021 2:15:00 PM 17.56 63.608 0.731 7.55 5.22 9.75
9/14/2021 2:30:00 PM 17.64 63.752 0.731 7.54 4.97 9.74
9/14/2021 2:45:00 PM 17.66 63.788 0.731 7.54 4.94 9.72
9/14/2021 3:00:00 PM 17.75 63.95 0.73 7.55 4.78 9.73
9/14/2021 3:15:00 PM 17.82 64.076 0.729 7.55 5.06 9.71
9/14/2021 3:30:00 PM 17.83 64.094 0.728 7.55 4.93 9.63
9/14/2021 3:45:00 PM 17.85 64.13 0.727 7.55 4.44 9.6
9/14/2021 4:00:00 PM 17.86 64.148 0.726 7.55 4.83 9.54
9/14/2021 4:15:00 PM 17.85 64.13 0.727 7.54 4.97 9.5
9/14/2021 4:30:00 PM 17.86 64.148 0.729 7.54 4.73 9.44
9/14/2021 4:45:00 PM 17.88 64.184 0.733 7.54 4.53 9.4
9/14/2021 5:00:00 PM 17.9 64.22 0.734 7.53 4.7 9.35
9/14/2021 5:15:00 PM 17.88 64.184 0.732 7.53 4.72 9.3
9/14/2021 5:30:00 PM 17.85 64.13 0.729 7.53 4.57 9.23
9/14/2021 5:45:00 PM 17.82 64.076 0.731 7.52 4.34 9.19
9/14/2021 6:00:00 PM 17.81 64.058 0.734 7.52 4.99 9.13
9/14/2021 6:15:00 PM 17.78 64.004 0.737 7.51 4.66 9.08
9/14/2021 6:30:00 PM 17.73 63.914 0.737 7.51 4.59 9.02
9/14/2021 6:45:00 PM 17.68 63.824 0.737 7.51 5.53 8.98
9/14/2021 7:00:00 PM 17.62 63.716 0.737 7.5 5.15 8.93
9/14/2021 7:15:00 PM 17.55 63.59 0.738 7.49 4.93 8.87
9/14/2021 7:30:00 PM 17.49 63.482 0.738 7.49 4.67 8.8
9/14/2021 7:45:00 PM 17.43 63.374 0.739 7.49 4.88 8.75
9/14/2021 8:00:00 PM 17.38 63.284 0.739 7.48 5.53 8.69
9/14/2021 8:15:00 PM 17.32 63.176 0.739 7.48 5.79 8.66
9/14/2021 8:30:00 PM 17.26 63.068 0.737 7.47 6.04 8.63
9/14/2021 8:45:00 PM 17.19 62.942 0.734 7.48 6.44 8.61
9/14/2021 9:00:00 PM 17.12 62.816 0.731 7.47 6.8 8.6
9/14/2021 9:15:00 PM 17.05 62.69 0.73 7.46 6.51 8.58
9/14/2021 9:30:00 PM 17 62.6 0.731 7.47 6.39 8.56
9/14/2021 9:45:00 PM 16.94 62.492 0.731 7.46 6.81 8.54
9/14/2021 10:00:00 PM 16.89 62.402 0.731 7.46 6.82 8.53
9/14/2021 10:15:00 PM 16.84 62.312 0.732 7.46 6.85 8.52
9/14/2021 10:30:00 PM 16.79 62.222 0.733 7.46 7.56 8.51
9/14/2021 10:45:00 PM 16.74 62.132 0.735 7.45 7.05 8.51
9/14/2021 11:00:00 PM 16.7 62.06 0.736 7.45 7.5 8.5
9/14/2021 11:15:00 PM 16.65 61.97 0.737 7.45 7.12 8.5
9/14/2021 11:30:00 PM 16.61 61.898 0.736 7.45 7.23 8.5
9/14/2021 11:45:00 PM 16.57 61.826 0.737 7.44 7.34 8.5
9/15/2021 12:00:00 AM 16.54 61.772 0.74 7.45 7.53 8.51
9/15/2021 12:15:00 AM 16.52 61.736 0.742 7.44 6.91 8.52
9/15/2021 12:30:00 AM 16.48 61.664 0.74 7.44 7.22 8.52
9/15/2021 12:45:00 AM 16.44 61.592 0.738 7.44 6.97 8.53
9/15/2021 1:00:00 AM 16.41 61.538 0.739 7.44 7.54 8.53
9/15/2021 1:15:00 AM 16.4 61.52 0.744 7.44 8.92 8.53
9/15/2021 1:30:00 AM 16.39 61.502 0.746 7.43 7.99 8.52
9/15/2021 1:45:00 AM 16.37 61.466 0.745 7.43 8.88 8.54
9/15/2021 2:00:00 AM 16.34 61.412 0.742 7.44 7.98 8.54
9/15/2021 2:15:00 AM 16.31 61.358 0.739 7.44 8.46 8.55
9/15/2021 2:30:00 AM 16.28 61.304 0.736 7.44 7.83 8.56
9/15/2021 2:45:00 AM 16.25 61.25 0.734 7.44 7.24 8.56
9/15/2021 3:00:00 AM 16.22 61.196 0.731 7.44 7.48 8.56
9/15/2021 3:15:00 AM 16.19 61.142 0.728 7.44 8.39 8.57
9/15/2021 3:30:00 AM 16.15 61.07 0.724 7.43 9.42 8.58
9/15/2021 3:45:00 AM 16.12 61.016 0.722 7.43 9.28 8.59
9/15/2021 4:00:00 AM 16.09 60.962 0.719 7.44 8.53 8.59
9/15/2021 4:15:00 AM 16.05 60.89 0.715 7.44 8.43 8.61
9/15/2021 4:30:00 AM 16.02 60.836 0.712 7.44 8.32 8.61
9/15/2021 4:45:00 AM 16 60.8 0.711 7.43 8.6 8.62
9/15/2021 5:00:00 AM 15.97 60.746 0.71 7.44 8.51 8.62
9/15/2021 5:15:00 AM 15.93 60.674 0.708 7.44 8.12 8.64
9/15/2021 5:30:00 AM 15.89 60.602 0.706 7.43 7.96 8.64
9/15/2021 5:45:00 AM 15.86 60.548 0.705 7.43 7.6 8.65
9/15/2021 6:00:00 AM 15.83 60.494 0.704 7.43 8.2 8.66
9/15/2021 6:15:00 AM 15.81 60.458 0.705 7.43 8.17 8.65
9/15/2021 6:30:00 AM 15.78 60.404 0.705 7.43 8.66 8.66
9/15/2021 6:45:00 AM 15.76 60.368 0.705 7.43 7.78 8.67
9/15/2021 7:00:00 AM 15.75 60.35 0.707 7.43 6.95 8.68
9/15/2021 7:15:00 AM 15.74 60.332 0.708 7.43 6.39 8.69
9/15/2021 7:30:00 AM 15.73 60.314 0.708 7.43 6.32 8.71
9/15/2021 7:45:00 AM 15.73 60.314 0.708 7.43 6.19 8.75
9/15/2021 8:00:00 AM 15.73 60.314 0.708 7.44 6.04 8.78
9/15/2021 8:15:00 AM 15.74 60.332 0.709 7.44 5.2 8.8
9/15/2021 8:30:00 AM 15.75 60.35 0.709 7.44 5.59 8.82
9/15/2021 8:45:00 AM 15.75 60.35 0.71 7.43 5.08 8.83
9/15/2021 9:00:00 AM 15.76 60.368 0.71 7.44 5.24 8.88
9/15/2021 9:15:00 AM 15.8 60.44 0.711 7.45 5.73 8.94
9/15/2021 9:30:00 AM 15.85 60.53 0.712 7.45 5.69 9
9/15/2021 9:45:00 AM 15.9 60.62 0.714 7.46 6.37 9.05
9/15/2021 10:00:00 AM 15.97 60.746 0.717 7.46 5.23 9.13
9/15/2021 10:15:00 AM 16.04 60.872 0.722 7.47 5.17 9.18
9/15/2021 10:30:00 AM 16.16 61.088 0.727 7.47 5.24 9.25
9/15/2021 10:45:00 AM 16.27 61.286 0.732 7.48 5.83 9.29
9/15/2021 11:00:00 AM 16.4 61.52 0.737 7.49 5.27 9.35
9/15/2021 11:15:00 AM 16.54 61.772 0.74 7.49 5.19 9.41
9/15/2021 11:30:00 AM 16.67 62.006 0.739 7.5 5.13 9.47
9/15/2021 11:45:00 AM 16.8 62.24 0.738 7.51 5.48 9.54
9/15/2021 12:00:00 PM 16.93 62.474 0.737 7.51 5.72 9.6
9/15/2021 12:15:00 PM 17.07 62.726 0.735 7.52 4.9 9.66
9/15/2021 12:30:00 PM 17.22 62.996 0.734 7.53 4.96 9.7
9/15/2021 12:45:00 PM 17.37 63.266 0.734 7.53 5.13 9.74
9/15/2021 1:00:00 PM 17.53 63.554 0.736 7.54 4.74 9.77
9/15/2021 1:15:00 PM 17.67 63.806 0.736 7.55 5.23 9.77
9/15/2021 1:30:00 PM 17.78 64.004 0.736 7.55 5.75 9.75
9/15/2021 1:45:00 PM 17.91 64.238 0.736 7.56 5.42 9.79
9/15/2021 2:00:00 PM 18.01 64.418 0.737 7.56 5.09 9.78
9/15/2021 2:15:00 PM 18.11 64.598 0.737 7.57 5.56 9.77
9/15/2021 2:30:00 PM 18.19 64.742 0.737 7.57 5.04 9.76
9/15/2021 2:45:00 PM 18.25 64.85 0.737 7.56 5.12 9.71
9/15/2021 3:00:00 PM 18.32 64.976 0.736 7.57 5.34 9.69
9/15/2021 3:15:00 PM 18.39 65.102 0.738 7.57 6.09 9.67
9/15/2021 3:30:00 PM 18.41 65.138 0.744 7.57 5.77 9.59
9/15/2021 3:45:00 PM 18.43 65.174 0.749 7.56 5.64 9.55
9/15/2021 4:00:00 PM 18.45 65.21 0.753 7.56 5.15 9.48
9/15/2021 4:15:00 PM 18.48 65.264 0.756 7.55 4.77 9.45
9/15/2021 4:30:00 PM 18.5 65.3 0.757 7.56 5.26 9.39
9/15/2021 4:45:00 PM 18.53 65.354 0.757 7.56 4.75 9.36
9/15/2021 5:00:00 PM 18.51 65.318 0.757 7.54 4.84 9.29
9/15/2021 5:15:00 PM 18.48 65.264 0.757 7.55 4.78 9.23
9/15/2021 5:30:00 PM 18.44 65.192 0.757 7.54 4.74 9.16
9/15/2021 5:45:00 PM 18.39 65.102 0.758 7.54 4.93 9.1
9/15/2021 6:00:00 PM 18.34 65.012 0.757 7.54 4.49 9.05
9/15/2021 6:15:00 PM 18.28 64.904 0.754 7.53 4.82 8.97
9/15/2021 6:30:00 PM 18.21 64.778 0.75 7.53 5.06 8.92
9/15/2021 6:45:00 PM 18.13 64.634 0.746 7.52 5.14 8.86
9/15/2021 7:00:00 PM 18.07 64.526 0.745 7.51 5.28 8.81
9/15/2021 7:15:00 PM 18.01 64.418 0.745 7.51 7.11 8.77
9/15/2021 7:30:00 PM 17.96 64.328 0.746 7.51 6.6 8.73
9/15/2021 7:45:00 PM 17.9 64.22 0.746 7.51 8.98 8.68
9/15/2021 8:00:00 PM 17.84 64.112 0.743 7.51 9.3 8.63
9/15/2021 8:15:00 PM 17.79 64.022 0.743 7.5 7.58 8.56
9/15/2021 8:30:00 PM 17.71 63.878 0.745 7.49 9.01 8.51
9/15/2021 8:45:00 PM 17.63 63.734 0.747 7.49 8.5 8.47
9/15/2021 9:00:00 PM 17.57 63.626 0.746 7.48 10.89 8.42
9/15/2021 9:15:00 PM 17.48 63.464 0.751 7.47 24.27 8.41
9/15/2021 9:30:00 PM 17.4 63.32 0.749 7.45 28.66 8.39
9/15/2021 9:45:00 PM 17.32 63.176 0.748 7.41 35.2 8.37
9/15/2021 10:00:00 PM 17.32 63.176 0.73 7.41 28.59 8.32
9/15/2021 10:15:00 PM 17.35 63.23 0.683 7.37 25.24 8.27
9/15/2021 10:30:00 PM 17.46 63.428 0.63 7.34 23.7 8.18
9/15/2021 10:45:00 PM 17.7 63.86 0.584 7.29 22.53 8
9/15/2021 11:00:00 PM 18.11 64.598 0.545 7.25 23.17 7.81
9/15/2021 11:15:00 PM 18.65 65.57 0.523 7.19 26.03 7.63
9/15/2021 11:30:00 PM 19.04 66.272 0.531 7.17 28.44 7.53
9/15/2021 11:45:00 PM 19.06 66.308 0.554 7.17 29.71 7.52
9/16/2021 12:00:00 AM 18.87 65.966 0.567 7.17 24.3 7.59
9/16/2021 12:15:00 AM 18.55 65.39 0.564 7.17 24.59 7.68
9/16/2021 12:30:00 AM 18.25 64.85 0.557 7.18 19.86 7.74
9/16/2021 12:45:00 AM 18.17 64.706 0.54 7.18 20.94 7.74
9/16/2021 1:00:00 AM 18.32 64.976 0.518 7.16 19.05 7.7
9/16/2021 1:15:00 AM 18.55 65.39 0.504 7.15 17.85 7.65
9/16/2021 1:30:00 AM 18.68 65.624 0.503 7.14 19.74 7.63
9/16/2021 1:45:00 AM 18.68 65.624 0.509 7.15 20.26 7.64
9/16/2021 2:00:00 AM 18.59 65.462 0.52 7.16 20.18 7.67
9/16/2021 2:15:00 AM 18.44 65.192 0.536 7.17 20.86 7.7
9/16/2021 2:30:00 AM 18.26 64.868 0.553 7.19 21.16 7.73
9/16/2021 2:45:00 AM 18.06 64.508 0.568 7.21 21.04 7.81
9/16/2021 3:00:00 AM 17.87 64.166 0.58 7.22 23.14 7.86
9/16/2021 3:15:00 AM 17.7 63.86 0.589 7.24 20.8 7.92
9/16/2021 3:30:00 AM 17.54 63.572 0.596 7.25 19.36 7.98
9/16/2021 3:45:00 AM 17.39 63.302 0.604 7.26 17.97 8.03
9/16/2021 4:00:00 AM 17.26 63.068 0.609 7.28 16.76 8.09
9/16/2021 4:15:00 AM 17.17 62.906 0.612 7.29 15.38 8.13
9/16/2021 4:30:00 AM 17.13 62.834 0.614 7.3 15.7 8.15
9/16/2021 4:45:00 AM 17.12 62.816 0.61 7.3 14.34 8.14
9/16/2021 5:00:00 AM 17.14 62.852 0.604 7.3 13.95 8.13
9/16/2021 5:15:00 AM 17.17 62.906 0.599 7.29 13.66 8.11
9/16/2021 5:30:00 AM 17.2 62.96 0.596 7.29 14.08 8.05
9/16/2021 5:45:00 AM 17.22 62.996 0.596 7.28 15.9 8.03
9/16/2021 6:00:00 AM 17.23 63.014 0.597 7.27 17.49 7.99
9/16/2021 6:15:00 AM 17.23 63.014 0.598 7.27 17.82 7.98
9/16/2021 6:30:00 AM 17.22 62.996 0.599 7.27 18.06 7.97
9/16/2021 6:45:00 AM 17.21 62.978 0.602 7.27 18.61 7.97
9/16/2021 7:00:00 AM 17.19 62.942 0.605 7.27 17.38 7.96
9/16/2021 7:15:00 AM 17.16 62.888 0.609 7.27 16.97 7.98
9/16/2021 7:30:00 AM 17.12 62.816 0.612 7.27 17.16 7.99
9/16/2021 7:45:00 AM 17.08 62.744 0.613 7.28 15.95 8
9/16/2021 8:00:00 AM 17.02 62.636 0.614 7.28 16.01 8.03
9/16/2021 8:15:00 AM 16.98 62.564 0.618 7.29 15.89 8.06
9/16/2021 8:30:00 AM 16.94 62.492 0.621 7.29 16.53 8.09
9/16/2021 8:45:00 AM 16.9 62.42 0.625 7.3 16.19 8.12
9/16/2021 9:00:00 AM 16.88 62.384 0.63 7.3 16.14 8.17
9/16/2021 9:15:00 AM 16.86 62.348 0.635 7.31 15.54 8.21
9/16/2021 9:30:00 AM 16.86 62.348 0.642 7.31 15.78 8.26
9/16/2021 9:45:00 AM 16.87 62.366 0.65 7.32 15.16 8.33
9/16/2021 10:00:00 AM 16.89 62.402 0.658 7.32 15.3 8.37
9/16/2021 10:15:00 AM 16.93 62.474 0.666 7.33 16.03 8.44
9/16/2021 10:30:00 AM 16.99 62.582 0.673 7.34 15.03 8.53
9/16/2021 10:45:00 AM 17.05 62.69 0.679 7.34 13.72 8.59
9/16/2021 11:00:00 AM 17.13 62.834 0.684 7.35 13.47 8.66
9/16/2021 11:15:00 AM 17.2 62.96 0.687 7.36 12.88 8.73
9/16/2021 11:30:00 AM 17.3 63.14 0.689 7.37 13.11 8.84
9/16/2021 11:45:00 AM 17.39 63.302 0.691 7.38 12.3 8.91
9/16/2021 12:00:00 PM 17.49 63.482 0.692 7.39 11.98 9.01
9/16/2021 12:15:00 PM 17.59 63.662 0.692 7.4 11.46 9.09
9/16/2021 12:30:00 PM 17.71 63.878 0.694 7.41 10.83 9.17
9/16/2021 12:45:00 PM 17.84 64.112 0.695 7.42 10.38 9.26
9/16/2021 1:00:00 PM 17.97 64.346 0.696 7.43 9.83 9.35
9/16/2021 1:15:00 PM 18.08 64.544 0.697 7.44 9.44 9.4
9/16/2021 1:30:00 PM 18.17 64.706 0.699 7.45 9.07 9.39
9/16/2021 1:45:00 PM 18.21 64.778 0.7 7.45 9.38 9.37
9/16/2021 2:00:00 PM 18.27 64.886 0.7 7.46 7.54 9.39
9/16/2021 2:15:00 PM 18.28 64.904 0.701 7.46 6.87 9.4
9/16/2021 2:30:00 PM 18.3 64.94 0.701 7.47 6.85 9.41
9/16/2021 2:45:00 PM 18.27 64.886 0.704 7.47 8.25 9.36
9/16/2021 3:00:00 PM 18.26 64.868 0.711 7.47 8.22 9.32
9/16/2021 3:15:00 PM 18.27 64.886 0.717 7.47 8.1 9.32
9/16/2021 3:30:00 PM 18.28 64.904 0.721 7.47 7.37 9.31
9/16/2021 3:45:00 PM 18.33 64.994 0.724 7.47 7.7 9.31
9/16/2021 4:00:00 PM 18.37 65.066 0.727 7.48 9.32 9.3
9/16/2021 4:15:00 PM 18.37 65.066 0.729 7.47 7.84 9.26
9/16/2021 4:30:00 PM 18.35 65.03 0.729 7.48 8.57 9.21
9/16/2021 4:45:00 PM 18.34 65.012 0.73 7.47 9.32 9.18
9/16/2021 5:00:00 PM 18.3 64.94 0.729 7.47 7.17 9.1
9/16/2021 5:15:00 PM 18.27 64.886 0.729 7.47 8.66 9.06
9/16/2021 5:30:00 PM 18.23 64.814 0.73 7.47 7.13 9.01
9/16/2021 5:45:00 PM 18.2 64.76 0.728 7.47 9.02 9
9/16/2021 6:00:00 PM 18.14 64.652 0.725 7.47 9.07 8.98
9/16/2021 6:15:00 PM 18.08 64.544 0.721 7.47 8.05 8.93
9/16/2021 6:30:00 PM 17.99 64.382 0.718 7.47 8.39 8.87
9/16/2021 6:45:00 PM 17.91 64.238 0.716 7.46 7.7 8.82
9/16/2021 7:00:00 PM 17.83 64.094 0.715 7.46 7.52 8.76
9/16/2021 7:15:00 PM 17.77 63.986 0.717 7.46 7.96 8.71
9/16/2021 7:30:00 PM 17.71 63.878 0.719 7.45 8.54 8.66
9/16/2021 7:45:00 PM 17.67 63.806 0.72 7.45 9.12 8.63
9/16/2021 8:00:00 PM 17.62 63.716 0.722 7.45 8.65 8.61
9/16/2021 8:15:00 PM 17.58 63.644 0.723 7.45 8.23 8.58
9/16/2021 8:30:00 PM 17.53 63.554 0.726 7.45 9.35 8.56
9/16/2021 8:45:00 PM 17.48 63.464 0.727 7.45 10.17 8.52
9/16/2021 9:00:00 PM 17.43 63.374 0.727 7.45 10.04 8.5
9/16/2021 9:15:00 PM 17.37 63.266 0.726 7.44 8.69 8.48
9/16/2021 9:30:00 PM 17.31 63.158 0.726 7.44 9.28 8.45
9/16/2021 9:45:00 PM 17.25 63.05 0.727 7.43 10.39 8.43
9/16/2021 10:00:00 PM 17.21 62.978 0.729 7.43 10.79 8.42
9/16/2021 10:15:00 PM 17.17 62.906 0.73 7.43 9.37 8.42
9/16/2021 10:30:00 PM 17.12 62.816 0.731 7.42 8.98 8.41
9/16/2021 10:45:00 PM 17.08 62.744 0.731 7.42 8.78 8.41
9/16/2021 11:00:00 PM 17.03 62.654 0.731 7.41 8.77 8.42
9/16/2021 11:15:00 PM 16.99 62.582 0.732 7.42 9.08 8.42
9/16/2021 11:30:00 PM 16.95 62.51 0.733 7.42 10.05 8.43
9/16/2021 11:45:00 PM 16.91 62.438 0.734 7.42 9.63 8.43
9/17/2021 12:00:00 AM 16.88 62.384 0.735 7.42 10.04 8.44
9/17/2021 12:15:00 AM 16.84 62.312 0.736 7.42 10.15 8.45
9/17/2021 12:30:00 AM 16.8 62.24 0.736 7.42 10.3 8.45
9/17/2021 12:45:00 AM 16.77 62.186 0.736 7.42 10.67 8.46
9/17/2021 1:00:00 AM 16.74 62.132 0.736 7.42 9.29 8.46
9/17/2021 1:15:00 AM 16.71 62.078 0.734 7.42 8.91 8.47
9/17/2021 1:30:00 AM 16.67 62.006 0.732 7.42 8.48 8.47
9/17/2021 1:45:00 AM 16.63 61.934 0.73 7.43 10.72 8.49
9/17/2021 2:00:00 AM 16.59 61.862 0.728 7.42 10.08 8.49
9/17/2021 2:15:00 AM 16.56 61.808 0.727 7.43 10.66 8.5
9/17/2021 2:30:00 AM 16.53 61.754 0.726 7.43 9.31 8.51
9/17/2021 2:45:00 AM 16.5 61.7 0.723 7.43 9.49 8.51
9/17/2021 3:00:00 AM 16.46 61.628 0.72 7.44 9.46 8.53
9/17/2021 3:15:00 AM 16.44 61.592 0.718 7.44 9.16 8.54
9/17/2021 3:30:00 AM 16.41 61.538 0.717 7.44 9.05 8.54
9/17/2021 3:45:00 AM 16.38 61.484 0.716 7.44 8.59 8.55
9/17/2021 4:00:00 AM 16.36 61.448 0.715 7.44 8.49 8.56
9/17/2021 4:15:00 AM 16.33 61.394 0.713 7.45 10.39 8.56
9/17/2021 4:30:00 AM 16.3 61.34 0.711 7.44 10.13 8.58
9/17/2021 4:45:00 AM 16.27 61.286 0.709 7.45 8.78 8.58
9/17/2021 5:00:00 AM 16.25 61.25 0.709 7.44 9.8 8.6
9/17/2021 5:15:00 AM 16.23 61.214 0.707 7.45 9.78 8.6
9/17/2021 5:30:00 AM 16.21 61.178 0.707 7.45 8.95 8.61
9/17/2021 5:45:00 AM 16.2 61.16 0.707 7.45 8.68 8.61
9/17/2021 6:00:00 AM 16.18 61.124 0.706 7.45 9.55 8.62
9/17/2021 6:15:00 AM 16.16 61.088 0.705 7.45 8.01 8.63
9/17/2021 6:30:00 AM 16.15 61.07 0.705 7.45 7.8 8.63
9/17/2021 6:45:00 AM -99999.99 -179968 -99999.99 -99999.99 -99999.99 -99999.99
9/17/2021 7:00:00 AM -99999.99 -179968 -99999.99 -99999.99 -99999.99 -99999.99
9/17/2021 7:15:00 AM -99999.99 -179968 -99999.99 -99999.99 -99999.99 -99999.99
9/17/2021 7:30:00 AM -99999.99 -179968 -99999.99 -99999.99 -99999.99 -99999.99
9/17/2021 7:45:00 AM -99999.99 -179968 -99999.99 -99999.99 -99999.99 -99999.99
9/17/2021 8:00:00 AM -99999.99 -179968 -99999.99 -99999.99 -99999.99 -99999.99
9/17/2021 8:15:00 AM -99999.99 -179968 -99999.99 -99999.99 -99999.99 -99999.99
9/17/2021 8:30:00 AM 16.11 60.998 0.709 7.46 6.53 8.76
9/17/2021 8:45:00 AM 16.12 61.016 0.708 7.46 6.15 8.82
9/17/2021 9:00:00 AM 16.13 61.034 0.708 7.47 8.21 8.86
9/17/2021 9:15:00 AM 16.14 61.052 0.709 7.46 5.95 8.88
9/17/2021 9:30:00 AM 16.16 61.088 0.712 7.47 6.42 8.9
9/17/2021 9:45:00 AM 16.2 61.16 0.715 7.47 7.58 8.96
9/17/2021 10:00:00 AM 16.25 61.25 0.72 7.47 6.34 9
9/17/2021 10:15:00 AM 16.31 61.358 0.725 7.48 6.55 9.04
9/17/2021 10:30:00 AM 16.37 61.466 0.73 7.48 5.8 9.08
9/17/2021 10:45:00 AM 16.43 61.574 0.736 7.48 7.04 9.09
9/17/2021 11:00:00 AM 16.49 61.682 0.741 7.48 5.46 9.11
9/17/2021 11:15:00 AM 16.54 61.772 0.744 7.49 5.42 9.15
9/17/2021 11:30:00 AM 16.58 61.844 0.745 7.49 5.45 9.21
9/17/2021 11:45:00 AM 16.63 61.934 0.747 7.5 5.97 9.23
9/17/2021 12:00:00 PM 16.7 62.06 0.75 7.5 7.8 9.28
9/17/2021 12:15:00 PM 16.76 62.168 0.752 7.51 5.37 9.32
9/17/2021 12:30:00 PM 16.79 62.222 0.749 7.5 5.59 9.33
9/17/2021 12:45:00 PM 16.82 62.276 0.746 7.52 5.11 9.39
9/17/2021 1:00:00 PM 16.85 62.33 0.746 7.52 6.61 9.42
9/17/2021 1:15:00 PM 16.91 62.438 0.745 7.53 5.9 9.47
9/17/2021 1:30:00 PM 16.95 62.51 0.744 7.53 6.19 9.44
9/17/2021 1:45:00 PM 16.98 62.564 0.743 7.53 5.88 9.46
9/17/2021 2:00:00 PM 17.01 62.618 0.742 7.53 6.89 9.47
9/17/2021 2:15:00 PM 17.06 62.708 0.743 7.54 7 9.56
9/17/2021 2:30:00 PM 17.17 62.906 0.749 7.55 6.84 9.66
9/17/2021 2:45:00 PM 17.22 62.996 0.752 7.54 5.78 9.58
9/17/2021 3:00:00 PM 17.27 63.086 0.75 7.55 6.71 9.56
9/17/2021 3:15:00 PM 17.26 63.068 0.744 7.54 7.51 9.54
9/17/2021 3:30:00 PM 17.24 63.032 0.74 7.55 6.81 9.55
9/17/2021 3:45:00 PM 17.25 63.05 0.737 7.55 5.66 9.57
9/17/2021 4:00:00 PM 17.28 63.104 0.736 7.55 6.01 9.54
9/17/2021 4:15:00 PM 17.32 63.176 0.737 7.55 6.29 9.56
9/17/2021 4:30:00 PM 17.32 63.176 0.738 7.54 7.55 9.52
9/17/2021 4:45:00 PM 17.33 63.194 0.739 7.55 6.01 9.5
9/17/2021 5:00:00 PM 17.33 63.194 0.741 7.54 6.7 9.45
9/17/2021 5:15:00 PM 17.32 63.176 0.743 7.54 5.57 9.37
9/17/2021 5:30:00 PM 17.29 63.122 0.743 7.53 7.03 9.29
9/17/2021 5:45:00 PM 17.26 63.068 0.742 7.53 6.45 9.24
9/17/2021 6:00:00 PM 17.2 62.96 0.739 7.52 5.98 9.18
9/17/2021 6:15:00 PM 17.15 62.87 0.738 7.52 7.36 9.13
9/17/2021 6:30:00 PM 17.1 62.78 0.738 7.51 7.14 9.07
9/17/2021 6:45:00 PM 17.07 62.726 0.738 7.51 5.31 9.02
9/17/2021 7:00:00 PM 17.04 62.672 0.739 7.51 7.86 8.98
9/17/2021 7:15:00 PM 17.03 62.654 0.739 7.5 6.16 8.95
9/17/2021 7:30:00 PM 17.01 62.618 0.741 7.5 8.01 8.92
9/17/2021 7:45:00 PM 16.98 62.564 0.744 7.49 6.94 8.88
9/17/2021 8:00:00 PM 16.94 62.492 0.745 7.5 8.35 8.83
9/17/2021 8:15:00 PM 16.9 62.42 0.747 7.49 8.91 8.79
9/17/2021 8:30:00 PM 16.86 62.348 0.749 7.49 8.35 8.75
9/17/2021 8:45:00 PM 16.81 62.258 0.751 7.48 8.26 8.71
9/17/2021 9:00:00 PM 16.77 62.186 0.752 7.48 7.24 8.68
9/17/2021 9:15:00 PM 16.73 62.114 0.754 7.47 8.22 8.66
9/17/2021 9:30:00 PM 16.69 62.042 0.756 7.46 8.23 8.63
9/17/2021 9:45:00 PM 16.65 61.97 0.758 7.47 8.17 8.6
9/17/2021 10:00:00 PM 16.61 61.898 0.76 7.46 6.93 8.59
9/17/2021 10:15:00 PM 16.57 61.826 0.761 7.46 8.85 8.58
9/17/2021 10:30:00 PM 16.52 61.736 0.762 7.46 6.37 8.56
9/17/2021 10:45:00 PM 16.47 61.646 0.761 7.45 9.31 8.57
9/17/2021 11:00:00 PM 16.42 61.556 0.76 7.45 8.43 8.58
9/17/2021 11:15:00 PM 16.37 61.466 0.76 7.45 8.05 8.57
9/17/2021 11:30:00 PM 16.33 61.394 0.759 7.45 9.41 8.58
9/17/2021 11:45:00 PM 16.28 61.304 0.759 7.45 9.74 8.59
9/18/2021 12:00:00 AM 16.24 61.232 0.758 7.44 8.87 8.59
9/18/2021 12:15:00 AM 16.2 61.16 0.758 7.45 7.08 8.6
9/18/2021 12:30:00 AM 16.16 61.088 0.758 7.44 8.01 8.61
9/18/2021 12:45:00 AM 16.13 61.034 0.759 7.44 8.59 8.61
9/18/2021 1:00:00 AM 16.1 60.98 0.758 7.44 9.12 8.62
9/18/2021 1:15:00 AM 16.07 60.926 0.756 7.44 8.99 8.63
9/18/2021 1:30:00 AM 16.04 60.872 0.755 7.44 8.38 8.63
9/18/2021 1:45:00 AM 16.02 60.836 0.754 7.44 8.89 8.63
9/18/2021 2:00:00 AM 16 60.8 0.754 7.44 7.48 8.64
9/18/2021 2:15:00 AM 15.98 60.764 0.754 7.43 6.58 8.63
9/18/2021 2:30:00 AM 15.96 60.728 0.753 7.44 6.52 8.63
9/18/2021 2:45:00 AM 15.94 60.692 0.751 7.44 8.66 8.64
9/18/2021 3:00:00 AM 15.92 60.656 0.749 7.44 10.25 8.65
9/18/2021 3:15:00 AM 15.9 60.62 0.747 7.44 9.98 8.65
9/18/2021 3:30:00 AM 15.87 60.566 0.744 7.44 10.22 8.66
9/18/2021 3:45:00 AM 15.85 60.53 0.741 7.44 8.53 8.66
9/18/2021 4:00:00 AM 15.83 60.494 0.738 7.44 9.56 8.67
9/18/2021 4:15:00 AM 15.8 60.44 0.735 7.44 9.25 8.68
9/18/2021 4:30:00 AM 15.77 60.386 0.731 7.43 10.91 8.69
9/18/2021 4:45:00 AM 15.74 60.332 0.729 7.44 10.97 8.7
9/18/2021 5:00:00 AM 15.72 60.296 0.728 7.44 8.55 8.7
9/18/2021 5:15:00 AM 15.69 60.242 0.725 7.44 9.75 8.71
9/18/2021 5:30:00 AM 15.66 60.188 0.723 7.44 10.46 8.72
9/18/2021 5:45:00 AM 15.63 60.134 0.721 7.44 11.05 8.73
9/18/2021 6:00:00 AM 15.61 60.098 0.72 7.44 9.61 8.74
9/18/2021 6:15:00 AM 15.59 60.062 0.72 7.44 10.65 8.74
9/18/2021 6:30:00 AM 15.58 60.044 0.72 7.44 8.12 8.74
9/18/2021 6:45:00 AM 15.56 60.008 0.721 7.44 8.97 8.75
9/18/2021 7:00:00 AM 15.55 59.99 0.723 7.43 7.09 8.75
9/18/2021 7:15:00 AM 15.53 59.954 0.724 7.43 8.86 8.75
9/18/2021 7:30:00 AM 15.52 59.936 0.725 7.44 5.86 8.77
9/18/2021 7:45:00 AM 15.52 59.936 0.726 7.44 7.81 8.8
9/18/2021 8:00:00 AM 15.52 59.936 0.725 7.44 5.58 8.83
9/18/2021 8:15:00 AM 15.52 59.936 0.725 7.44 6.16 8.87
9/18/2021 8:30:00 AM 15.53 59.954 0.724 7.45 5.69 8.92
9/18/2021 8:45:00 AM 15.55 59.99 0.723 7.45 6.12 9.01
9/18/2021 9:00:00 AM 15.58 60.044 0.722 7.46 4.95 9.08
9/18/2021 9:15:00 AM 15.61 60.098 0.722 7.47 5.5 9.14
9/18/2021 9:30:00 AM 15.64 60.152 0.724 7.46 5.32 9.15
9/18/2021 9:45:00 AM 15.69 60.242 0.727 7.47 4.69 9.19
9/18/2021 10:00:00 AM 15.73 60.314 0.728 7.48 4.97 9.24
9/18/2021 10:15:00 AM 15.8 60.44 0.73 7.49 4.95 9.33
9/18/2021 10:30:00 AM 15.86 60.548 0.733 7.5 4.61 9.36
9/18/2021 10:45:00 AM 15.95 60.71 0.736 7.5 5.18 9.47
9/18/2021 11:00:00 AM 16.03 60.854 0.74 7.51 5.55 9.5
9/18/2021 11:15:00 AM 16.19 61.142 0.745 7.52 5.51 9.64
9/18/2021 11:30:00 AM 16.3 61.34 0.75 7.53 5.47 9.67
9/18/2021 11:45:00 AM 16.45 61.61 0.754 7.53 4.87 9.73
9/18/2021 12:00:00 PM 16.56 61.808 0.757 7.54 4.66 9.72
9/18/2021 12:15:00 PM 16.68 62.024 0.759 7.55 4.63 9.77
9/18/2021 12:30:00 PM 16.84 62.312 0.762 7.55 4.91 9.83
9/18/2021 12:45:00 PM 16.95 62.51 0.765 7.55 5.08 9.78
9/18/2021 1:00:00 PM 17.1 62.78 0.767 7.56 4.81 9.84
9/18/2021 1:15:00 PM 17.24 63.032 0.768 7.56 5.29 9.86
9/18/2021 1:30:00 PM 17.4 63.32 0.769 7.57 5.52 9.88
9/18/2021 1:45:00 PM 17.58 63.644 0.77 7.58 5.87 9.95
9/18/2021 2:00:00 PM 17.73 63.914 0.769 7.58 5.36 10
9/18/2021 2:15:00 PM 17.81 64.058 0.768 7.59 5.86 9.93
9/18/2021 2:30:00 PM 17.9 64.22 0.768 7.59 5.32 9.93
9/18/2021 2:45:00 PM 17.97 64.346 0.768 7.59 5.48 9.91
9/18/2021 3:00:00 PM 18.04 64.472 0.768 7.59 4.83 9.9
9/18/2021 3:15:00 PM 18.11 64.598 0.768 7.59 4.92 9.86
9/18/2021 3:30:00 PM 18.13 64.634 0.767 7.58 5.24 9.73
9/18/2021 3:45:00 PM 18.1 64.58 0.767 7.58 4.91 9.62
9/18/2021 4:00:00 PM 18.08 64.544 0.766 7.57 5.44 9.58
9/18/2021 4:15:00 PM 18.05 64.49 0.765 7.57 7.58 9.51
9/18/2021 4:30:00 PM 18.07 64.526 0.764 7.57 4.36 9.49
9/18/2021 4:45:00 PM 18.08 64.544 0.763 7.57 5.51 9.45
9/18/2021 5:00:00 PM 18.07 64.526 0.761 7.56 5.88 9.4
9/18/2021 5:15:00 PM 18.02 64.436 0.762 7.56 6.6 9.33
9/18/2021 5:30:00 PM 17.98 64.364 0.763 7.56 6.64 9.26
9/18/2021 5:45:00 PM 17.93 64.274 0.761 7.55 6.97 9.2
9/18/2021 6:00:00 PM 17.86 64.148 0.76 7.54 6.99 9.11
9/18/2021 6:15:00 PM 17.78 64.004 0.761 7.53 5.62 9.04
9/18/2021 6:30:00 PM 17.72 63.896 0.76 7.53 7.85 8.98
9/18/2021 6:45:00 PM 17.67 63.806 0.76 7.53 7.19 8.94
9/18/2021 7:00:00 PM 17.62 63.716 0.76 7.52 7.5 8.9
9/18/2021 7:15:00 PM 17.57 63.626 0.76 7.51 5.18 8.85
9/18/2021 7:30:00 PM 17.51 63.518 0.761 7.52 5.3 8.81
9/18/2021 7:45:00 PM 17.46 63.428 0.762 7.51 5.52 8.75
9/18/2021 8:00:00 PM 17.39 63.302 0.762 7.53 6 8.7
9/18/2021 8:15:00 PM 17.33 63.194 0.761 7.51 6.61 8.66
9/18/2021 8:30:00 PM 17.25 63.05 0.761 7.51 7.3 8.63
9/18/2021 8:45:00 PM 17.18 62.924 0.76 7.51 8.19 8.6
9/18/2021 9:00:00 PM 17.11 62.798 0.76 7.5 8.18 8.57
9/18/2021 9:15:00 PM 17.05 62.69 0.761 7.5 8.23 8.54
9/18/2021 9:30:00 PM 16.98 62.564 0.762 7.49 8.86 8.52
9/18/2021 9:45:00 PM 16.93 62.474 0.763 7.49 6.64 8.49
9/18/2021 10:00:00 PM 16.88 62.384 0.764 7.48 7.29 8.48
9/18/2021 10:15:00 PM 16.83 62.294 0.764 7.48 9.12 8.47
9/18/2021 10:30:00 PM 16.78 62.204 0.765 7.47 6.23 8.46
9/18/2021 10:45:00 PM 16.74 62.132 0.765 7.47 6.8 8.46
9/18/2021 11:00:00 PM 16.7 62.06 0.765 7.47 7.08 8.47
9/18/2021 11:15:00 PM 16.65 61.97 0.765 7.46 7.53 8.46
9/18/2021 11:30:00 PM 16.61 61.898 0.765 7.47 8.34 8.46
9/18/2021 11:45:00 PM 16.56 61.808 0.765 7.46 7.39 8.47
9/19/2021 12:00:00 AM 16.51 61.718 0.764 7.46 8.52 8.48
9/19/2021 12:15:00 AM 16.47 61.646 0.763 7.46 8.85 8.48
9/19/2021 12:30:00 AM 16.44 61.592 0.762 7.46 7.08 8.49
9/19/2021 12:45:00 AM 16.4 61.52 0.762 7.46 8.11 8.5
9/19/2021 1:00:00 AM 16.37 61.466 0.762 7.46 7.48 8.5
9/19/2021 1:15:00 AM 16.34 61.412 0.761 7.46 7.43 8.51
9/19/2021 1:30:00 AM 16.31 61.358 0.762 7.46 7.21 8.51
9/19/2021 1:45:00 AM 16.28 61.304 0.762 7.47 6.75 8.52
9/19/2021 2:00:00 AM 16.24 61.232 0.761 7.47 7.44 8.53
9/19/2021 2:15:00 AM 16.2 61.16 0.759 7.47 6.54 8.55
9/19/2021 2:30:00 AM 16.16 61.088 0.756 7.47 7.14 8.55
9/19/2021 2:45:00 AM 16.12 61.016 0.754 7.47 7.02 8.57
9/19/2021 3:00:00 AM 16.08 60.944 0.752 7.47 8.17 8.58
9/19/2021 3:15:00 AM 16.05 60.89 0.751 7.48 9.35 8.58
9/19/2021 3:30:00 AM 16.01 60.818 0.749 7.48 10.3 8.59
9/19/2021 3:45:00 AM 15.97 60.746 0.746 7.48 9.75 8.6
9/19/2021 4:00:00 AM 15.92 60.656 0.743 7.48 8.91 8.61
9/19/2021 4:15:00 AM 15.87 60.566 0.739 7.48 8.43 8.62
9/19/2021 4:30:00 AM 15.83 60.494 0.736 7.49 8.22 8.63
9/19/2021 4:45:00 AM 15.78 60.404 0.734 7.49 8.3 8.64
9/19/2021 5:00:00 AM 15.74 60.332 0.73 7.49 9.24 8.65
9/19/2021 5:15:00 AM 15.7 60.26 0.727 7.49 8.27 8.68
9/19/2021 5:30:00 AM 15.65 60.17 0.724 7.49 8.6 8.7
9/19/2021 5:45:00 AM 15.61 60.098 0.723 7.5 8.83 8.71
9/19/2021 6:00:00 AM 15.57 60.026 0.722 7.5 10.84 8.72
9/19/2021 6:15:00 AM 15.53 59.954 0.721 7.5 8.86 8.73
9/19/2021 6:30:00 AM 15.5 59.9 0.721 7.5 8.61 8.74
9/19/2021 6:45:00 AM 15.46 59.828 0.722 7.5 8.37 8.75
9/19/2021 7:00:00 AM 15.43 59.774 0.723 7.49 7.35 8.75
9/19/2021 7:15:00 AM 15.41 59.738 0.724 7.5 6.75 8.76
9/19/2021 7:30:00 AM 15.38 59.684 0.725 7.5 7.04 8.78
9/19/2021 7:45:00 AM 15.36 59.648 0.726 7.5 5.94 8.8
9/19/2021 8:00:00 AM 15.34 59.612 0.727 7.51 5.94 8.82
9/19/2021 8:15:00 AM 15.32 59.576 0.728 7.51 5.92 8.85
9/19/2021 8:30:00 AM 15.31 59.558 0.728 7.51 5.63 8.87
9/19/2021 8:45:00 AM 15.31 59.558 0.727 7.51 5.46 8.91
9/19/2021 9:00:00 AM 15.3 59.54 0.726 7.52 6.03 8.97
9/19/2021 9:15:00 AM 15.31 59.558 0.725 7.52 5.22 9.02
9/19/2021 9:30:00 AM 15.32 59.576 0.725 7.53 5.19 9.09
9/19/2021 9:45:00 AM 15.35 59.63 0.725 7.53 5.64 9.16
9/19/2021 10:00:00 AM 15.38 59.684 0.726 7.53 4.96 9.24
9/19/2021 10:15:00 AM 15.43 59.774 0.727 7.54 5.54 9.3
9/19/2021 10:30:00 AM 15.49 59.882 0.73 7.54 6.13 9.38
9/19/2021 10:45:00 AM 15.57 60.026 0.734 7.55 5.91 9.43
9/19/2021 11:00:00 AM 15.67 60.206 0.739 7.55 5.06 9.49
9/19/2021 11:15:00 AM 15.79 60.422 0.745 7.56 5.13 9.54
9/19/2021 11:30:00 AM 15.93 60.674 0.751 7.56 5.36 9.6
9/19/2021 11:45:00 AM 16.07 60.926 0.757 7.57 5.25 9.67
9/19/2021 12:00:00 PM 16.22 61.196 0.762 7.57 5.4 9.74
9/19/2021 12:15:00 PM 16.37 61.466 0.766 7.58 5.37 9.79
9/19/2021 12:30:00 PM 16.52 61.736 0.771 7.58 5.37 9.83
9/19/2021 12:45:00 PM 16.67 62.006 0.775 7.59 5.44 9.91
9/19/2021 1:00:00 PM 16.82 62.276 0.779 7.6 5.71 9.95
9/19/2021 1:15:00 PM 16.97 62.546 0.783 7.6 5.03 9.97
9/19/2021 1:30:00 PM 17.12 62.816 0.789 7.6 5.32 10
9/19/2021 1:45:00 PM 17.27 63.086 0.797 7.6 5.25 10
9/19/2021 2:00:00 PM 17.4 63.32 0.801 7.6 5.76 9.99
9/19/2021 2:15:00 PM 17.49 63.482 0.797 7.61 5.34 9.98
9/19/2021 2:30:00 PM 17.56 63.608 0.792 7.61 5.4 9.97
9/19/2021 2:45:00 PM 17.61 63.698 0.788 7.61 5.52 9.96
9/19/2021 3:00:00 PM 17.65 63.77 0.786 7.61 5.38 9.92
9/19/2021 3:15:00 PM 17.68 63.824 0.785 7.61 5.7 9.88
9/19/2021 3:30:00 PM 17.69 63.842 0.786 7.61 4.96 9.82
9/19/2021 3:45:00 PM 17.7 63.86 0.786 7.61 5.43 9.76
9/19/2021 4:00:00 PM 17.7 63.86 0.786 7.6 5.42 9.71
9/19/2021 4:15:00 PM 17.69 63.842 0.785 7.6 5.53 9.66
9/19/2021 4:30:00 PM 17.66 63.788 0.784 7.6 5.04 9.6
9/19/2021 4:45:00 PM 17.63 63.734 0.784 7.59 5.69 9.54
9/19/2021 5:00:00 PM 17.61 63.698 0.785 7.59 5.62 9.47
9/19/2021 5:15:00 PM 17.58 63.644 0.785 7.58 5.44 9.42
9/19/2021 5:30:00 PM 17.53 63.554 0.785 7.58 5.29 9.37
9/19/2021 5:45:00 PM 17.47 63.446 0.783 7.58 6.1 9.31
9/19/2021 6:00:00 PM 17.4 63.32 0.783 7.57 5.45 9.25
9/19/2021 6:15:00 PM 17.31 63.158 0.783 7.57 5.28 9.18
9/19/2021 6:30:00 PM 17.22 62.996 0.783 7.56 5.42 9.11
9/19/2021 6:45:00 PM 17.14 62.852 0.783 7.56 5.3 9.06
9/19/2021 7:00:00 PM 17.05 62.69 0.783 7.55 5.71 9.02
9/19/2021 7:15:00 PM 16.96 62.528 0.783 7.55 5.71 8.97
9/19/2021 7:30:00 PM 16.88 62.384 0.782 7.54 6.19 8.93
9/19/2021 7:45:00 PM 16.78 62.204 0.782 7.54 6.15 8.89
9/19/2021 8:00:00 PM 16.69 62.042 0.781 7.54 6.83 8.87
9/19/2021 8:15:00 PM 16.6 61.88 0.782 7.54 6.63 8.82
9/19/2021 8:30:00 PM 16.51 61.718 0.783 7.53 7.54 8.79
9/19/2021 8:45:00 PM 16.43 61.574 0.784 7.53 7.19 8.76
9/19/2021 9:00:00 PM 16.34 61.412 0.784 7.53 7.12 8.73
9/19/2021 9:15:00 PM 16.26 61.268 0.783 7.52 7 8.71
9/19/2021 9:30:00 PM 16.18 61.124 0.783 7.53 6.87 8.71
9/19/2021 9:45:00 PM 16.1 60.98 0.782 7.52 7.46 8.7
9/19/2021 10:00:00 PM 16.03 60.854 0.783 7.52 7.35 8.69
9/19/2021 10:15:00 PM 15.96 60.728 0.785 7.52 6.72 8.68
9/19/2021 10:30:00 PM 15.91 60.638 0.787 7.51 6.81 8.67
9/19/2021 10:45:00 PM 15.85 60.53 0.787 7.52 7.61 8.67
9/19/2021 11:00:00 PM 15.79 60.422 0.788 7.51 7.02 8.67
9/19/2021 11:15:00 PM 15.74 60.332 0.789 7.51 7.02 8.68
9/19/2021 11:30:00 PM 15.7 60.26 0.79 7.51 7.21 8.68
9/19/2021 11:45:00 PM 15.66 60.188 0.793 7.51 7.26 8.7
9/20/2021 12:00:00 AM 15.62 60.116 0.795 7.51 8.26 8.69
9/20/2021 12:15:00 AM 15.59 60.062 0.796 7.51 8.12 8.7
9/20/2021 12:30:00 AM 15.55 59.99 0.795 7.51 8.26 8.71
9/20/2021 12:45:00 AM 15.5 59.9 0.793 7.51 7.3 8.72
9/20/2021 1:00:00 AM 15.45 59.81 0.791 7.51 6.75 8.73
9/20/2021 1:15:00 AM 15.41 59.738 0.79 7.51 6.75 8.74
9/20/2021 1:30:00 AM 15.37 59.666 0.788 7.51 6.99 8.74
9/20/2021 1:45:00 AM 15.32 59.576 0.784 7.51 7.22 8.75
9/20/2021 2:00:00 AM 15.27 59.486 0.779 7.51 8.01 8.77
9/20/2021 2:15:00 AM 15.21 59.378 0.776 7.51 6.47 8.79
9/20/2021 2:30:00 AM 15.17 59.306 0.772 7.52 6.81 8.8
9/20/2021 2:45:00 AM 15.11 59.198 0.768 7.52 6.54 8.82
9/20/2021 3:00:00 AM 15.06 59.108 0.763 7.52 6.64 8.84
9/20/2021 3:15:00 AM 15 59 0.759 7.52 7.58 8.85
9/20/2021 3:30:00 AM 14.95 58.91 0.755 7.52 9.07 8.87
9/20/2021 3:45:00 AM 14.89 58.802 0.751 7.52 8.59 8.88
9/20/2021 4:00:00 AM 14.84 58.712 0.747 7.52 9.83 8.89
9/20/2021 4:15:00 AM 14.79 58.622 0.744 7.53 8.64 8.91
9/20/2021 4:30:00 AM 14.74 58.532 0.742 7.52 9.63 8.91
9/20/2021 4:45:00 AM 14.7 58.46 0.739 7.53 8.28 8.92
9/20/2021 5:00:00 AM 14.66 58.388 0.737 7.53 8.95 8.92
9/20/2021 5:15:00 AM 14.61 58.298 0.735 7.53 7.44 8.94
9/20/2021 5:30:00 AM 14.57 58.226 0.733 7.52 6.95 8.96
9/20/2021 5:45:00 AM 14.53 58.154 0.732 7.53 7.02 8.97
9/20/2021 6:00:00 AM 14.49 58.082 0.731 7.53 7.1 8.99
9/20/2021 6:15:00 AM 14.45 58.01 0.728 7.53 7.27 9
9/20/2021 6:30:00 AM 14.42 57.956 0.727 7.53 6.78 9.02
9/20/2021 6:45:00 AM 14.38 57.884 0.727 7.53 6.8 9.03
9/20/2021 7:00:00 AM 14.36 57.848 0.728 7.53 6.62 9.03
9/20/2021 7:15:00 AM 14.35 57.83 0.731 7.52 5.82 9.04
9/20/2021 7:30:00 AM 14.34 57.812 0.733 7.53 6.27 9.06
9/20/2021 7:45:00 AM 14.35 57.83 0.737 7.53 5.44 9.07
9/20/2021 8:00:00 AM 14.36 57.848 0.742 7.53 5.4 9.08
9/20/2021 8:15:00 AM 14.38 57.884 0.745 7.53 5.3 9.1
9/20/2021 8:30:00 AM 14.39 57.902 0.742 7.53 5.33 9.12
9/20/2021 8:45:00 AM 14.38 57.884 0.737 7.53 6.33 9.17
9/20/2021 9:00:00 AM 14.39 57.902 0.734 7.53 5.85 9.23
9/20/2021 9:15:00 AM 14.41 57.938 0.733 7.54 5.63 9.28
9/20/2021 9:30:00 AM 14.46 58.028 0.734 7.54 5.85 9.33
9/20/2021 9:45:00 AM 14.52 58.136 0.735 7.55 6.77 9.39
9/20/2021 10:00:00 AM 14.6 58.28 0.738 7.54 5.97 9.45
9/20/2021 10:15:00 AM 14.7 58.46 0.744 7.56 5.1 9.51
9/20/2021 10:30:00 AM 14.81 58.658 0.75 7.56 5.83 9.56
9/20/2021 10:45:00 AM 14.94 58.892 0.756 7.56 4.83 9.61
9/20/2021 11:00:00 AM 15.08 59.144 0.761 7.55 5.26 9.67
9/20/2021 11:15:00 AM 15.24 59.432 0.766 7.56 5.05 9.71
9/20/2021 11:30:00 AM 15.4 59.72 0.77 7.56 4.63 9.78
9/20/2021 11:45:00 AM 15.57 60.026 0.772 7.58 4.61 9.87
9/20/2021 12:00:00 PM 15.73 60.314 0.774 7.58 6.02 9.94
9/20/2021 12:15:00 PM 15.89 60.602 0.775 7.58 5.05 10
9/20/2021 12:30:00 PM 16.04 60.872 0.775 7.59 5.37 10.04
9/20/2021 12:45:00 PM 16.19 61.142 0.775 7.6 5.59 10.09
9/20/2021 1:00:00 PM 16.31 61.358 0.775 7.6 5.34 10.08
9/20/2021 1:15:00 PM 16.48 61.664 0.775 7.61 5.05 10.18
9/20/2021 1:30:00 PM 16.61 61.898 0.775 7.6 5.18 10.19
9/20/2021 1:45:00 PM 16.74 62.132 0.774 7.63 5.21 10.24
9/20/2021 2:00:00 PM 16.86 62.348 0.774 7.62 4.86 10.25
9/20/2021 2:15:00 PM 16.96 62.528 0.774 7.63 5.19 10.23
9/20/2021 2:30:00 PM 17.05 62.69 0.774 7.63 4.69 10.22
9/20/2021 2:45:00 PM 17.13 62.834 0.773 7.63 4.47 10.2
9/20/2021 3:00:00 PM 17.19 62.942 0.772 7.63 4.77 10.18
9/20/2021 3:15:00 PM 17.22 62.996 0.772 7.63 5.68 10.12
9/20/2021 3:30:00 PM 17.23 63.014 0.771 7.63 4.89 10.06
9/20/2021 3:45:00 PM 17.25 63.05 0.77 7.63 5.46 10.01
9/20/2021 4:00:00 PM 17.25 63.05 0.769 7.62 5.21 9.96
9/20/2021 4:15:00 PM 17.25 63.05 0.77 7.62 4.62 9.89
9/20/2021 4:30:00 PM 17.27 63.086 0.774 7.62 4.73 9.84
9/20/2021 4:45:00 PM 17.29 63.122 0.781 7.61 5.93 9.8
9/20/2021 5:00:00 PM 17.33 63.194 0.787 7.61 5.32 9.77
9/20/2021 5:15:00 PM 17.34 63.212 0.79 7.61 5.74 9.71
9/20/2021 5:30:00 PM 17.33 63.194 0.793 7.6 5.34 9.63
9/20/2021 5:45:00 PM 17.3 63.14 0.795 7.6 5.55 9.55
9/20/2021 6:00:00 PM 17.25 63.05 0.796 7.59 5.17 9.47
9/20/2021 6:15:00 PM 17.18 62.924 0.798 7.58 5.12 9.38
9/20/2021 6:30:00 PM 17.12 62.816 0.8 7.57 5.19 9.31
9/20/2021 6:45:00 PM 17.07 62.726 0.8 7.57 5.22 9.25
9/20/2021 7:00:00 PM 16.99 62.582 0.799 7.56 8.41 9.19
9/20/2021 7:15:00 PM 16.92 62.456 0.798 7.56 5.43 9.14
9/20/2021 7:30:00 PM 16.85 62.33 0.799 7.55 6.34 9.08
9/20/2021 7:45:00 PM 16.78 62.204 0.801 7.55 7.29 9.04
9/20/2021 8:00:00 PM 16.7 62.06 0.802 7.54 6.64 8.99
9/20/2021 8:15:00 PM 16.62 61.916 0.804 7.54 8.79 8.93
9/20/2021 8:30:00 PM 16.53 61.754 0.806 7.53 7.65 8.87
9/20/2021 8:45:00 PM 16.45 61.61 0.808 7.53 6.92 8.82
9/20/2021 9:00:00 PM 16.37 61.466 0.809 7.52 7.63 8.78
9/20/2021 9:15:00 PM 16.29 61.322 0.81 7.52 8.3 8.76
9/20/2021 9:30:00 PM 16.22 61.196 0.812 7.51 8.54 8.75
9/20/2021 9:45:00 PM 16.15 61.07 0.814 7.52 8.57 8.72
9/20/2021 10:00:00 PM 16.08 60.944 0.815 7.51 8.28 8.7
9/20/2021 10:15:00 PM 16.02 60.836 0.816 7.51 8.68 8.68
9/20/2021 10:30:00 PM 15.95 60.71 0.816 7.51 9.07 8.68
9/20/2021 10:45:00 PM 15.89 60.602 0.817 7.51 8.57 8.67
9/20/2021 11:00:00 PM 15.84 60.512 0.819 7.51 8.84 8.68
9/20/2021 11:15:00 PM 15.79 60.422 0.821 7.51 8.3 8.68
9/20/2021 11:30:00 PM 15.75 60.35 0.823 7.51 7.59 8.68
9/20/2021 11:45:00 PM 15.71 60.278 0.825 7.51 8.38 8.68
9/21/2021 12:00:00 AM 15.67 60.206 0.826 7.5 7.21 8.69
9/21/2021 12:15:00 AM 15.63 60.134 0.826 7.51 8.62 8.7
9/21/2021 12:30:00 AM 15.59 60.062 0.827 7.5 7.03 8.71
9/21/2021 12:45:00 AM 15.55 59.99 0.827 7.51 8.15 8.71
9/21/2021 1:00:00 AM 15.51 59.918 0.824 7.51 6.94 8.73
9/21/2021 1:15:00 AM 15.45 59.81 0.818 7.51 7.31 8.74
9/21/2021 1:30:00 AM 15.39 59.702 0.811 7.51 7.49 8.74
9/21/2021 1:45:00 AM 15.33 59.594 0.804 7.51 7.87 8.76
9/21/2021 2:00:00 AM 15.27 59.486 0.8 7.51 7.46 8.77
9/21/2021 2:15:00 AM 15.22 59.396 0.796 7.52 6.36 8.79
9/21/2021 2:30:00 AM 15.17 59.306 0.793 7.52 7.27 8.81
9/21/2021 2:45:00 AM 15.13 59.234 0.789 7.52 7.48 8.82
9/21/2021 3:00:00 AM 15.08 59.144 0.785 7.52 7.5 8.83
9/21/2021 3:15:00 AM 15.04 59.072 0.782 7.52 7.95 8.84
9/21/2021 3:30:00 AM 15.01 59.018 0.78 7.52 8.65 8.86
9/21/2021 3:45:00 AM 14.98 58.964 0.779 7.52 8.71 8.86
9/21/2021 4:00:00 AM 14.95 58.91 0.776 7.52 8.52 8.86
9/21/2021 4:15:00 AM 14.91 58.838 0.772 7.52 7.08 8.87
9/21/2021 4:30:00 AM 14.87 58.766 0.768 7.53 7.53 8.89
9/21/2021 4:45:00 AM 14.82 58.676 0.764 7.53 8.54 8.9
9/21/2021 5:00:00 AM 14.78 58.604 0.761 7.53 8.57 8.91
9/21/2021 5:15:00 AM 14.74 58.532 0.759 7.53 9.42 8.92
9/21/2021 5:30:00 AM 14.71 58.478 0.757 7.53 8.53 8.93
9/21/2021 5:45:00 AM 14.67 58.406 0.753 7.53 10.4 8.93
9/21/2021 6:00:00 AM 14.64 58.352 0.75 7.53 8.24 8.95
9/21/2021 6:15:00 AM 14.61 58.298 0.747 7.53 8.07 8.97
9/21/2021 6:30:00 AM 14.59 58.262 0.746 7.53 7.98 8.98
9/21/2021 6:45:00 AM 14.57 58.226 0.745 7.53 8.2 8.98
9/21/2021 7:00:00 AM 14.56 58.208 0.746 7.53 8.06 8.99
9/21/2021 7:15:00 AM 14.55 58.19 0.747 7.52 8.15 9
9/21/2021 7:30:00 AM 14.55 58.19 0.748 7.53 7.93 9.02
9/21/2021 7:45:00 AM 14.56 58.208 0.75 7.53 7.13 9.04
9/21/2021 8:00:00 AM 14.57 58.226 0.751 7.53 7.68 9.06
9/21/2021 8:15:00 AM 14.58 58.244 0.752 7.53 6.71 9.11
9/21/2021 8:30:00 AM 14.59 58.262 0.752 7.54 5.29 9.14
9/21/2021 8:45:00 AM 14.62 58.316 0.752 7.54 6.57 9.2
9/21/2021 9:00:00 AM 14.66 58.388 0.752 7.54 5.91 9.27
9/21/2021 9:15:00 AM 14.7 58.46 0.751 7.55 5.74 9.34
9/21/2021 9:30:00 AM 14.75 58.55 0.752 7.55 7.59 9.41
9/21/2021 9:45:00 AM 14.8 58.64 0.755 7.55 6.5 9.45
9/21/2021 10:00:00 AM 14.89 58.802 0.759 7.55 3.88 9.51
9/21/2021 10:15:00 AM 14.98 58.964 0.765 7.56 4.15 9.59
9/21/2021 10:30:00 AM 15.1 59.18 0.771 7.57 3.95 9.67
9/21/2021 10:45:00 AM 15.23 59.414 0.779 7.57 3.83 9.76
9/21/2021 11:00:00 AM 15.36 59.648 0.786 7.58 3.9 9.83
9/21/2021 11:15:00 AM 15.5 59.9 0.793 7.59 4.07 9.92
9/21/2021 11:30:00 AM 15.67 60.206 0.799 7.6 3.37 10.02
9/21/2021 11:45:00 AM 15.8 60.44 0.803 7.6 3.71 10.06
9/21/2021 12:00:00 PM 15.91 60.638 0.805 7.61 3.63 10.08
9/21/2021 12:15:00 PM 16.01 60.818 0.803 7.61 4.23 10.14
9/21/2021 12:30:00 PM 16.09 60.962 0.801 7.62 3.45 10.23
9/21/2021 12:45:00 PM 16.21 61.178 0.805 7.63 3.96 10.28
9/21/2021 1:00:00 PM 16.37 61.466 0.814 7.63 3.69 10.32
9/21/2021 1:15:00 PM 16.5 61.7 0.82 7.64 4.01 10.29
9/21/2021 1:30:00 PM 16.57 61.826 0.818 7.64 3.57 10.29
9/21/2021 1:45:00 PM 16.63 61.934 0.813 7.64 3.94 10.32
9/21/2021 2:00:00 PM 16.69 62.042 0.808 7.65 3.64 10.34
9/21/2021 2:15:00 PM 16.76 62.168 0.806 7.66 3.81 10.37
9/21/2021 2:30:00 PM 16.81 62.258 0.805 7.66 3.85 10.33
9/21/2021 2:45:00 PM 16.85 62.33 0.806 7.65 3.62 10.25
9/21/2021 3:00:00 PM 16.89 62.402 0.812 7.65 3.86 10.22
9/21/2021 3:15:00 PM 16.92 62.456 0.819 7.65 3.73 10.15
9/21/2021 3:30:00 PM 16.97 62.546 0.827 7.64 3.8 10.09
9/21/2021 3:45:00 PM 17.04 62.672 0.832 7.64 3.52 10.09
9/21/2021 4:00:00 PM 17.12 62.816 0.836 7.64 3.53 10.1
9/21/2021 4:15:00 PM 17.16 62.888 0.839 7.64 3.46 10
9/21/2021 4:30:00 PM 17.25 63.05 0.839 7.64 3.65 10.04
9/21/2021 4:45:00 PM 17.27 63.086 0.84 7.64 3.48 9.98
9/21/2021 5:00:00 PM 17.28 63.104 0.842 7.63 3.39 9.92
9/21/2021 5:15:00 PM 17.28 63.104 0.843 7.63 3.77 9.83
9/21/2021 5:30:00 PM 17.24 63.032 0.843 7.62 3.67 9.72
9/21/2021 5:45:00 PM 17.19 62.942 0.839 7.61 3.44 9.63
9/21/2021 6:00:00 PM 17.13 62.834 0.833 7.6 3.58 9.52
9/21/2021 6:15:00 PM 17.06 62.708 0.828 7.59 3.9 9.43
9/21/2021 6:30:00 PM 17.02 62.636 0.826 7.59 3.75 9.37
9/21/2021 6:45:00 PM 16.98 62.564 0.824 7.58 3.86 9.33
9/21/2021 7:00:00 PM 16.95 62.51 0.823 7.58 3.53 9.3
9/21/2021 7:15:00 PM 16.9 62.42 0.821 7.58 3.87 9.22
9/21/2021 7:30:00 PM 16.84 62.312 0.821 7.57 3.87 9.16
9/21/2021 7:45:00 PM 16.78 62.204 0.823 7.56 4.62 9.09
9/21/2021 8:00:00 PM 16.71 62.078 0.824 7.55 4.82 9.01
9/21/2021 8:15:00 PM 16.64 61.952 0.825 7.55 5.19 8.94
9/21/2021 8:30:00 PM 16.57 61.826 0.827 7.54 6.7 8.86
9/21/2021 8:45:00 PM 16.5 61.7 0.83 7.53 5.55 8.81
9/21/2021 9:00:00 PM 16.44 61.592 0.833 7.52 6 8.75
9/21/2021 9:15:00 PM 16.39 61.502 0.832 7.52 7.46 8.71
9/21/2021 9:30:00 PM 16.32 61.376 0.827 7.51 6.51 8.68
9/21/2021 9:45:00 PM 16.25 61.25 0.822 7.51 5.87 8.66
9/21/2021 10:00:00 PM 16.18 61.124 0.82 7.51 5.89 8.65
9/21/2021 10:15:00 PM 16.13 61.034 0.82 7.5 6.05 8.64
9/21/2021 10:30:00 PM 16.08 60.944 0.821 7.5 5.9 8.63
9/21/2021 10:45:00 PM 16.03 60.854 0.821 7.5 5.61 8.63
9/21/2021 11:00:00 PM 15.99 60.782 0.821 7.5 5.64 8.63
9/21/2021 11:15:00 PM 15.95 60.71 0.822 7.49 5.89 8.62
9/21/2021 11:30:00 PM 15.91 60.638 0.823 7.49 5.66 8.63
9/21/2021 11:45:00 PM 15.88 60.584 0.824 7.49 5.34 8.63
9/22/2021 12:00:00 AM 15.85 60.53 0.826 7.49 5.26 8.62
9/22/2021 12:15:00 AM 15.83 60.494 0.827 7.49 5.15 8.62
9/22/2021 12:30:00 AM 15.81 60.458 0.827 7.49 5.25 8.62
9/22/2021 12:45:00 AM 15.8 60.44 0.828 7.48 4.92 8.63
9/22/2021 1:00:00 AM 15.78 60.404 0.827 7.48 5.17 8.63
9/22/2021 1:15:00 AM 15.76 60.368 0.826 7.48 5.37 8.63
9/22/2021 1:30:00 AM 15.75 60.35 0.825 7.48 5.38 8.63
9/22/2021 1:45:00 AM 15.73 60.314 0.824 7.48 5.58 8.63
9/22/2021 2:00:00 AM 15.71 60.278 0.822 7.48 5.27 8.64
9/22/2021 2:15:00 AM 15.69 60.242 0.818 7.48 5.54 8.64
9/22/2021 2:30:00 AM 15.66 60.188 0.815 7.48 5.54 8.65
9/22/2021 2:45:00 AM 15.63 60.134 0.812 7.48 5.24 8.65
9/22/2021 3:00:00 AM 15.61 60.098 0.808 7.48 6.12 8.66
9/22/2021 3:15:00 AM 15.58 60.044 0.802 7.48 7.81 8.67
9/22/2021 3:30:00 AM 15.55 59.99 0.796 7.48 6.11 8.68
9/22/2021 3:45:00 AM 15.51 59.918 0.791 7.48 6.38 8.69
9/22/2021 4:00:00 AM 15.49 59.882 0.788 7.48 6.19 8.7
9/22/2021 4:15:00 AM 15.46 59.828 0.785 7.48 5.69 8.71
9/22/2021 4:30:00 AM 15.44 59.792 0.78 7.48 5.7 8.72
9/22/2021 4:45:00 AM 15.41 59.738 0.777 7.48 6.43 8.72
9/22/2021 5:00:00 AM 15.39 59.702 0.774 7.48 5.95 8.73
9/22/2021 5:15:00 AM 15.37 59.666 0.771 7.48 6.41 8.74
9/22/2021 5:30:00 AM 15.34 59.612 0.768 7.48 6.06 8.74
9/22/2021 5:45:00 AM 15.33 59.594 0.766 7.47 6.38 8.74
9/22/2021 6:00:00 AM 15.33 59.594 0.765 7.48 7.22 8.75
9/22/2021 6:15:00 AM 15.33 59.594 0.765 7.48 6.31 8.75
9/22/2021 6:30:00 AM 15.32 59.576 0.765 7.48 5.86 8.75
9/22/2021 6:45:00 AM 15.33 59.594 0.765 7.48 6.06 8.75
9/22/2021 7:00:00 AM 15.33 59.594 0.766 7.48 5.84 8.75
9/22/2021 7:15:00 AM 15.35 59.63 0.767 7.49 5.27 8.75
9/22/2021 7:30:00 AM 15.35 59.63 0.767 7.49 5.15 8.76
9/22/2021 7:45:00 AM 15.36 59.648 0.768 7.48 4.71 8.77
9/22/2021 8:00:00 AM 15.37 59.666 0.769 7.49 4.59 8.79
9/22/2021 8:15:00 AM 15.39 59.702 0.769 7.49 4.07 8.8
9/22/2021 8:30:00 AM 15.41 59.738 0.769 7.49 4.01 8.85
9/22/2021 8:45:00 AM 15.43 59.774 0.768 7.49 3.89 8.88
9/22/2021 9:00:00 AM 15.46 59.828 0.767 7.5 3.64 8.93
9/22/2021 9:15:00 AM 15.5 59.9 0.768 7.5 3.73 8.98
9/22/2021 9:30:00 AM 15.55 59.99 0.768 7.51 3.55 9.03
9/22/2021 9:45:00 AM 15.61 60.098 0.769 7.52 3.47 9.13
9/22/2021 10:00:00 AM 15.68 60.224 0.771 7.53 3.6 9.15
9/22/2021 10:15:00 AM 15.76 60.368 0.776 7.53 3.39 9.18
9/22/2021 10:30:00 AM 15.82 60.476 0.784 7.53 3.82 9.14
9/22/2021 10:45:00 AM 15.9 60.62 0.796 7.53 3.26 9.13
9/22/2021 11:00:00 AM 15.99 60.782 0.809 7.53 3.31 9.13
9/22/2021 11:15:00 AM 16.1 60.98 0.819 7.54 3.29 9.19
9/22/2021 11:30:00 AM 16.21 61.178 0.824 7.54 3.08 9.29
9/22/2021 11:45:00 AM 16.32 61.376 0.827 7.56 3.23 9.44
9/22/2021 12:00:00 PM 16.42 61.556 0.829 7.57 3.28 9.47
9/22/2021 12:15:00 PM 16.51 61.718 0.832 7.57 3.15 9.5
9/22/2021 12:30:00 PM 16.58 61.844 0.837 7.57 3.17 9.49
9/22/2021 12:45:00 PM 16.66 61.988 0.84 7.57 3.05 9.53
9/22/2021 1:00:00 PM 16.74 62.132 0.841 7.58 3.25 9.57
9/22/2021 1:15:00 PM 16.8 62.24 0.836 7.57 3.03 9.56
9/22/2021 1:30:00 PM 16.84 62.312 0.829 7.57 3.17 9.56
9/22/2021 1:45:00 PM 16.89 62.402 0.823 7.56 3.32 9.59
9/22/2021 2:00:00 PM 16.93 62.474 0.82 7.55 3.32 9.5
9/22/2021 2:15:00 PM 16.99 62.582 0.818 7.55 3.31 9.56
9/22/2021 2:30:00 PM 17.03 62.654 0.818 7.54 3.25 9.52
9/22/2021 2:45:00 PM 17.05 62.69 0.82 7.54 3.43 9.45
9/22/2021 3:00:00 PM 17.08 62.744 0.821 7.53 3.41 9.44
9/22/2021 3:15:00 PM 17.09 62.762 0.82 7.54 3.29 9.42
9/22/2021 3:30:00 PM 17.09 62.762 0.818 7.54 3.44 9.44
9/22/2021 3:45:00 PM 17.09 62.762 0.816 7.54 3.65 9.43
9/22/2021 4:00:00 PM 17.1 62.78 0.815 7.54 3.91 9.41
9/22/2021 4:15:00 PM 17.1 62.78 0.817 7.54 3.59 9.35
9/22/2021 4:30:00 PM 17.11 62.798 0.819 7.54 3.96 9.32
9/22/2021 4:45:00 PM 17.12 62.816 0.824 7.54 3.57 9.27
9/22/2021 5:00:00 PM 17.15 62.87 0.829 7.54 3.32 9.24
9/22/2021 5:15:00 PM 17.17 62.906 0.833 7.53 3.47 9.13
9/22/2021 5:30:00 PM 17.18 62.924 0.837 7.52 3.23 9.03
9/22/2021 5:45:00 PM 17.18 62.924 0.84 7.52 3.45 8.94
9/22/2021 6:00:00 PM 17.17 62.906 0.842 7.51 3.85 8.85
9/22/2021 6:15:00 PM 17.18 62.924 0.841 7.51 3.48 8.82
9/22/2021 6:30:00 PM 17.16 62.888 0.841 7.51 3.81 8.78
9/22/2021 6:45:00 PM 17.15 62.87 0.839 7.51 3.69 8.75
9/22/2021 7:00:00 PM 17.12 62.816 0.837 7.5 3.77 8.71
9/22/2021 7:15:00 PM 17.1 62.78 0.835 7.5 3.86 8.66
9/22/2021 7:30:00 PM 17.08 62.744 0.833 7.49 4.07 8.61
9/22/2021 7:45:00 PM 17.06 62.708 0.83 7.5 4.68 8.59
9/22/2021 8:00:00 PM 17.02 62.636 0.826 7.5 4.79 8.55
9/22/2021 8:15:00 PM 16.98 62.564 0.82 7.5 4.9 8.52
9/22/2021 8:30:00 PM 16.93 62.474 0.813 7.5 5.61 8.5
9/22/2021 8:45:00 PM 16.88 62.384 0.81 7.5 4.9 8.47
9/22/2021 9:00:00 PM 16.84 62.312 0.808 7.5 4.91 8.45
9/22/2021 9:15:00 PM 16.81 62.258 0.809 7.49 5.14 8.45
9/22/2021 9:30:00 PM 16.78 62.204 0.81 7.49 5.25 8.41
9/22/2021 9:45:00 PM 16.76 62.168 0.813 7.49 5.78 8.38
9/22/2021 10:00:00 PM 16.75 62.15 0.816 7.49 5.53 8.38
9/22/2021 10:15:00 PM 16.75 62.15 0.818 7.49 5.28 8.36
9/22/2021 10:30:00 PM 16.75 62.15 0.821 7.49 5.74 8.35
9/22/2021 10:45:00 PM 16.75 62.15 0.825 7.49 5.99 8.33
9/22/2021 11:00:00 PM 16.75 62.15 0.827 7.49 6.12 8.33
9/22/2021 11:15:00 PM 16.75 62.15 0.829 7.49 6.99 8.33
9/22/2021 11:30:00 PM 16.76 62.168 0.831 7.49 7 8.32
9/22/2021 11:45:00 PM 16.75 62.15 0.832 7.49 5.82 8.33
9/23/2021 12:00:00 AM 16.76 62.168 0.833 7.49 5.81 8.31
9/23/2021 12:15:00 AM 16.76 62.168 0.835 7.5 5.6 8.31
9/23/2021 12:30:00 AM 16.77 62.186 0.836 7.5 5.6 8.32
9/23/2021 12:45:00 AM 16.78 62.204 0.835 7.5 5.92 8.32
9/23/2021 1:00:00 AM 16.78 62.204 0.834 7.5 5.59 8.32
9/23/2021 1:15:00 AM 16.77 62.186 0.832 7.5 5.59 8.32
9/23/2021 1:30:00 AM 16.76 62.168 0.83 7.5 5.9 8.32
9/23/2021 1:45:00 AM 16.75 62.15 0.829 7.5 5.77 8.32
9/23/2021 2:00:00 AM 16.74 62.132 0.826 7.5 5.48 8.31
9/23/2021 2:15:00 AM 16.74 62.132 0.822 7.5 5.5 8.32
9/23/2021 2:30:00 AM 16.73 62.114 0.818 7.51 5.68 8.33
9/23/2021 2:45:00 AM 16.71 62.078 0.813 7.51 5.49 8.33
9/23/2021 3:00:00 AM 16.7 62.06 0.809 7.51 5.84 8.33
9/23/2021 3:15:00 AM 16.69 62.042 0.805 7.51 5.6 8.34
9/23/2021 3:30:00 AM 16.67 62.006 0.801 7.51 5.66 8.33
9/23/2021 3:45:00 AM 16.66 61.988 0.796 7.51 6.12 8.36
9/23/2021 4:00:00 AM 16.64 61.952 0.792 7.51 6.38 8.36
9/23/2021 4:15:00 AM 16.63 61.934 0.787 7.51 6.41 8.35
9/23/2021 4:30:00 AM 16.62 61.916 0.783 7.51 6.07 8.35
9/23/2021 4:45:00 AM 16.61 61.898 0.778 7.51 6.53 8.36
9/23/2021 5:00:00 AM 16.6 61.88 0.774 7.52 6.1 8.38
9/23/2021 5:15:00 AM 16.59 61.862 0.771 7.51 7.37 8.36
9/23/2021 5:30:00 AM 16.58 61.844 0.767 7.52 7.22 8.38
9/23/2021 5:45:00 AM 16.58 61.844 0.765 7.52 7.94 8.37
9/23/2021 6:00:00 AM 16.57 61.826 0.765 7.52 9.19 8.35
9/23/2021 6:15:00 AM 16.57 61.826 0.762 7.52 9.4 8.38
9/23/2021 6:30:00 AM 16.57 61.826 0.761 7.52 7.7 8.37
9/23/2021 6:45:00 AM 16.57 61.826 0.761 7.52 7.03 8.36
9/23/2021 7:00:00 AM 16.58 61.844 0.762 7.53 7.04 8.35
9/23/2021 7:15:00 AM 16.6 61.88 0.763 7.52 5.99 8.35
9/23/2021 7:30:00 AM 16.63 61.934 0.764 7.52 5.78 8.36
9/23/2021 7:45:00 AM 16.67 62.006 0.764 7.52 5.59 8.37
9/23/2021 8:00:00 AM 16.69 62.042 0.766 7.52 5.4 8.38
9/23/2021 8:15:00 AM 16.72 62.096 0.767 7.52 4.45 8.38
9/23/2021 8:30:00 AM 16.69 62.042 0.768 7.52 4.86 8.39
9/23/2021 8:45:00 AM 16.66 61.988 0.764 7.52 5.3 8.38
9/23/2021 9:00:00 AM 16.64 61.952 0.752 7.52 9.1 8.4
9/23/2021 9:15:00 AM 16.76 62.168 0.705 7.51 18.99 8.4
9/23/2021 9:30:00 AM 16.69 62.042 0.701 7.51 18.43 8.43
9/23/2021 9:45:00 AM 16.63 61.934 0.703 7.5 20.7 8.43
9/23/2021 10:00:00 AM 16.64 61.952 0.68 7.49 34.49 8.5
9/23/2021 10:15:00 AM 16.63 61.934 0.687 7.47 76.14 8.54
9/23/2021 10:30:00 AM 16.73 62.114 0.672 7.43 87.67 8.51
9/23/2021 10:45:00 AM 16.7 62.06 0.636 7.38 99.13 8.47
9/23/2021 11:00:00 AM 16.79 62.222 0.509 7.26 106.09 8.37
9/23/2021 11:15:00 AM 17.23 63.014 0.35 7.15 101.74 8.36
9/23/2021 11:30:00 AM 17.49 63.482 0.271 7.07 111.12 8.36
9/23/2021 11:45:00 AM 17.59 63.662 0.249 7.04 73.3 8.35
9/23/2021 12:00:00 PM 17.6 63.68 0.24 7.02 79.31 8.33
9/23/2021 12:15:00 PM 17.63 63.734 0.236 7.02 91.78 8.29
9/23/2021 12:30:00 PM 17.67 63.806 0.236 7.01 72.25 8.23
9/23/2021 12:45:00 PM 17.69 63.842 0.238 6.99 69.81 8.17
9/23/2021 1:00:00 PM 17.72 63.896 0.237 7 62.92 8.14
9/23/2021 1:15:00 PM 17.74 63.932 0.235 7.02 3085.95 8.13
9/23/2021 1:30:00 PM 17.75 63.95 0.236 6.95 57.6 8.11
9/23/2021 1:45:00 PM 17.75 63.95 0.243 6.96 51.54 8.07
9/23/2021 2:00:00 PM 17.76 63.968 0.253 7.04 51.78 8.04
9/23/2021 2:15:00 PM 17.79 64.022 0.263 7.09 46.88 8.01
9/23/2021 2:30:00 PM 17.81 64.058 0.274 7.09 45.46 7.97
9/23/2021 2:45:00 PM 17.82 64.076 0.283 7.07 42.63 7.95
9/23/2021 3:00:00 PM 17.84 64.112 0.292 7.04 44.38 7.94
9/23/2021 3:15:00 PM 17.86 64.148 0.301 7.04 42.15 7.93
9/23/2021 3:30:00 PM 17.89 64.202 0.309 7.05 40.66 7.93
9/23/2021 3:45:00 PM 17.91 64.238 0.318 7.06 40.69 7.92
9/23/2021 4:00:00 PM -99999.99 -179968 -99999.99 -99999.99 -99999.99 -99999.99
9/23/2021 4:15:00 PM 17.98 64.364 0.332 7.14 43.5 7.91
9/23/2021 4:30:00 PM 17.99 64.382 0.34 7.14 48.71 7.88
9/23/2021 4:45:00 PM 17.98 64.364 0.345 7.09 56.22 7.86
9/23/2021 5:00:00 PM 17.97 64.346 0.352 7.1 47.63 7.85
9/23/2021 5:15:00 PM 17.97 64.346 0.359 7.08 57.28 7.84
9/23/2021 5:30:00 PM 17.98 64.364 0.367 7.05 50.9 7.85
9/23/2021 5:45:00 PM 17.98 64.364 0.375 7.04 49.77 7.85
9/23/2021 6:00:00 PM 17.97 64.346 0.381 7.04 55.96 7.85
9/23/2021 6:15:00 PM 17.93 64.274 0.387 7.04 50.96 7.85
9/23/2021 6:30:00 PM 17.88 64.184 0.396 7.05 52.31 7.86
9/23/2021 6:45:00 PM 17.84 64.112 0.406 7.06 51.14 7.87
9/23/2021 7:00:00 PM 17.79 64.022 0.416 7.08 48.71 7.88
9/23/2021 7:15:00 PM 17.74 63.932 0.427 7.15 46.74 7.9
9/23/2021 7:30:00 PM 17.7 63.86 0.437 7.09 44.36 7.91
9/23/2021 7:45:00 PM 17.65 63.77 0.45 7.11 41.18 7.92
9/23/2021 8:00:00 PM 17.59 63.662 0.462 7.13 41.15 7.93
9/23/2021 8:15:00 PM 17.51 63.518 0.473 7.14 38.43 7.95
9/23/2021 8:30:00 PM 17.42 63.356 0.483 7.16 36.47 7.97
9/23/2021 8:45:00 PM 17.34 63.212 0.492 7.16 34.72 7.99
9/23/2021 9:00:00 PM 17.25 63.05 0.502 7.16 34.09 8.02
9/23/2021 9:15:00 PM 17.16 62.888 0.511 7.2 31.31 8.03
9/23/2021 9:30:00 PM 17.08 62.744 0.519 7.2 29.28 8.06
9/23/2021 9:45:00 PM 16.99 62.582 0.527 7.2 27.48 8.09
9/23/2021 10:00:00 PM 16.9 62.42 0.535 7.2 26.33 8.11
9/23/2021 10:15:00 PM 16.81 62.258 0.543 7.21 25.09 8.14
9/23/2021 10:30:00 PM 16.73 62.114 0.552 7.22 23.61 8.16
9/23/2021 10:45:00 PM 16.65 61.97 0.559 7.24 22.15 8.19
9/23/2021 11:00:00 PM 16.56 61.808 0.565 7.26 21.3 8.22
9/23/2021 11:15:00 PM 16.47 61.646 0.57 7.28 19.25 8.25
9/23/2021 11:30:00 PM 16.38 61.484 0.576 7.27 19.21 8.29
9/23/2021 11:45:00 PM 16.29 61.322 0.581 7.28 18.94 8.31
9/24/2021 12:00:00 AM 16.21 61.178 0.587 7.28 17.8 8.34
9/24/2021 12:15:00 AM 16.13 61.034 0.59 7.3 16.83 8.37
9/24/2021 12:30:00 AM 16.06 60.908 0.592 7.3 16.33 8.39
9/24/2021 12:45:00 AM 15.99 60.782 0.595 7.29 15.95 8.42
9/24/2021 1:00:00 AM 15.92 60.656 0.598 7.3 15.5 8.44
9/24/2021 1:15:00 AM 15.85 60.53 0.6 7.3 14.6 8.46
9/24/2021 1:30:00 AM 15.78 60.404 0.602 7.33 14.75 8.48
9/24/2021 1:45:00 AM 15.71 60.278 0.604 7.32 14.07 8.5
9/24/2021 2:00:00 AM 15.64 60.152 0.605 7.32 13.81 8.52
9/24/2021 2:15:00 AM 15.57 60.026 0.606 7.34 12.6 8.54
9/24/2021 2:30:00 AM 15.51 59.918 0.607 7.34 12.58 8.55
9/24/2021 2:45:00 AM 15.44 59.792 0.608 7.35 13.03 8.59
9/24/2021 3:00:00 AM 15.37 59.666 0.608 7.35 12.01 8.61
9/24/2021 3:15:00 AM 15.3 59.54 0.609 7.35 12.14 8.63
9/24/2021 3:30:00 AM 15.24 59.432 0.61 7.36 11.42 8.65
9/24/2021 3:45:00 AM 15.18 59.324 0.61 7.36 11.21 8.67
9/24/2021 4:00:00 AM 15.12 59.216 0.611 7.36 10.73 8.69
9/24/2021 4:15:00 AM 15.05 59.09 0.611 7.37 12.1 8.7
9/24/2021 4:30:00 AM 15 59 0.613 7.36 12.13 8.71
9/24/2021 4:45:00 AM 14.94 58.892 0.614 7.38 11.39 8.73
9/24/2021 5:00:00 AM 14.89 58.802 0.615 7.38 10.7 8.75
9/24/2021 5:15:00 AM 14.84 58.712 0.616 7.38 10.7 8.77
9/24/2021 5:30:00 AM 14.79 58.622 0.617 7.38 10.61 8.79
9/24/2021 5:45:00 AM 14.74 58.532 0.617 7.39 10.06 8.81
9/24/2021 6:00:00 AM 14.69 58.442 0.619 7.39 9.96 8.83
9/24/2021 6:15:00 AM 14.65 58.37 0.62 7.39 9.91 8.84
9/24/2021 6:30:00 AM 14.61 58.298 0.622 7.39 10.16 8.85
9/24/2021 6:45:00 AM 14.57 58.226 0.624 7.39 9.25 8.86
9/24/2021 7:00:00 AM 14.54 58.172 0.626 7.39 9.47 8.87
9/24/2021 7:15:00 AM 14.5 58.1 0.626 7.39 8.69 8.89
9/24/2021 7:30:00 AM 14.46 58.028 0.628 7.4 8.51 8.9
9/24/2021 7:45:00 AM 14.43 57.974 0.629 7.42 7.8 8.92
9/24/2021 8:00:00 AM 14.4 57.92 0.629 7.41 7.56 8.94
9/24/2021 8:15:00 AM 14.38 57.884 0.629 7.41 7.22 8.97
9/24/2021 8:30:00 AM 14.37 57.866 0.63 7.41 6.71 9
9/24/2021 8:45:00 AM 14.36 57.848 0.631 7.41 6.69 9.02
9/24/2021 9:00:00 AM 14.37 57.866 0.633 7.41 6.71 9.06
9/24/2021 9:15:00 AM 14.39 57.902 0.635 7.42 6.37 9.09
9/24/2021 9:30:00 AM 14.42 57.956 0.637 7.42 6.62 9.13
9/24/2021 9:45:00 AM 14.47 58.046 0.64 7.42 6.14 9.17
9/24/2021 10:00:00 AM 14.54 58.172 0.644 7.42 6.36 9.22
9/24/2021 10:15:00 AM 14.62 58.316 0.647 7.43 6.08 9.27
9/24/2021 10:30:00 AM 14.7 58.46 0.65 7.43 6.33 9.31
9/24/2021 10:45:00 AM 14.79 58.622 0.653 7.43 6.78 9.35
9/24/2021 11:00:00 AM 14.89 58.802 0.654 7.44 6.25 9.38
9/24/2021 11:15:00 AM 15 59 0.655 7.44 6 9.42
9/24/2021 11:30:00 AM 15.12 59.216 0.659 7.44 6.06 9.46
9/24/2021 11:45:00 AM 15.26 59.468 0.662 7.45 6.5 9.5
9/24/2021 12:00:00 PM 15.39 59.702 0.664 7.45 6.13 9.54
9/24/2021 12:15:00 PM 15.51 59.918 0.664 7.46 6.26 9.57
9/24/2021 12:30:00 PM 15.62 60.116 0.662 7.46 6.14 9.6
9/24/2021 12:45:00 PM 15.71 60.278 0.66 7.47 6.17 9.63
9/24/2021 1:00:00 PM 15.8 60.44 0.659 7.47 6.47 9.64
9/24/2021 1:15:00 PM 15.9 60.62 0.66 7.47 6.52 9.66
9/24/2021 1:30:00 PM 15.99 60.782 0.663 7.48 6.16 9.67
9/24/2021 1:45:00 PM 16.08 60.944 0.665 7.48 6.4 9.66
9/24/2021 2:00:00 PM 16.17 61.106 0.667 7.47 6.84 9.65
9/24/2021 2:15:00 PM 16.25 61.25 0.667 7.48 6.32 9.64
9/24/2021 2:30:00 PM 16.31 61.358 0.668 7.48 7.61 9.63
9/24/2021 2:45:00 PM 16.36 61.448 0.669 7.49 6.02 9.61
9/24/2021 3:00:00 PM 16.42 61.556 0.672 7.48 6.31 9.58
9/24/2021 3:15:00 PM 16.46 61.628 0.673 7.49 7.11 9.55
9/24/2021 3:30:00 PM 16.48 61.664 0.673 7.48 6.45 9.51
9/24/2021 3:45:00 PM 16.5 61.7 0.673 7.48 6.36 9.47
9/24/2021 4:00:00 PM 16.51 61.718 0.675 7.48 6.42 9.43
9/24/2021 4:15:00 PM 16.51 61.718 0.678 7.48 6.27 9.39
9/24/2021 4:30:00 PM 16.52 61.736 0.682 7.48 6.43 9.34
9/24/2021 4:45:00 PM 16.53 61.754 0.685 7.47 6.55 9.29
9/24/2021 5:00:00 PM 16.53 61.754 0.688 7.47 6.24 9.25
9/24/2021 5:15:00 PM 16.51 61.718 0.69 7.47 6.44 9.21
9/24/2021 5:30:00 PM 16.48 61.664 0.691 7.46 6.32 9.17
9/24/2021 5:45:00 PM 16.43 61.574 0.691 7.46 6.59 9.12
9/24/2021 6:00:00 PM 16.38 61.484 0.691 7.46 6.46 9.08
9/24/2021 6:15:00 PM 16.33 61.394 0.692 7.46 6.46 9.03
9/24/2021 6:30:00 PM 16.27 61.286 0.694 7.45 6.72 8.99
9/24/2021 6:45:00 PM 16.23 61.214 0.696 7.47 6.69 8.96
9/24/2021 7:00:00 PM 16.17 61.106 0.697 7.46 7.14 8.93
9/24/2021 7:15:00 PM 16.12 61.016 0.699 7.45 7.04 8.9
9/24/2021 7:30:00 PM 16.06 60.908 0.7 7.45 7.31 8.88
9/24/2021 7:45:00 PM 16 60.8 0.702 7.45 7.76 8.85
9/24/2021 8:00:00 PM 15.95 60.71 0.704 7.45 8.47 8.83
9/24/2021 8:15:00 PM 15.89 60.602 0.706 7.44 8.65 8.8
9/24/2021 8:30:00 PM 15.84 60.512 0.708 7.45 9 8.8
9/24/2021 8:45:00 PM 15.78 60.404 0.709 7.44 9.18 8.78
9/24/2021 9:00:00 PM 15.73 60.314 0.711 7.45 9.67 8.77
9/24/2021 9:15:00 PM 15.68 60.224 0.712 7.44 9.62 8.76
9/24/2021 9:30:00 PM 15.63 60.134 0.713 7.44 9.44 8.75
9/24/2021 9:45:00 PM 15.58 60.044 0.714 7.43 9.8 8.75
9/24/2021 10:00:00 PM 15.53 59.954 0.715 7.43 9.57 8.75
9/24/2021 10:15:00 PM 15.48 59.864 0.716 7.43 10.34 8.75
9/24/2021 10:30:00 PM 15.43 59.774 0.716 7.44 9.85 8.76
9/24/2021 10:45:00 PM 15.37 59.666 0.716 7.44 10.07 8.77
9/24/2021 11:00:00 PM 15.32 59.576 0.715 7.44 10.93 8.78
9/24/2021 11:15:00 PM 15.26 59.468 0.713 7.44 10.47 8.79
9/24/2021 11:30:00 PM 15.2 59.36 0.711 7.44 9.97 8.8
9/24/2021 11:45:00 PM 15.15 59.27 0.71 7.45 10.38 8.81
9/25/2021 12:00:00 AM 15.1 59.18 0.71 7.45 10.17 8.81
9/25/2021 12:15:00 AM 15.05 59.09 0.711 7.45 9.43 8.82
9/25/2021 12:30:00 AM 15 59 0.71 7.45 9.87 8.83
9/25/2021 12:45:00 AM 14.96 58.928 0.709 7.45 10.01 8.85
9/25/2021 1:00:00 AM 14.91 58.838 0.709 7.45 9.33 8.85
9/25/2021 1:15:00 AM 14.87 58.766 0.709 7.45 9.4 8.87
9/25/2021 1:30:00 AM 14.82 58.676 0.707 7.45 9.21 8.88
9/25/2021 1:45:00 AM 14.78 58.604 0.704 7.45 9.32 8.9
9/25/2021 2:00:00 AM 14.73 58.514 0.704 7.45 8.89 8.91
9/25/2021 2:15:00 AM 14.69 58.442 0.704 7.46 8.71 8.92
9/25/2021 2:30:00 AM 14.66 58.388 0.705 7.45 8.72 8.92
9/25/2021 2:45:00 AM 14.62 58.316 0.704 7.45 8.56 8.93
9/25/2021 3:00:00 AM 14.57 58.226 0.701 7.46 8.56 8.94
9/25/2021 3:15:00 AM 14.52 58.136 0.698 7.46 8.33 8.95
9/25/2021 3:30:00 AM 14.48 58.064 0.697 7.46 8.44 8.96
9/25/2021 3:45:00 AM 14.44 57.992 0.696 7.46 8.17 8.97
9/25/2021 4:00:00 AM 14.39 57.902 0.694 7.47 8.22 8.98
9/25/2021 4:15:00 AM 14.35 57.83 0.693 7.47 8.24 8.99
9/25/2021 4:30:00 AM 14.31 57.758 0.691 7.46 8.14 9.01
9/25/2021 4:45:00 AM 14.27 57.686 0.691 7.46 7.87 9.02
9/25/2021 5:00:00 AM 14.23 57.614 0.689 7.47 9.16 9.03
9/25/2021 5:15:00 AM 14.19 57.542 0.688 7.47 8.49 9.05
9/25/2021 5:30:00 AM 14.15 57.47 0.688 7.47 8.57 9.06
9/25/2021 5:45:00 AM 14.12 57.416 0.688 7.48 8.6 9.07
9/25/2021 6:00:00 AM 14.09 57.362 0.689 7.46 8.07 9.07
9/25/2021 6:15:00 AM 14.07 57.326 0.69 7.47 7.81 9.07
9/25/2021 6:30:00 AM 14.04 57.272 0.691 7.47 8.11 9.08
9/25/2021 6:45:00 AM 14.02 57.236 0.692 7.46 7.93 9.08
9/25/2021 7:00:00 AM 14 57.2 0.694 7.47 7.76 9.09
9/25/2021 7:15:00 AM 13.98 57.164 0.694 7.47 7.67 9.09
9/25/2021 7:30:00 AM 13.96 57.128 0.695 7.47 7.22 9.1
9/25/2021 7:45:00 AM 13.94 57.092 0.694 7.47 6.98 9.12
9/25/2021 8:00:00 AM 13.92 57.056 0.693 7.48 6.59 9.14
9/25/2021 8:15:00 AM 13.91 57.038 0.692 7.48 6.64 9.16
9/25/2021 8:30:00 AM 13.9 57.02 0.69 7.48 6.49 9.18
9/25/2021 8:45:00 AM 13.9 57.02 0.689 7.48 6.38 9.21
9/25/2021 9:00:00 AM 13.91 57.038 0.688 7.48 6.36 9.25
9/25/2021 9:15:00 AM 13.92 57.056 0.688 7.48 6.19 9.3
9/25/2021 9:30:00 AM 13.95 57.11 0.688 7.49 6.01 9.34
9/25/2021 9:45:00 AM 14 57.2 0.69 7.49 5.92 9.39
9/25/2021 10:00:00 AM 14.08 57.344 0.697 7.49 5.87 9.45
9/25/2021 10:15:00 AM 14.18 57.524 0.705 7.49 6.49 9.48
9/25/2021 10:30:00 AM 14.28 57.704 0.709 7.49 7.04 9.51
9/25/2021 10:45:00 AM 14.39 57.902 0.711 7.5 6.53 9.54
9/25/2021 11:00:00 AM 14.5 58.1 0.712 7.49 6.12 9.57
9/25/2021 11:15:00 AM 14.61 58.298 0.712 7.49 6.38 9.62
9/25/2021 11:30:00 AM 14.74 58.532 0.714 7.5 5.9 9.67
9/25/2021 11:45:00 AM 14.88 58.784 0.717 7.5 5.82 9.7
9/25/2021 12:00:00 PM 15.04 59.072 0.722 7.5 5.8 9.72
9/25/2021 12:15:00 PM 15.21 59.378 0.728 7.5 6.08 9.76
9/25/2021 12:30:00 PM 15.38 59.684 0.732 7.51 6.05 9.78
9/25/2021 12:45:00 PM 15.53 59.954 0.737 7.51 6.07 9.8
9/25/2021 1:00:00 PM 15.68 60.224 0.742 7.52 6.32 9.82
9/25/2021 1:15:00 PM 15.82 60.476 0.746 7.52 6.08 9.84
9/25/2021 1:30:00 PM 15.94 60.692 0.746 7.52 6.38 9.86
9/25/2021 1:45:00 PM 16.05 60.89 0.743 7.53 6.48 9.85
9/25/2021 2:00:00 PM 16.11 60.998 0.738 7.52 6.41 9.84
9/25/2021 2:15:00 PM 16.17 61.106 0.735 7.53 6.49 9.83
9/25/2021 2:30:00 PM 16.21 61.178 0.733 7.53 6.31 9.81
9/25/2021 2:45:00 PM 16.27 61.286 0.73 7.53 6.19 9.81
9/25/2021 3:00:00 PM 16.31 61.358 0.729 7.54 6.72 9.8
9/25/2021 3:15:00 PM 16.36 61.448 0.728 7.54 6.46 9.79
9/25/2021 3:30:00 PM 16.38 61.484 0.728 7.53 6.28 9.75
9/25/2021 3:45:00 PM 16.39 61.502 0.728 7.53 6.4 9.71
9/25/2021 4:00:00 PM 16.41 61.538 0.727 7.54 6.11 9.72
9/25/2021 4:15:00 PM 16.4 61.52 0.728 7.54 6.15 9.65
9/25/2021 4:30:00 PM 16.4 61.52 0.727 7.53 6.1 9.61
9/25/2021 4:45:00 PM 16.39 61.502 0.728 7.53 6.48 9.54
9/25/2021 5:00:00 PM 16.37 61.466 0.729 7.53 6.09 9.47
9/25/2021 5:15:00 PM 16.36 61.448 0.731 7.52 7.25 9.43
9/25/2021 5:30:00 PM 16.34 61.412 0.732 7.53 6.26 9.4
9/25/2021 5:45:00 PM 16.32 61.376 0.731 7.52 6.65 9.35
9/25/2021 6:00:00 PM 16.29 61.322 0.731 7.53 6.13 9.31
9/25/2021 6:15:00 PM 16.27 61.286 0.732 7.53 6.04 9.25
9/25/2021 6:30:00 PM 16.24 61.232 0.734 7.52 6.33 9.19
9/25/2021 6:45:00 PM 16.21 61.178 0.736 7.52 6.48 9.14
9/25/2021 7:00:00 PM 16.17 61.106 0.737 7.51 6.63 9.08
9/25/2021 7:15:00 PM 16.12 61.016 0.738 7.5 6.88 9.02
9/25/2021 7:30:00 PM 16.08 60.944 0.74 7.5 7.43 8.97
9/25/2021 7:45:00 PM 16.03 60.854 0.741 7.49 7.46 8.92
9/25/2021 8:00:00 PM 15.98 60.764 0.742 7.49 8.26 8.89
9/25/2021 8:15:00 PM 15.93 60.674 0.742 7.49 8.41 8.86
9/25/2021 8:30:00 PM 15.88 60.584 0.743 7.49 9.72 8.83
9/25/2021 8:45:00 PM 15.83 60.494 0.743 7.48 9.07 8.81
9/25/2021 9:00:00 PM 15.78 60.404 0.743 7.48 9.8 8.78
9/25/2021 9:15:00 PM 15.72 60.296 0.742 7.48 9.17 8.77
9/25/2021 9:30:00 PM 15.66 60.188 0.741 7.48 9.12 8.75
9/25/2021 9:45:00 PM 15.61 60.098 0.742 7.47 9.19 8.74
9/25/2021 10:00:00 PM 15.56 60.008 0.741 7.47 9.31 8.73
9/25/2021 10:15:00 PM 15.51 59.918 0.741 7.47 9.36 8.73
9/25/2021 10:30:00 PM 15.45 59.81 0.74 7.46 9.53 8.74
9/25/2021 10:45:00 PM 15.43 59.774 0.737 7.47 9.6 8.74
9/25/2021 11:00:00 PM 15.41 59.738 0.734 7.47 9.33 8.74
9/25/2021 11:15:00 PM 15.37 59.666 0.733 7.47 9.61 8.75
9/25/2021 11:30:00 PM 15.33 59.594 0.732 7.47 8.82 8.76
9/25/2021 11:45:00 PM 15.28 59.504 0.732 7.46 8.93 8.77
9/26/2021 12:00:00 AM 15.24 59.432 0.732 7.45 9.3 8.77
9/26/2021 12:15:00 AM 15.21 59.378 0.732 7.46 9.61 8.78
9/26/2021 12:30:00 AM 15.18 59.324 0.73 7.46 9.31 8.78
9/26/2021 12:45:00 AM 15.14 59.252 0.729 7.45 8.87 8.79
9/26/2021 1:00:00 AM 15.11 59.198 0.728 7.47 8.68 8.8
9/26/2021 1:15:00 AM 15.07 59.126 0.726 7.47 8.81 8.8
9/26/2021 1:30:00 AM 15.03 59.054 0.724 7.47 8.63 8.81
9/26/2021 1:45:00 AM 15 59 0.722 7.46 9.55 8.81
9/26/2021 2:00:00 AM 14.96 58.928 0.72 7.46 8.21 8.82
9/26/2021 2:15:00 AM 14.93 58.874 0.718 7.47 8.05 8.83
9/26/2021 2:30:00 AM 14.91 58.838 0.715 7.48 8.42 8.84
9/26/2021 2:45:00 AM 14.88 58.784 0.713 7.46 8.11 8.84
9/26/2021 3:00:00 AM 14.84 58.712 0.711 7.47 7.66 8.86
9/26/2021 3:15:00 AM 14.81 58.658 0.709 7.48 7.72 8.87
9/26/2021 3:30:00 AM 14.78 58.604 0.707 7.48 7.88 8.88
9/26/2021 3:45:00 AM 14.75 58.55 0.705 7.48 7.38 8.89
9/26/2021 4:00:00 AM 14.72 58.496 0.703 7.48 7.4 8.9
9/26/2021 4:15:00 AM 14.69 58.442 0.702 7.48 7.75 8.91
9/26/2021 4:30:00 AM 14.66 58.388 0.7 7.46 8.03 8.92
9/26/2021 4:45:00 AM 14.63 58.334 0.698 7.48 8.2 8.92
9/26/2021 5:00:00 AM 14.6 58.28 0.697 7.48 7.97 8.93
9/26/2021 5:15:00 AM 14.58 58.244 0.696 7.5 7.24 8.93
9/26/2021 5:30:00 AM 14.55 58.19 0.695 7.48 7.47 8.94
9/26/2021 5:45:00 AM 14.52 58.136 0.694 7.49 7.21 8.95
9/26/2021 6:00:00 AM 14.49 58.082 0.693 7.49 7.27 8.96
9/26/2021 6:15:00 AM 14.46 58.028 0.694 7.49 7.21 8.96
9/26/2021 6:30:00 AM 14.44 57.992 0.695 7.48 7.31 8.96
9/26/2021 6:45:00 AM 14.41 57.938 0.696 7.48 8.01 8.97
9/26/2021 7:00:00 AM 14.38 57.884 0.696 7.52 7.88 8.97
9/26/2021 7:15:00 AM 14.36 57.848 0.697 7.49 6.92 8.98
9/26/2021 7:30:00 AM 14.34 57.812 0.698 7.49 6.51 9
9/26/2021 7:45:00 AM 14.31 57.758 0.697 7.49 6.53 9.02
9/26/2021 8:00:00 AM 14.29 57.722 0.697 7.5 6.43 9.04
9/26/2021 8:15:00 AM 14.27 57.686 0.696 7.48 6.51 9.07
9/26/2021 8:30:00 AM 14.26 57.668 0.694 7.5 6.53 9.09
9/26/2021 8:45:00 AM 14.25 57.65 0.693 7.51 6.01 9.13
9/26/2021 9:00:00 AM 14.25 57.65 0.692 7.51 6 9.17
9/26/2021 9:15:00 AM 14.26 57.668 0.692 7.51 6.06 9.22
9/26/2021 9:30:00 AM 14.28 57.704 0.69 7.51 5.9 9.28
9/26/2021 9:45:00 AM 14.3 57.74 0.691 7.52 6.07 9.33
9/26/2021 10:00:00 AM 14.36 57.848 0.696 7.52 7.02 9.38
9/26/2021 10:15:00 AM 14.43 57.974 0.701 7.52 7.12 9.43
9/26/2021 10:30:00 AM 14.51 58.118 0.706 7.52 6.17 9.48
9/26/2021 10:45:00 AM 14.6 58.28 0.709 7.52 5.89 9.52
9/26/2021 11:00:00 AM 14.69 58.442 0.711 7.52 5.82 9.57
9/26/2021 11:15:00 AM 14.8 58.64 0.714 7.53 6.2 9.61
9/26/2021 11:30:00 AM 14.92 58.856 0.717 7.52 6.5 9.65
9/26/2021 11:45:00 AM 15.05 59.09 0.72 7.54 7.1 9.69
9/26/2021 12:00:00 PM 15.18 59.324 0.724 7.54 7.57 9.74
9/26/2021 12:15:00 PM 15.32 59.576 0.728 7.55 6.01 9.78
9/26/2021 12:30:00 PM 15.46 59.828 0.731 7.54 6.62 9.8
9/26/2021 12:45:00 PM 15.6 60.08 0.733 7.55 6.52 9.83
9/26/2021 1:00:00 PM 15.74 60.332 0.734 7.54 6.57 9.87
9/26/2021 1:15:00 PM 15.85 60.53 0.736 7.55 7.14 9.85
9/26/2021 1:30:00 PM 15.97 60.746 0.738 7.55 6.58 9.86
9/26/2021 1:45:00 PM 16.08 60.944 0.738 7.56 6.22 9.85
9/26/2021 2:00:00 PM 16.16 61.088 0.736 7.56 6.52 9.87
9/26/2021 2:15:00 PM 16.23 61.214 0.734 7.56 6.41 9.87
9/26/2021 2:30:00 PM 16.28 61.304 0.733 7.56 6.29 9.84
9/26/2021 2:45:00 PM 16.34 61.412 0.733 7.56 6.12 9.83
9/26/2021 3:00:00 PM 16.38 61.484 0.733 7.56 6.51 9.79
9/26/2021 3:15:00 PM 16.41 61.538 0.734 7.56 6.31 9.75
9/26/2021 3:30:00 PM 16.44 61.592 0.734 7.57 6.15 9.71
9/26/2021 3:45:00 PM 16.44 61.592 0.734 7.56 6.68 9.66
9/26/2021 4:00:00 PM 16.44 61.592 0.734 7.55 6.14 9.62
9/26/2021 4:15:00 PM 16.43 61.574 0.734 7.56 6.49 9.57
9/26/2021 4:30:00 PM 16.43 61.574 0.735 7.55 6.33 9.52
9/26/2021 4:45:00 PM 16.41 61.538 0.734 7.55 6.25 9.47
9/26/2021 5:00:00 PM 16.38 61.484 0.733 7.55 6.52 9.43
9/26/2021 5:15:00 PM 16.35 61.43 0.733 7.55 6.68 9.38
9/26/2021 5:30:00 PM 16.32 61.376 0.733 7.55 6.31 9.33
9/26/2021 5:45:00 PM 16.27 61.286 0.734 7.55 6.46 9.27
9/26/2021 6:00:00 PM 16.21 61.178 0.734 7.53 6.82 9.21
9/26/2021 6:15:00 PM 16.15 61.07 0.733 7.54 6.57 9.15
9/26/2021 6:30:00 PM 16.08 60.944 0.733 7.53 6.44 9.11
9/26/2021 6:45:00 PM 16.02 60.836 0.734 7.53 7.05 9.07
9/26/2021 7:00:00 PM 15.95 60.71 0.735 7.52 6.2 9.04
9/26/2021 7:15:00 PM 15.88 60.584 0.736 7.52 6.73 9.01
9/26/2021 7:30:00 PM 15.82 60.476 0.737 7.52 7.05 8.98
9/26/2021 7:45:00 PM 15.75 60.35 0.738 7.51 7.38 8.95
9/26/2021 8:00:00 PM 15.69 60.242 0.739 7.51 7.41 8.92
9/26/2021 8:15:00 PM 15.62 60.116 0.739 7.5 8.32 8.9
9/26/2021 8:30:00 PM 15.55 59.99 0.739 7.5 8.18 8.87
9/26/2021 8:45:00 PM 15.49 59.882 0.74 7.5 8.19 8.85
9/26/2021 9:00:00 PM 15.43 59.774 0.74 7.5 9.6 8.84
9/26/2021 9:15:00 PM 15.37 59.666 0.741 7.49 8.87 8.82
9/26/2021 9:30:00 PM 15.32 59.576 0.742 7.49 9.01 8.81
9/26/2021 9:45:00 PM 15.27 59.486 0.745 7.49 9.25 8.81
9/26/2021 10:00:00 PM 15.22 59.396 0.746 7.48 10.26 8.8
9/26/2021 10:15:00 PM 15.18 59.324 0.748 7.49 9.38 8.8
9/26/2021 10:30:00 PM 15.13 59.234 0.749 7.49 9.3 8.8
9/26/2021 10:45:00 PM 15.09 59.162 0.75 7.48 9.93 8.81
9/26/2021 11:00:00 PM 15.04 59.072 0.75 7.48 9.31 8.8
9/26/2021 11:15:00 PM 15 59 0.751 7.48 9.23 8.81
9/26/2021 11:30:00 PM 14.97 58.946 0.752 7.49 9.6 8.81
9/26/2021 11:45:00 PM 14.93 58.874 0.753 7.47 9.45 8.81
9/27/2021 12:00:00 AM 14.89 58.802 0.754 7.49 9.48 8.82
9/27/2021 12:15:00 AM 14.85 58.73 0.754 7.48 8.98 8.83
9/27/2021 12:30:00 AM 14.81 58.658 0.751 7.48 10.15 8.84
9/27/2021 12:45:00 AM 14.76 58.568 0.749 7.49 9.23 8.85
9/27/2021 1:00:00 AM 14.71 58.478 0.747 7.48 8.8 8.87
9/27/2021 1:15:00 AM 14.66 58.388 0.744 7.49 9.32 8.88
9/27/2021 1:30:00 AM 14.61 58.298 0.74 7.49 8.66 8.9
9/27/2021 1:45:00 AM 14.55 58.19 0.736 7.49 8.32 8.92
9/27/2021 2:00:00 AM 14.49 58.082 0.729 7.49 7.88 8.94
9/27/2021 2:15:00 AM 14.42 57.956 0.722 7.49 8.52 8.95
9/27/2021 2:30:00 AM 14.38 57.884 0.723 7.5 8.11 8.96
9/27/2021 2:45:00 AM 14.35 57.83 0.727 7.48 8.31 8.96
9/27/2021 3:00:00 AM 14.32 57.776 0.726 7.49 8.41 8.97
9/27/2021 3:15:00 AM 14.28 57.704 0.722 7.5 7.97 8.98
9/27/2021 3:30:00 AM 14.22 57.596 0.716 7.51 7.82 9
9/27/2021 3:45:00 AM 14.17 57.506 0.71 7.51 8.29 9.02
9/27/2021 4:00:00 AM 14.11 57.398 0.707 7.51 7.88 9.04
9/27/2021 4:15:00 AM 14.07 57.326 0.706 7.5 7.49 9.06
9/27/2021 4:30:00 AM 14.04 57.272 0.706 7.51 7.61 9.06
9/27/2021 4:45:00 AM 14 57.2 0.704 7.5 7.96 9.08
9/27/2021 5:00:00 AM 13.96 57.128 0.701 7.51 7.96 9.09
9/27/2021 5:15:00 AM 13.93 57.074 0.701 7.5 8.55 9.1
9/27/2021 5:30:00 AM 13.9 57.02 0.701 7.51 9.31 9.1
9/27/2021 5:45:00 AM 13.87 56.966 0.7 7.51 7.87 9.09
9/27/2021 6:00:00 AM 13.85 56.93 0.7 7.51 7.74 9.11
9/27/2021 6:15:00 AM 13.83 56.894 0.701 7.51 8.04 9.11
9/27/2021 6:30:00 AM 13.81 56.858 0.701 7.52 7.49 9.12
9/27/2021 6:45:00 AM 13.79 56.822 0.701 7.51 7.56 9.11
9/27/2021 7:00:00 AM 13.77 56.786 0.702 7.51 6.81 9.12
9/27/2021 7:15:00 AM 13.75 56.75 0.702 7.51 6.91 9.12
9/27/2021 7:30:00 AM 13.74 56.732 0.703 7.51 6.81 9.13
9/27/2021 7:45:00 AM 13.73 56.714 0.703 7.51 7.13 9.15
9/27/2021 8:00:00 AM 13.72 56.696 0.703 7.52 6.94 9.18
9/27/2021 8:15:00 AM 13.72 56.696 0.702 7.52 6.33 9.2
9/27/2021 8:30:00 AM 13.72 56.696 0.701 7.52 6.69 9.23
9/27/2021 8:45:00 AM 13.72 56.696 0.7 7.52 6.73 9.26
9/27/2021 9:00:00 AM 13.75 56.75 0.701 7.53 7.31 9.3
9/27/2021 9:15:00 AM 13.79 56.822 0.702 7.52 6.71 9.33
9/27/2021 9:30:00 AM 13.83 56.894 0.704 7.53 6.59 9.39
9/27/2021 9:45:00 AM 13.9 57.02 0.707 7.53 6.57 9.45
9/27/2021 10:00:00 AM 13.99 57.182 0.711 7.53 6.45 9.5
9/27/2021 10:15:00 AM 14.09 57.362 0.716 7.53 5.98 9.53
9/27/2021 10:30:00 AM 14.21 57.578 0.722 7.53 6.1 9.58
9/27/2021 10:45:00 AM 14.33 57.794 0.728 7.54 6.06 9.6
9/27/2021 11:00:00 AM 14.48 58.064 0.732 7.54 6.07 9.64
9/27/2021 11:15:00 AM 14.62 58.316 0.734 7.54 6.24 9.7
9/27/2021 11:30:00 AM 14.77 58.586 0.735 7.55 6.4 9.74
9/27/2021 11:45:00 AM 14.91 58.838 0.735 7.55 6.28 9.78
9/27/2021 12:00:00 PM 15.05 59.09 0.734 7.55 6.31 9.84
9/27/2021 12:15:00 PM 15.2 59.36 0.733 7.56 6.78 9.89
9/27/2021 12:30:00 PM 15.36 59.648 0.732 7.57 6.42 9.93
9/27/2021 12:45:00 PM 15.51 59.918 0.731 7.57 6.49 9.94
9/27/2021 1:00:00 PM 15.66 60.188 0.732 7.56 6.11 9.97
9/27/2021 1:15:00 PM 15.82 60.476 0.734 7.57 6.51 9.99
9/27/2021 1:30:00 PM 15.96 60.728 0.735 7.58 6.43 9.99
9/27/2021 1:45:00 PM 16.1 60.98 0.736 7.58 6.35 9.99
9/27/2021 2:00:00 PM 16.22 61.196 0.736 7.57 5.89 9.99
9/27/2021 2:15:00 PM 16.33 61.394 0.738 7.58 6.66 9.98
9/27/2021 2:30:00 PM 16.43 61.574 0.738 7.58 6.15 9.93
9/27/2021 2:45:00 PM 16.52 61.736 0.738 7.58 6.03 9.9
9/27/2021 3:00:00 PM 16.58 61.844 0.736 7.59 5.81 9.87
9/27/2021 3:15:00 PM 16.62 61.916 0.735 7.59 5.88 9.83
9/27/2021 3:30:00 PM 16.66 61.988 0.735 7.58 5.65 9.79
9/27/2021 3:45:00 PM 16.69 62.042 0.736 7.58 5.56 9.73
9/27/2021 4:00:00 PM 16.72 62.096 0.736 7.58 5.62 9.67
9/27/2021 4:15:00 PM 16.73 62.114 0.737 7.58 5.95 9.61
9/27/2021 4:30:00 PM 16.74 62.132 0.737 7.57 6.05 9.56
9/27/2021 4:45:00 PM 16.74 62.132 0.737 7.57 5.77 9.5
9/27/2021 5:00:00 PM 16.74 62.132 0.738 7.57 5.47 9.45
9/27/2021 5:15:00 PM 16.73 62.114 0.738 7.59 5.94 9.39
9/27/2021 5:30:00 PM 16.7 62.06 0.738 7.58 6.18 9.33
9/27/2021 5:45:00 PM 16.66 61.988 0.736 7.57 5.9 9.28
9/27/2021 6:00:00 PM 16.61 61.898 0.735 7.56 5.45 9.22
9/27/2021 6:15:00 PM 16.56 61.808 0.734 7.56 5.33 9.14
9/27/2021 6:30:00 PM 16.5 61.7 0.733 7.55 5.75 9.1
9/27/2021 6:45:00 PM 16.45 61.61 0.733 7.55 5.63 9.05
9/27/2021 7:00:00 PM 16.4 61.52 0.732 7.54 5.78 9
9/27/2021 7:15:00 PM 16.33 61.394 0.731 7.54 6.04 8.97
9/27/2021 7:30:00 PM 16.27 61.286 0.732 7.53 6.45 8.93
9/27/2021 7:45:00 PM 16.21 61.178 0.733 7.53 6.88 8.89
9/27/2021 8:00:00 PM 16.15 61.07 0.734 7.51 7.03 8.85
9/27/2021 8:15:00 PM 16.09 60.962 0.734 7.52 8.04 8.81
9/27/2021 8:30:00 PM 16.03 60.854 0.736 7.52 8.05 8.79
9/27/2021 8:45:00 PM 15.98 60.764 0.737 7.52 7.43 8.75
9/27/2021 9:00:00 PM 15.92 60.656 0.739 7.51 8.47 8.74
9/27/2021 9:15:00 PM 15.87 60.566 0.74 7.51 8.3 8.71
9/27/2021 9:30:00 PM 15.82 60.476 0.742 7.51 8.52 8.7
9/27/2021 9:45:00 PM 15.77 60.386 0.745 7.5 8.06 8.69
9/27/2021 10:00:00 PM 15.73 60.314 0.749 7.5 8.74 8.68
9/27/2021 10:15:00 PM 15.69 60.242 0.752 7.5 8.8 8.67
9/27/2021 10:30:00 PM 15.65 60.17 0.755 7.49 8.6 8.67
9/27/2021 10:45:00 PM 15.61 60.098 0.758 7.49 9.08 8.67
9/27/2021 11:00:00 PM 15.57 60.026 0.76 7.49 9 8.67
9/27/2021 11:15:00 PM 15.53 59.954 0.763 7.49 8.77 8.67
9/27/2021 11:30:00 PM 15.5 59.9 0.767 7.49 8.75 8.67
9/27/2021 11:45:00 PM 15.46 59.828 0.769 7.49 8.63 8.68
9/28/2021 12:00:00 AM 15.43 59.774 0.771 7.49 8.16 8.67
9/28/2021 12:15:00 AM 15.39 59.702 0.772 7.49 8.4 8.69
9/28/2021 12:30:00 AM 15.35 59.63 0.772 7.49 8.32 8.69
9/28/2021 12:45:00 AM 15.31 59.558 0.772 7.51 8.45 8.7
9/28/2021 1:00:00 AM 15.27 59.486 0.77 7.48 8.61 8.72
9/28/2021 1:15:00 AM 15.22 59.396 0.768 7.49 7.57 8.72
9/28/2021 1:30:00 AM 15.18 59.324 0.765 7.49 7.82 8.75
9/28/2021 1:45:00 AM 15.14 59.252 0.763 7.5 7.72 8.75
9/28/2021 2:00:00 AM 15.09 59.162 0.761 7.5 7.48 8.77
9/28/2021 2:15:00 AM 15.05 59.09 0.759 7.5 7.51 8.78
9/28/2021 2:30:00 AM 15.01 59.018 0.757 7.5 7.65 8.79
9/28/2021 2:45:00 AM 14.96 58.928 0.753 7.5 8.1 8.8
9/28/2021 3:00:00 AM 14.91 58.838 0.748 7.5 7.82 8.81
9/28/2021 3:15:00 AM 14.87 58.766 0.743 7.52 8.36 8.82
9/28/2021 3:30:00 AM 14.82 58.676 0.74 7.5 8.17 8.82
9/28/2021 3:45:00 AM 14.78 58.604 0.735 7.5 7.42 8.84
9/28/2021 4:00:00 AM 14.74 58.532 0.732 7.5 7.28 8.85
9/28/2021 4:15:00 AM 14.71 58.478 0.73 7.5 7.37 8.86
9/28/2021 4:30:00 AM 14.69 58.442 0.729 7.5 7.47 8.86
9/28/2021 4:45:00 AM 14.66 58.388 0.727 7.5 7.58 8.87
9/28/2021 5:00:00 AM 14.63 58.334 0.725 7.51 7.59 8.89
9/28/2021 5:15:00 AM 14.61 58.298 0.723 7.51 7.15 8.9
9/28/2021 5:30:00 AM 14.58 58.244 0.721 7.49 8.02 8.9
9/28/2021 5:45:00 AM 14.56 58.208 0.72 7.5 8.15 8.91
9/28/2021 6:00:00 AM 14.55 58.19 0.72 7.5 6.95 8.91
9/28/2021 6:15:00 AM 14.53 58.154 0.719 7.5 6.74 8.93
9/28/2021 6:30:00 AM 14.52 58.136 0.719 7.5 6.98 8.92
9/28/2021 6:45:00 AM 14.52 58.136 0.72 7.5 7.13 8.91
9/28/2021 7:00:00 AM 14.52 58.136 0.721 7.5 7.01 8.93
9/28/2021 7:15:00 AM 14.53 58.154 0.722 7.49 6.81 8.94
9/28/2021 7:30:00 AM 14.53 58.154 0.722 7.5 6.31 8.94
9/28/2021 7:45:00 AM 14.53 58.154 0.722 7.49 6.27 8.96
9/28/2021 8:00:00 AM 14.54 58.172 0.723 7.5 6.11 8.96
9/28/2021 8:15:00 AM 14.54 58.172 0.723 7.5 6.16 8.96
9/28/2021 8:30:00 AM 14.54 58.172 0.722 7.5 5.62 8.97
9/28/2021 8:45:00 AM 14.54 58.172 0.722 7.5 5.65 8.98
9/28/2021 9:00:00 AM 14.54 58.172 0.721 7.49 5.6 8.99
9/28/2021 9:15:00 AM 14.55 58.19 0.721 7.5 5.38 9.01
9/28/2021 9:30:00 AM 14.58 58.244 0.724 7.5 5.56 9.07
9/28/2021 9:45:00 AM 14.62 58.316 0.727 7.5 5.34 9.15
9/28/2021 10:00:00 AM 14.68 58.424 0.731 7.51 5.47 9.22
9/28/2021 10:15:00 AM 14.75 58.55 0.737 7.51 5.36 9.28
9/28/2021 10:30:00 AM 14.84 58.712 0.744 7.5 5.69 9.33
9/28/2021 10:45:00 AM 14.92 58.856 0.751 7.52 5.47 9.32
9/28/2021 11:00:00 AM 15 59 0.758 7.51 5.7 9.34
9/28/2021 11:15:00 AM 15.11 59.198 0.762 7.52 5.63 9.47
9/28/2021 11:30:00 AM 15.23 59.414 0.763 7.53 5.66 9.54
9/28/2021 11:45:00 AM 15.36 59.648 0.763 7.54 5.68 9.65
9/28/2021 12:00:00 PM 15.48 59.864 0.762 7.55 5.79 9.73
9/28/2021 12:15:00 PM 15.54 59.972 0.759 7.55 5.82 9.68
9/28/2021 12:30:00 PM 15.59 60.062 0.757 7.55 5.75 9.67
9/28/2021 12:45:00 PM 15.64 60.152 0.758 7.55 5.51 9.65
9/28/2021 1:00:00 PM 15.7 60.26 0.76 7.55 5.82 9.67
9/28/2021 1:15:00 PM 15.75 60.35 0.76 7.55 5.73 9.63
9/28/2021 1:30:00 PM 15.79 60.422 0.758 7.55 5.29 9.63
9/28/2021 1:45:00 PM 15.83 60.494 0.757 7.55 5.35 9.59
9/28/2021 2:00:00 PM 15.88 60.584 0.756 7.55 5.35 9.55
9/28/2021 2:15:00 PM 15.93 60.674 0.756 7.55 5.22 9.57
9/28/2021 2:30:00 PM 15.98 60.764 0.757 7.55 5.57 9.58
9/28/2021 2:45:00 PM 16.03 60.854 0.76 7.55 5.51 9.6
9/28/2021 3:00:00 PM 16.07 60.926 0.766 7.55 5.55 9.57
9/28/2021 3:15:00 PM 16.13 61.034 0.772 7.56 5.57 9.6
9/28/2021 3:30:00 PM 16.17 61.106 0.776 7.55 5.35 9.55
9/28/2021 3:45:00 PM 16.22 61.196 0.777 7.56 5.61 9.56
9/28/2021 4:00:00 PM 16.26 61.268 0.777 7.56 5.62 9.54
9/28/2021 4:15:00 PM 16.28 61.304 0.777 7.56 5.33 9.51
9/28/2021 4:30:00 PM 16.3 61.34 0.777 7.56 5.47 9.48
9/28/2021 4:45:00 PM 16.31 61.358 0.776 7.55 5.5 9.43
9/28/2021 5:00:00 PM 16.31 61.358 0.774 7.56 5.73 9.4
9/28/2021 5:15:00 PM 16.28 61.304 0.772 7.56 5.53 9.39
9/28/2021 5:30:00 PM 16.27 61.286 0.771 7.56 5.59 9.36
9/28/2021 5:45:00 PM 16.27 61.286 0.77 7.56 5.75 9.34
9/28/2021 6:00:00 PM 16.25 61.25 0.767 7.55 5.78 9.3
9/28/2021 6:15:00 PM 16.23 61.214 0.763 7.55 5.44 9.24
9/28/2021 6:30:00 PM 16.2 61.16 0.759 7.55 5.58 9.2
9/28/2021 6:45:00 PM 16.18 61.124 0.755 7.55 5.36 9.16
9/28/2021 7:00:00 PM 16.14 61.052 0.752 7.55 5.83 9.12
9/28/2021 7:15:00 PM 16.1 60.98 0.752 7.54 5.83 9.07
9/28/2021 7:30:00 PM 16.06 60.908 0.751 7.54 6.02 9.01
9/28/2021 7:45:00 PM 16.03 60.854 0.752 7.53 6.67 8.97
9/28/2021 8:00:00 PM 16.01 60.818 0.753 7.53 6.98 8.93
9/28/2021 8:15:00 PM 15.98 60.764 0.756 7.52 7.27 8.87
9/28/2021 8:30:00 PM 15.95 60.71 0.757 7.51 7.87 8.83
9/28/2021 8:45:00 PM 15.92 60.656 0.758 7.51 7.39 8.79
9/28/2021 9:00:00 PM 15.88 60.584 0.758 7.51 7.94 8.76
9/28/2021 9:15:00 PM 15.84 60.512 0.759 7.51 8.39 8.74
9/28/2021 9:30:00 PM 15.8 60.44 0.761 7.5 7.63 8.71
9/28/2021 9:45:00 PM 15.76 60.368 0.762 7.5 8.36 8.71
9/28/2021 10:00:00 PM 15.71 60.278 0.762 7.5 8.05 8.7
9/28/2021 10:15:00 PM 15.68 60.224 0.762 7.5 8.22 8.69
9/28/2021 10:30:00 PM 15.64 60.152 0.762 7.5 7.87 8.69
9/28/2021 10:45:00 PM 15.61 60.098 0.763 7.49 9.12 8.69
9/28/2021 11:00:00 PM 15.57 60.026 0.764 7.5 8.4 8.67
9/28/2021 11:15:00 PM 15.53 59.954 0.765 7.5 8.33 8.7
9/28/2021 11:30:00 PM 15.5 59.9 0.766 7.5 8.44 8.69
9/28/2021 11:45:00 PM 15.46 59.828 0.766 7.49 8.07 8.7
9/29/2021 12:00:00 AM 15.42 59.756 0.766 7.5 8.75 8.7
9/29/2021 12:15:00 AM 15.37 59.666 0.765 7.5 8.97 8.7
9/29/2021 12:30:00 AM 15.33 59.594 0.765 7.5 8.82 8.71
9/29/2021 12:45:00 AM 15.29 59.522 0.764 7.5 8.45 8.72
9/29/2021 1:00:00 AM 15.24 59.432 0.762 7.5 8.01 8.73
9/29/2021 1:15:00 AM 15.18 59.324 0.759 7.5 8.22 8.75
9/29/2021 1:30:00 AM 15.13 59.234 0.758 7.5 8.19 8.72
9/29/2021 1:45:00 AM 15.08 59.144 0.757 7.5 8.02 8.78
9/29/2021 2:00:00 AM 15.04 59.072 0.758 7.5 8.03 8.79
9/29/2021 2:15:00 AM 15 59 0.756 7.51 7.7 8.8
9/29/2021 2:30:00 AM 14.95 58.91 0.754 7.51 7.22 8.82
9/29/2021 2:45:00 AM 14.89 58.802 0.75 7.51 7.44 8.83
9/29/2021 3:00:00 AM 14.83 58.694 0.746 7.51 7.29 8.85
9/29/2021 3:15:00 AM 14.77 58.586 0.744 7.52 7.94 8.86
9/29/2021 3:30:00 AM 14.73 58.514 0.743 7.51 7.41 8.87
9/29/2021 3:45:00 AM 14.68 58.424 0.74 7.52 8.18 8.89
9/29/2021 4:00:00 AM 14.63 58.334 0.738 7.52 7.57 8.89
9/29/2021 4:15:00 AM 14.59 58.262 0.736 7.52 7.73 8.91
9/29/2021 4:30:00 AM 14.55 58.19 0.734 7.52 7.62 8.93
9/29/2021 4:45:00 AM 14.5 58.1 0.733 7.53 7.97 8.94
9/29/2021 5:00:00 AM 14.46 58.028 0.731 7.53 7.02 8.96
9/29/2021 5:15:00 AM 14.41 57.938 0.729 7.53 6.81 8.97
9/29/2021 5:30:00 AM 14.36 57.848 0.728 7.54 7.71 8.98
9/29/2021 5:45:00 AM 14.32 57.776 0.728 7.54 6.87 9
9/29/2021 6:00:00 AM 14.27 57.686 0.727 7.54 6.84 9
9/29/2021 6:15:00 AM 14.23 57.614 0.725 7.54 6.66 9.01
9/29/2021 6:30:00 AM 14.19 57.542 0.725 7.54 6.65 9.03
9/29/2021 6:45:00 AM 14.16 57.488 0.726 7.53 6.58 9.03
9/29/2021 7:00:00 AM 14.13 57.434 0.728 7.55 6.34 9.04
9/29/2021 7:15:00 AM 14.1 57.38 0.73 7.54 6.52 9.05
9/29/2021 7:30:00 AM 14.08 57.344 0.733 7.54 6.2 9.06
9/29/2021 7:45:00 AM 14.05 57.29 0.734 7.55 6.28 9.08
9/29/2021 8:00:00 AM 14.03 57.254 0.736 7.55 6.16 9.11
9/29/2021 8:15:00 AM 14.02 57.236 0.736 7.54 6.04 9.13
9/29/2021 8:30:00 AM 14 57.2 0.736 7.55 5.78 9.18
9/29/2021 8:45:00 AM 14 57.2 0.735 7.55 5.83 9.22
9/29/2021 9:00:00 AM 14.01 57.218 0.734 7.56 5.95 9.3
9/29/2021 9:15:00 AM 14.02 57.236 0.734 7.56 5.53 9.38
9/29/2021 9:30:00 AM 14.05 57.29 0.736 7.57 5.88 9.48
9/29/2021 9:45:00 AM -99999.99 -179968 -99999.99 -99999.99 -99999.99 -99999.99
9/29/2021 10:00:00 AM -99999.99 -179968 -99999.99 -99999.99 -99999.99 -99999.99
9/29/2021 10:15:00 AM 14.18 57.524 0.75 7.56 5.96 9.59
9/29/2021 10:30:00 AM 14.25 57.65 0.756 7.58 5.73 9.64
9/29/2021 10:45:00 AM 14.35 57.83 0.761 7.57 5.66 9.7
9/29/2021 11:00:00 AM 14.46 58.028 0.764 7.58 5.51 9.77
9/29/2021 11:15:00 AM 14.57 58.226 0.766 7.57 5.24 9.84
9/29/2021 11:30:00 AM 14.68 58.424 0.768 7.59 6.16 9.9
9/29/2021 11:45:00 AM 14.78 58.604 0.767 7.59 5.48 9.95
9/29/2021 12:00:00 PM 14.86 58.748 0.767 7.6 5.92 10.01
9/29/2021 12:15:00 PM 14.95 58.91 0.768 7.6 5.56 10.05
9/29/2021 12:30:00 PM 15.06 59.108 0.769 7.6 5.33 10.09
9/29/2021 12:45:00 PM 15.17 59.306 0.767 7.61 4.99 10.14
9/29/2021 1:00:00 PM 15.29 59.522 0.765 7.61 5.15 10.19
9/29/2021 1:15:00 PM 15.41 59.738 0.765 7.62 6.51 10.2
9/29/2021 1:30:00 PM 15.53 59.954 0.768 7.62 6.06 10.2
9/29/2021 1:45:00 PM 15.63 60.134 0.774 7.62 5.62 10.18
9/29/2021 2:00:00 PM 15.74 60.332 0.779 7.62 5.31 10.16
9/29/2021 2:15:00 PM 15.83 60.494 0.782 7.62 5.51 10.13
9/29/2021 2:30:00 PM 15.91 60.638 0.782 7.62 5.37 10.13
9/29/2021 2:45:00 PM 15.99 60.782 0.784 7.62 5.31 10.1
9/29/2021 3:00:00 PM 16.06 60.908 0.786 7.62 6.94 10.04
9/29/2021 3:15:00 PM 16.1 60.98 0.785 7.61 6.18 10.02
9/29/2021 3:30:00 PM 16.13 61.034 0.782 7.61 6 9.97
9/29/2021 3:45:00 PM 16.13 61.034 0.78 7.61 5.88 9.89
9/29/2021 4:00:00 PM 16.16 61.088 0.778 7.61 5.71 9.88
9/29/2021 4:15:00 PM 16.14 61.052 0.777 7.61 5.3 9.8
9/29/2021 4:30:00 PM -99999.99 -179968 -99999.99 -99999.99 -99999.99 -99999.99
9/29/2021 4:45:00 PM 16.11 60.998 0.772 7.62 5.49 9.64
9/29/2021 5:00:00 PM 16.07 60.926 0.768 7.61 5.4 9.63
9/29/2021 5:15:00 PM 16.04 60.872 0.762 7.61 5.42 9.59
9/29/2021 5:30:00 PM 15.97 60.746 0.748 7.61 5.33 9.56
9/29/2021 5:45:00 PM 15.88 60.584 0.735 7.61 5.34 9.52
9/29/2021 6:00:00 PM 15.8 60.44 0.736 7.59 5.2 9.45
9/29/2021 6:15:00 PM 15.76 60.368 0.751 7.59 5.31 9.37
9/29/2021 6:30:00 PM 15.74 60.332 0.764 7.58 5.44 9.3
9/29/2021 6:45:00 PM 15.7 60.26 0.769 7.57 5.47 9.24
9/29/2021 7:00:00 PM 15.65 60.17 0.769 7.57 5.34 9.2
9/29/2021 7:15:00 PM 15.58 60.044 0.77 7.56 5.44 9.16
9/29/2021 7:30:00 PM 15.51 59.918 0.771 7.56 6 9.12
9/29/2021 7:45:00 PM 15.45 59.81 0.773 7.55 6.65 9.09
9/29/2021 8:00:00 PM 15.38 59.684 0.774 7.55 6.58 9.04
9/29/2021 8:15:00 PM 15.32 59.576 0.777 7.54 7.26 9.01
9/29/2021 8:30:00 PM 15.26 59.468 0.779 7.55 7.92 8.97
9/29/2021 8:45:00 PM 15.19 59.342 0.78 7.54 7.68 8.96
9/29/2021 9:00:00 PM 15.13 59.234 0.78 7.54 8.17 8.94
9/29/2021 9:15:00 PM 15.06 59.108 0.78 7.53 7.44 8.93
9/29/2021 9:30:00 PM 15.01 59.018 0.78 7.53 7.48 8.92
9/29/2021 9:45:00 PM 14.96 58.928 0.782 7.53 7.24 8.9
9/29/2021 10:00:00 PM 14.91 58.838 0.784 7.52 7.13 8.89
9/29/2021 10:15:00 PM 14.87 58.766 0.785 7.52 6.97 8.88
9/29/2021 10:30:00 PM 14.84 58.712 0.784 7.52 7.24 8.88
9/29/2021 10:45:00 PM 14.8 58.64 0.784 7.52 7.42 8.87
9/29/2021 11:00:00 PM 14.77 58.586 0.785 7.52 7.4 8.88
9/29/2021 11:15:00 PM 14.75 58.55 0.787 7.51 7.43 8.87
9/29/2021 11:30:00 PM 14.72 58.496 0.788 7.52 7.25 8.88
9/29/2021 11:45:00 PM 14.7 58.46 0.788 7.52 6.97 8.88
9/30/2021 12:00:00 AM 14.68 58.424 0.788 7.52 7.04 8.88
9/30/2021 12:15:00 AM 14.66 58.388 0.787 7.52 7.48 8.89
9/30/2021 12:30:00 AM 14.64 58.352 0.787 7.51 6.97 8.89
9/30/2021 12:45:00 AM 14.62 58.316 0.786 7.51 6.46 8.9
9/30/2021 1:00:00 AM 14.6 58.28 0.784 7.51 6.31 8.91
9/30/2021 1:15:00 AM 14.57 58.226 0.782 7.51 7.8 8.92
9/30/2021 1:30:00 AM 14.55 58.19 0.781 7.51 6.46 8.93
9/30/2021 1:45:00 AM 14.52 58.136 0.779 7.51 6.83 8.93
9/30/2021 2:00:00 AM 14.49 58.082 0.777 7.51 6.11 8.95
9/30/2021 2:15:00 AM 14.45 58.01 0.774 7.52 6.27 8.96
9/30/2021 2:30:00 AM 14.4 57.92 0.772 7.51 7.54 8.97
9/30/2021 2:45:00 AM 14.37 57.866 0.769 7.52 7.33 8.98
9/30/2021 3:00:00 AM 14.34 57.812 0.765 7.52 7.11 8.99
9/30/2021 3:15:00 AM 14.31 57.758 0.762 7.52 7.28 8.99
9/30/2021 3:30:00 AM 14.28 57.704 0.76 7.52 8.39 9
9/30/2021 3:45:00 AM 14.24 57.632 0.757 7.52 7.49 9.01
9/30/2021 4:00:00 AM 14.2 57.56 0.754 7.52 6.81 9.02
9/30/2021 4:15:00 AM 14.15 57.47 0.751 7.53 6.45 9.04
9/30/2021 4:30:00 AM 14.1 57.38 0.749 7.53 7.3 9.04
9/30/2021 4:45:00 AM 14.06 57.308 0.748 7.53 8.15 9.05
9/30/2021 5:00:00 AM 14.02 57.236 0.747 7.53 7.88 9.06
9/30/2021 5:15:00 AM 13.98 57.164 0.745 7.53 7.96 9.09
9/30/2021 5:30:00 AM 13.94 57.092 0.743 7.53 8.01 9.1
9/30/2021 5:45:00 AM 13.9 57.02 0.742 7.53 7.26 9.11
9/30/2021 6:00:00 AM 13.86 56.948 0.74 7.53 7.11 9.12
9/30/2021 6:15:00 AM 13.82 56.876 0.739 7.53 7.27 9.13
9/30/2021 6:30:00 AM 13.79 56.822 0.739 7.52 6.91 9.14
9/30/2021 6:45:00 AM 13.75 56.75 0.74 7.53 6.63 9.14
9/30/2021 7:00:00 AM 13.72 56.696 0.741 7.53 6.1 9.14
9/30/2021 7:15:00 AM 13.7 56.66 0.743 7.53 6.04 9.15
9/30/2021 7:30:00 AM 13.68 56.624 0.745 7.52 6.29 9.17
9/30/2021 7:45:00 AM 13.66 56.588 0.746 7.53 5.62 9.19
9/30/2021 8:00:00 AM 13.65 56.57 0.747 7.52 6.45 9.21
9/30/2021 8:15:00 AM 13.64 56.552 0.748 7.55 6.37 9.23
9/30/2021 8:30:00 AM 13.63 56.534 0.748 7.54 5.61 9.27
9/30/2021 8:45:00 AM 13.63 56.534 0.749 7.55 5.97 9.3
9/30/2021 9:00:00 AM 13.64 56.552 0.75 7.55 5.36 9.35
9/30/2021 9:15:00 AM 13.66 56.588 0.75 7.55 5.65 9.41
9/30/2021 9:30:00 AM 13.7 56.66 0.752 7.55 4.95 9.44
9/30/2021 9:45:00 AM 13.76 56.768 0.755 7.55 4.96 9.52
9/30/2021 10:00:00 AM 13.84 56.912 0.76 7.55 5.08 9.59
9/30/2021 10:15:00 AM 13.92 57.056 0.765 7.55 5.18